<?xml version="1.0" encoding="UTF-8" standalone="no" ?>
<gpx xmlns="http://www.topografix.com/GPX/1/1" xmlns:xsi="http://www.w3.org/2001/XMLSchema-instance" xsi:schemaLocation="http://www.topografix.com/GPX/1/1 http://www.topografix.com/GPX/1/1/gpx.xsd" version="1.1" creator="VisuGPX - https://www.visugpx.com">
  <metadata>
    <name>Revel-gieres-St mury-Revel </name>
    <desc><![CDATA[File with points/tracks from Locus Map/3.37.2]]></desc>
  </metadata>
  <trk>
    <name><![CDATA[2019-05-04 12:55:12]]></name>
    <desc><![CDATA[Lancey]]></desc>
    <trkseg>
      <trkpt lat="45.18387" lon="5.87378">
        <ele>695.99</ele>
        <time>2019-05-04T10:55:17.000Z</time>
      </trkpt>
      <trkpt lat="45.18392" lon="5.87366">
        <ele>691.57</ele>
        <time>2019-05-04T10:55:32.000Z</time>
      </trkpt>
      <trkpt lat="45.18389" lon="5.87346">
        <ele>686.86</ele>
        <time>2019-05-04T10:55:37.000Z</time>
      </trkpt>
      <trkpt lat="45.18386" lon="5.87306">
        <ele>686.03</ele>
        <time>2019-05-04T10:55:42.000Z</time>
      </trkpt>
      <trkpt lat="45.1839" lon="5.87261">
        <ele>684.2</ele>
        <time>2019-05-04T10:55:47.000Z</time>
      </trkpt>
      <trkpt lat="45.18415" lon="5.8722">
        <ele>682.41</ele>
        <time>2019-05-04T10:55:52.000Z</time>
      </trkpt>
      <trkpt lat="45.18436" lon="5.87193">
        <ele>681.05</ele>
        <time>2019-05-04T10:55:57.000Z</time>
      </trkpt>
      <trkpt lat="45.18435" lon="5.87175">
        <ele>676.11</ele>
        <time>2019-05-04T10:56:02.000Z</time>
      </trkpt>
      <trkpt lat="45.18409" lon="5.87142">
        <ele>671.6</ele>
        <time>2019-05-04T10:56:07.000Z</time>
      </trkpt>
      <trkpt lat="45.18445" lon="5.87111">
        <ele>665.32</ele>
        <time>2019-05-04T10:56:12.000Z</time>
      </trkpt>
      <trkpt lat="45.18492" lon="5.87091">
        <ele>662.25</ele>
        <time>2019-05-04T10:56:17.000Z</time>
      </trkpt>
      <trkpt lat="45.18529" lon="5.87051">
        <ele>658.46</ele>
        <time>2019-05-04T10:56:22.000Z</time>
      </trkpt>
      <trkpt lat="45.18576" lon="5.87052">
        <ele>657.19</ele>
        <time>2019-05-04T10:56:27.000Z</time>
      </trkpt>
      <trkpt lat="45.18593" lon="5.86992">
        <ele>652.45</ele>
        <time>2019-05-04T10:56:32.000Z</time>
      </trkpt>
      <trkpt lat="45.18592" lon="5.86925">
        <ele>649.91</ele>
        <time>2019-05-04T10:56:37.000Z</time>
      </trkpt>
      <trkpt lat="45.18584" lon="5.86882">
        <ele>651.38</ele>
        <time>2019-05-04T10:56:42.000Z</time>
      </trkpt>
      <trkpt lat="45.18569" lon="5.86849">
        <ele>647.76</ele>
        <time>2019-05-04T10:56:47.000Z</time>
      </trkpt>
      <trkpt lat="45.18555" lon="5.86816">
        <ele>645.52</ele>
        <time>2019-05-04T10:56:52.000Z</time>
      </trkpt>
      <trkpt lat="45.18539" lon="5.86781">
        <ele>642.56</ele>
        <time>2019-05-04T10:56:57.000Z</time>
      </trkpt>
      <trkpt lat="45.18521" lon="5.86733">
        <ele>639.33</ele>
        <time>2019-05-04T10:57:02.000Z</time>
      </trkpt>
      <trkpt lat="45.18496" lon="5.86682">
        <ele>635.62</ele>
        <time>2019-05-04T10:57:07.000Z</time>
      </trkpt>
      <trkpt lat="45.18466" lon="5.86641">
        <ele>635.69</ele>
        <time>2019-05-04T10:57:12.000Z</time>
      </trkpt>
      <trkpt lat="45.18432" lon="5.8661">
        <ele>634.8</ele>
        <time>2019-05-04T10:57:17.000Z</time>
      </trkpt>
      <trkpt lat="45.18395" lon="5.86591">
        <ele>633.51</ele>
        <time>2019-05-04T10:57:22.000Z</time>
      </trkpt>
      <trkpt lat="45.18356" lon="5.86645">
        <ele>627.27</ele>
        <time>2019-05-04T10:57:27.000Z</time>
      </trkpt>
      <trkpt lat="45.18313" lon="5.86701">
        <ele>623.43</ele>
        <time>2019-05-04T10:57:32.000Z</time>
      </trkpt>
      <trkpt lat="45.18284" lon="5.86771">
        <ele>619.72</ele>
        <time>2019-05-04T10:57:37.000Z</time>
      </trkpt>
      <trkpt lat="45.18265" lon="5.86863">
        <ele>615.84</ele>
        <time>2019-05-04T10:57:42.000Z</time>
      </trkpt>
      <trkpt lat="45.18235" lon="5.86952">
        <ele>610.53</ele>
        <time>2019-05-04T10:57:47.000Z</time>
      </trkpt>
      <trkpt lat="45.18214" lon="5.87048">
        <ele>609.97</ele>
        <time>2019-05-04T10:57:52.000Z</time>
      </trkpt>
      <trkpt lat="45.18183" lon="5.87114">
        <ele>606.19</ele>
        <time>2019-05-04T10:57:57.000Z</time>
      </trkpt>
      <trkpt lat="45.18126" lon="5.87131">
        <ele>603.11</ele>
        <time>2019-05-04T10:58:02.000Z</time>
      </trkpt>
      <trkpt lat="45.18084" lon="5.87206">
        <ele>592.69</ele>
        <time>2019-05-04T10:58:07.000Z</time>
      </trkpt>
      <trkpt lat="45.18058" lon="5.87233">
        <ele>579.12</ele>
        <time>2019-05-04T10:58:12.000Z</time>
      </trkpt>
      <trkpt lat="45.18053" lon="5.87194">
        <ele>576.18</ele>
        <time>2019-05-04T10:58:17.000Z</time>
      </trkpt>
      <trkpt lat="45.18048" lon="5.87167">
        <ele>574.82</ele>
        <time>2019-05-04T10:58:22.000Z</time>
      </trkpt>
      <trkpt lat="45.18043" lon="5.87145">
        <ele>577.68</ele>
        <time>2019-05-04T10:58:27.000Z</time>
      </trkpt>
      <trkpt lat="45.18041" lon="5.87123">
        <ele>578.76</ele>
        <time>2019-05-04T10:58:32.000Z</time>
      </trkpt>
      <trkpt lat="45.18043" lon="5.87102">
        <ele>582.07</ele>
        <time>2019-05-04T10:58:37.000Z</time>
      </trkpt>
      <trkpt lat="45.18047" lon="5.87077">
        <ele>580.94</ele>
        <time>2019-05-04T10:58:42.000Z</time>
      </trkpt>
      <trkpt lat="45.18052" lon="5.87054">
        <ele>579.72</ele>
        <time>2019-05-04T10:58:47.000Z</time>
      </trkpt>
      <trkpt lat="45.18055" lon="5.87028">
        <ele>579.35</ele>
        <time>2019-05-04T10:58:52.000Z</time>
      </trkpt>
      <trkpt lat="45.18059" lon="5.87003">
        <ele>582.25</ele>
        <time>2019-05-04T10:58:57.000Z</time>
      </trkpt>
      <trkpt lat="45.18056" lon="5.86974">
        <ele>579.06</ele>
        <time>2019-05-04T10:59:02.000Z</time>
      </trkpt>
      <trkpt lat="45.18056" lon="5.86941">
        <ele>581.52</ele>
        <time>2019-05-04T10:59:07.000Z</time>
      </trkpt>
      <trkpt lat="45.18053" lon="5.86913">
        <ele>578.52</ele>
        <time>2019-05-04T10:59:12.000Z</time>
      </trkpt>
      <trkpt lat="45.18045" lon="5.86887">
        <ele>577.59</ele>
        <time>2019-05-04T10:59:17.000Z</time>
      </trkpt>
      <trkpt lat="45.18037" lon="5.86857">
        <ele>578.5</ele>
        <time>2019-05-04T10:59:22.000Z</time>
      </trkpt>
      <trkpt lat="45.1803" lon="5.86828">
        <ele>579.39</ele>
        <time>2019-05-04T10:59:27.000Z</time>
      </trkpt>
      <trkpt lat="45.18027" lon="5.868">
        <ele>583.95</ele>
        <time>2019-05-04T10:59:32.000Z</time>
      </trkpt>
      <trkpt lat="45.18024" lon="5.86768">
        <ele>584.54</ele>
        <time>2019-05-04T10:59:37.000Z</time>
      </trkpt>
      <trkpt lat="45.18022" lon="5.86742">
        <ele>585.06</ele>
        <time>2019-05-04T10:59:42.000Z</time>
      </trkpt>
      <trkpt lat="45.18019" lon="5.86711">
        <ele>586.49</ele>
        <time>2019-05-04T10:59:47.000Z</time>
      </trkpt>
      <trkpt lat="45.18017" lon="5.86676">
        <ele>583.88</ele>
        <time>2019-05-04T10:59:52.000Z</time>
      </trkpt>
      <trkpt lat="45.1802" lon="5.86645">
        <ele>588.9</ele>
        <time>2019-05-04T10:59:57.000Z</time>
      </trkpt>
      <trkpt lat="45.18024" lon="5.86618">
        <ele>592.25</ele>
        <time>2019-05-04T11:00:02.000Z</time>
      </trkpt>
      <trkpt lat="45.18022" lon="5.8659">
        <ele>592.66</ele>
        <time>2019-05-04T11:00:07.000Z</time>
      </trkpt>
      <trkpt lat="45.1802" lon="5.86561">
        <ele>593.12</ele>
        <time>2019-05-04T11:00:12.000Z</time>
      </trkpt>
      <trkpt lat="45.18018" lon="5.86537">
        <ele>592.12</ele>
        <time>2019-05-04T11:00:17.000Z</time>
      </trkpt>
      <trkpt lat="45.18018" lon="5.86512">
        <ele>593.34</ele>
        <time>2019-05-04T11:00:22.000Z</time>
      </trkpt>
      <trkpt lat="45.1802" lon="5.86486">
        <ele>597.84</ele>
        <time>2019-05-04T11:00:27.000Z</time>
      </trkpt>
      <trkpt lat="45.18019" lon="5.86456">
        <ele>599.69</ele>
        <time>2019-05-04T11:00:32.000Z</time>
      </trkpt>
      <trkpt lat="45.18023" lon="5.86411">
        <ele>602.68</ele>
        <time>2019-05-04T11:00:37.000Z</time>
      </trkpt>
      <trkpt lat="45.1801" lon="5.86374">
        <ele>606.28</ele>
        <time>2019-05-04T11:00:42.000Z</time>
      </trkpt>
      <trkpt lat="45.17991" lon="5.86362">
        <ele>609.87</ele>
        <time>2019-05-04T11:00:47.000Z</time>
      </trkpt>
      <trkpt lat="45.17968" lon="5.86362">
        <ele>611.98</ele>
        <time>2019-05-04T11:00:52.000Z</time>
      </trkpt>
      <trkpt lat="45.17947" lon="5.86363">
        <ele>612.23</ele>
        <time>2019-05-04T11:00:57.000Z</time>
      </trkpt>
      <trkpt lat="45.17927" lon="5.86368">
        <ele>614.78</ele>
        <time>2019-05-04T11:01:02.000Z</time>
      </trkpt>
      <trkpt lat="45.17906" lon="5.8637">
        <ele>613.67</ele>
        <time>2019-05-04T11:01:07.000Z</time>
      </trkpt>
      <trkpt lat="45.17886" lon="5.86372">
        <ele>614.97</ele>
        <time>2019-05-04T11:01:12.000Z</time>
      </trkpt>
      <trkpt lat="45.17866" lon="5.86375">
        <ele>619.67</ele>
        <time>2019-05-04T11:01:17.000Z</time>
      </trkpt>
      <trkpt lat="45.17846" lon="5.86377">
        <ele>618.03</ele>
        <time>2019-05-04T11:01:22.000Z</time>
      </trkpt>
      <trkpt lat="45.17822" lon="5.86379">
        <ele>617</ele>
        <time>2019-05-04T11:01:27.000Z</time>
      </trkpt>
      <trkpt lat="45.17793" lon="5.86357">
        <ele>614.94</ele>
        <time>2019-05-04T11:01:32.000Z</time>
      </trkpt>
      <trkpt lat="45.17763" lon="5.86331">
        <ele>615.01</ele>
        <time>2019-05-04T11:01:37.000Z</time>
      </trkpt>
      <trkpt lat="45.17725" lon="5.86313">
        <ele>616.5</ele>
        <time>2019-05-04T11:01:42.000Z</time>
      </trkpt>
      <trkpt lat="45.17703" lon="5.86261">
        <ele>617.08</ele>
        <time>2019-05-04T11:01:47.000Z</time>
      </trkpt>
      <trkpt lat="45.17687" lon="5.86221">
        <ele>616.5</ele>
        <time>2019-05-04T11:01:52.000Z</time>
      </trkpt>
      <trkpt lat="45.17674" lon="5.86199">
        <ele>615.82</ele>
        <time>2019-05-04T11:01:57.000Z</time>
      </trkpt>
      <trkpt lat="45.17661" lon="5.86176">
        <ele>615.67</ele>
        <time>2019-05-04T11:02:02.000Z</time>
      </trkpt>
      <trkpt lat="45.17647" lon="5.86153">
        <ele>616.05</ele>
        <time>2019-05-04T11:02:07.000Z</time>
      </trkpt>
      <trkpt lat="45.17639" lon="5.86126">
        <ele>616.8</ele>
        <time>2019-05-04T11:02:12.000Z</time>
      </trkpt>
      <trkpt lat="45.17636" lon="5.86094">
        <ele>618.69</ele>
        <time>2019-05-04T11:02:17.000Z</time>
      </trkpt>
      <trkpt lat="45.1763" lon="5.86062">
        <ele>622.47</ele>
        <time>2019-05-04T11:02:22.000Z</time>
      </trkpt>
      <trkpt lat="45.17619" lon="5.8603">
        <ele>622.52</ele>
        <time>2019-05-04T11:02:27.000Z</time>
      </trkpt>
      <trkpt lat="45.17601" lon="5.85998">
        <ele>622.45</ele>
        <time>2019-05-04T11:02:32.000Z</time>
      </trkpt>
      <trkpt lat="45.17566" lon="5.85967">
        <ele>620.72</ele>
        <time>2019-05-04T11:02:37.000Z</time>
      </trkpt>
      <trkpt lat="45.17537" lon="5.8592">
        <ele>617.17</ele>
        <time>2019-05-04T11:02:42.000Z</time>
      </trkpt>
      <trkpt lat="45.17521" lon="5.8589">
        <ele>616.95</ele>
        <time>2019-05-04T11:02:47.000Z</time>
      </trkpt>
      <trkpt lat="45.17514" lon="5.85863">
        <ele>619.42</ele>
        <time>2019-05-04T11:02:52.000Z</time>
      </trkpt>
      <trkpt lat="45.17503" lon="5.85831">
        <ele>622.38</ele>
        <time>2019-05-04T11:02:57.000Z</time>
      </trkpt>
      <trkpt lat="45.17497" lon="5.85801">
        <ele>620.72</ele>
        <time>2019-05-04T11:03:02.000Z</time>
      </trkpt>
      <trkpt lat="45.17487" lon="5.85767">
        <ele>621.09</ele>
        <time>2019-05-04T11:03:07.000Z</time>
      </trkpt>
      <trkpt lat="45.17476" lon="5.85733">
        <ele>621.32</ele>
        <time>2019-05-04T11:03:12.000Z</time>
      </trkpt>
      <trkpt lat="45.17459" lon="5.85688">
        <ele>620.79</ele>
        <time>2019-05-04T11:03:17.000Z</time>
      </trkpt>
      <trkpt lat="45.17447" lon="5.8564">
        <ele>618.46</ele>
        <time>2019-05-04T11:03:22.000Z</time>
      </trkpt>
      <trkpt lat="45.17452" lon="5.85589">
        <ele>617.9</ele>
        <time>2019-05-04T11:03:27.000Z</time>
      </trkpt>
      <trkpt lat="45.17475" lon="5.85558">
        <ele>616.56</ele>
        <time>2019-05-04T11:03:32.000Z</time>
      </trkpt>
      <trkpt lat="45.17501" lon="5.85553">
        <ele>615.16</ele>
        <time>2019-05-04T11:03:37.000Z</time>
      </trkpt>
      <trkpt lat="45.17526" lon="5.85546">
        <ele>612.99</ele>
        <time>2019-05-04T11:03:42.000Z</time>
      </trkpt>
      <trkpt lat="45.17551" lon="5.85542">
        <ele>614.03</ele>
        <time>2019-05-04T11:03:47.000Z</time>
      </trkpt>
      <trkpt lat="45.17578" lon="5.85528">
        <ele>614.07</ele>
        <time>2019-05-04T11:03:52.000Z</time>
      </trkpt>
      <trkpt lat="45.17595" lon="5.85504">
        <ele>613.35</ele>
        <time>2019-05-04T11:03:57.000Z</time>
      </trkpt>
      <trkpt lat="45.17607" lon="5.85469">
        <ele>612.19</ele>
        <time>2019-05-04T11:04:02.000Z</time>
      </trkpt>
      <trkpt lat="45.17611" lon="5.85431">
        <ele>611.94</ele>
        <time>2019-05-04T11:04:07.000Z</time>
      </trkpt>
      <trkpt lat="45.17608" lon="5.85393">
        <ele>606.86</ele>
        <time>2019-05-04T11:04:12.000Z</time>
      </trkpt>
      <trkpt lat="45.17607" lon="5.85359">
        <ele>605.45</ele>
        <time>2019-05-04T11:04:17.000Z</time>
      </trkpt>
      <trkpt lat="45.17628" lon="5.85344">
        <ele>608.25</ele>
        <time>2019-05-04T11:04:22.000Z</time>
      </trkpt>
      <trkpt lat="45.17653" lon="5.85352">
        <ele>608.65</ele>
        <time>2019-05-04T11:04:27.000Z</time>
      </trkpt>
      <trkpt lat="45.17676" lon="5.85354">
        <ele>609.59</ele>
        <time>2019-05-04T11:04:32.000Z</time>
      </trkpt>
      <trkpt lat="45.17704" lon="5.8535">
        <ele>610.56</ele>
        <time>2019-05-04T11:04:37.000Z</time>
      </trkpt>
      <trkpt lat="45.17731" lon="5.85359">
        <ele>609.51</ele>
        <time>2019-05-04T11:04:42.000Z</time>
      </trkpt>
      <trkpt lat="45.17759" lon="5.85371">
        <ele>610.09</ele>
        <time>2019-05-04T11:04:47.000Z</time>
      </trkpt>
      <trkpt lat="45.17787" lon="5.85389">
        <ele>607.91</ele>
        <time>2019-05-04T11:04:52.000Z</time>
      </trkpt>
      <trkpt lat="45.17817" lon="5.85413">
        <ele>610.11</ele>
        <time>2019-05-04T11:04:57.000Z</time>
      </trkpt>
      <trkpt lat="45.17852" lon="5.85428">
        <ele>607.34</ele>
        <time>2019-05-04T11:05:02.000Z</time>
      </trkpt>
      <trkpt lat="45.17883" lon="5.85438">
        <ele>609.17</ele>
        <time>2019-05-04T11:05:07.000Z</time>
      </trkpt>
      <trkpt lat="45.17918" lon="5.85447">
        <ele>608.72</ele>
        <time>2019-05-04T11:05:12.000Z</time>
      </trkpt>
      <trkpt lat="45.17944" lon="5.8545">
        <ele>608.4</ele>
        <time>2019-05-04T11:05:17.000Z</time>
      </trkpt>
      <trkpt lat="45.17968" lon="5.85449">
        <ele>606.53</ele>
        <time>2019-05-04T11:05:22.000Z</time>
      </trkpt>
      <trkpt lat="45.17993" lon="5.85444">
        <ele>606.14</ele>
        <time>2019-05-04T11:05:27.000Z</time>
      </trkpt>
      <trkpt lat="45.1802" lon="5.85427">
        <ele>605.49</ele>
        <time>2019-05-04T11:05:32.000Z</time>
      </trkpt>
      <trkpt lat="45.18044" lon="5.854">
        <ele>605.76</ele>
        <time>2019-05-04T11:05:37.000Z</time>
      </trkpt>
      <trkpt lat="45.18062" lon="5.85364">
        <ele>603.86</ele>
        <time>2019-05-04T11:05:42.000Z</time>
      </trkpt>
      <trkpt lat="45.18072" lon="5.85316">
        <ele>604.8</ele>
        <time>2019-05-04T11:05:47.000Z</time>
      </trkpt>
      <trkpt lat="45.18077" lon="5.85259">
        <ele>597.47</ele>
        <time>2019-05-04T11:05:52.000Z</time>
      </trkpt>
      <trkpt lat="45.1809" lon="5.85206">
        <ele>598.93</ele>
        <time>2019-05-04T11:05:57.000Z</time>
      </trkpt>
      <trkpt lat="45.18118" lon="5.85149">
        <ele>598.26</ele>
        <time>2019-05-04T11:06:02.000Z</time>
      </trkpt>
      <trkpt lat="45.18157" lon="5.85144">
        <ele>597.13</ele>
        <time>2019-05-04T11:06:07.000Z</time>
      </trkpt>
      <trkpt lat="45.18197" lon="5.85146">
        <ele>595.8</ele>
        <time>2019-05-04T11:06:12.000Z</time>
      </trkpt>
      <trkpt lat="45.18231" lon="5.85154">
        <ele>597.08</ele>
        <time>2019-05-04T11:06:17.000Z</time>
      </trkpt>
      <trkpt lat="45.18269" lon="5.85156">
        <ele>597.94</ele>
        <time>2019-05-04T11:06:22.000Z</time>
      </trkpt>
      <trkpt lat="45.18299" lon="5.8516">
        <ele>600.5</ele>
        <time>2019-05-04T11:06:27.000Z</time>
      </trkpt>
      <trkpt lat="45.18326" lon="5.85164">
        <ele>595.33</ele>
        <time>2019-05-04T11:06:32.000Z</time>
      </trkpt>
      <trkpt lat="45.18351" lon="5.85162">
        <ele>596.06</ele>
        <time>2019-05-04T11:06:37.000Z</time>
      </trkpt>
      <trkpt lat="45.18371" lon="5.85157">
        <ele>591.85</ele>
        <time>2019-05-04T11:06:42.000Z</time>
      </trkpt>
      <trkpt lat="45.18395" lon="5.85153">
        <ele>589.49</ele>
        <time>2019-05-04T11:06:47.000Z</time>
      </trkpt>
      <trkpt lat="45.18426" lon="5.85144">
        <ele>586.63</ele>
        <time>2019-05-04T11:06:52.000Z</time>
      </trkpt>
      <trkpt lat="45.18451" lon="5.85133">
        <ele>586.6</ele>
        <time>2019-05-04T11:06:57.000Z</time>
      </trkpt>
      <trkpt lat="45.18482" lon="5.85121">
        <ele>587.81</ele>
        <time>2019-05-04T11:07:02.000Z</time>
      </trkpt>
      <trkpt lat="45.18515" lon="5.85101">
        <ele>583.77</ele>
        <time>2019-05-04T11:07:07.000Z</time>
      </trkpt>
      <trkpt lat="45.18545" lon="5.85086">
        <ele>580.77</ele>
        <time>2019-05-04T11:07:12.000Z</time>
      </trkpt>
      <trkpt lat="45.18582" lon="5.85075">
        <ele>581.31</ele>
        <time>2019-05-04T11:07:17.000Z</time>
      </trkpt>
      <trkpt lat="45.18614" lon="5.85063">
        <ele>582.48</ele>
        <time>2019-05-04T11:07:22.000Z</time>
      </trkpt>
      <trkpt lat="45.18651" lon="5.85048">
        <ele>582.5</ele>
        <time>2019-05-04T11:07:27.000Z</time>
      </trkpt>
      <trkpt lat="45.18669" lon="5.85017">
        <ele>585.73</ele>
        <time>2019-05-04T11:07:32.000Z</time>
      </trkpt>
      <trkpt lat="45.18655" lon="5.84975">
        <ele>587.5</ele>
        <time>2019-05-04T11:07:37.000Z</time>
      </trkpt>
      <trkpt lat="45.18639" lon="5.84936">
        <ele>585.96</ele>
        <time>2019-05-04T11:07:42.000Z</time>
      </trkpt>
      <trkpt lat="45.18638" lon="5.84895">
        <ele>585.58</ele>
        <time>2019-05-04T11:07:47.000Z</time>
      </trkpt>
      <trkpt lat="45.18636" lon="5.84848">
        <ele>587.74</ele>
        <time>2019-05-04T11:07:52.000Z</time>
      </trkpt>
      <trkpt lat="45.18624" lon="5.84807">
        <ele>586.15</ele>
        <time>2019-05-04T11:07:57.000Z</time>
      </trkpt>
      <trkpt lat="45.18611" lon="5.84765">
        <ele>588.55</ele>
        <time>2019-05-04T11:08:02.000Z</time>
      </trkpt>
      <trkpt lat="45.18605" lon="5.84717">
        <ele>593.89</ele>
        <time>2019-05-04T11:08:07.000Z</time>
      </trkpt>
      <trkpt lat="45.18613" lon="5.84677">
        <ele>591.68</ele>
        <time>2019-05-04T11:08:12.000Z</time>
      </trkpt>
      <trkpt lat="45.18647" lon="5.84685">
        <ele>594</ele>
        <time>2019-05-04T11:08:17.000Z</time>
      </trkpt>
      <trkpt lat="45.18684" lon="5.84688">
        <ele>591.28</ele>
        <time>2019-05-04T11:08:22.000Z</time>
      </trkpt>
      <trkpt lat="45.18709" lon="5.84651">
        <ele>589.79</ele>
        <time>2019-05-04T11:08:27.000Z</time>
      </trkpt>
      <trkpt lat="45.18734" lon="5.84608">
        <ele>586.79</ele>
        <time>2019-05-04T11:08:32.000Z</time>
      </trkpt>
      <trkpt lat="45.18756" lon="5.84565">
        <ele>586.65</ele>
        <time>2019-05-04T11:08:37.000Z</time>
      </trkpt>
      <trkpt lat="45.18788" lon="5.84537">
        <ele>584.3</ele>
        <time>2019-05-04T11:08:42.000Z</time>
      </trkpt>
      <trkpt lat="45.18825" lon="5.84527">
        <ele>583.55</ele>
        <time>2019-05-04T11:08:47.000Z</time>
      </trkpt>
      <trkpt lat="45.1886" lon="5.84536">
        <ele>581.67</ele>
        <time>2019-05-04T11:08:52.000Z</time>
      </trkpt>
      <trkpt lat="45.18891" lon="5.84543">
        <ele>582.1</ele>
        <time>2019-05-04T11:08:57.000Z</time>
      </trkpt>
      <trkpt lat="45.18915" lon="5.84528">
        <ele>584.01</ele>
        <time>2019-05-04T11:09:02.000Z</time>
      </trkpt>
      <trkpt lat="45.18917" lon="5.84479">
        <ele>579.8</ele>
        <time>2019-05-04T11:09:07.000Z</time>
      </trkpt>
      <trkpt lat="45.18901" lon="5.84416">
        <ele>574.9</ele>
        <time>2019-05-04T11:09:12.000Z</time>
      </trkpt>
      <trkpt lat="45.18904" lon="5.84341">
        <ele>572.4</ele>
        <time>2019-05-04T11:09:17.000Z</time>
      </trkpt>
      <trkpt lat="45.18915" lon="5.84255">
        <ele>570.43</ele>
        <time>2019-05-04T11:09:22.000Z</time>
      </trkpt>
      <trkpt lat="45.18924" lon="5.84184">
        <ele>574.24</ele>
        <time>2019-05-04T11:09:27.000Z</time>
      </trkpt>
      <trkpt lat="45.18955" lon="5.8414">
        <ele>574.19</ele>
        <time>2019-05-04T11:09:32.000Z</time>
      </trkpt>
      <trkpt lat="45.18993" lon="5.84121">
        <ele>573.23</ele>
        <time>2019-05-04T11:09:37.000Z</time>
      </trkpt>
      <trkpt lat="45.19024" lon="5.84093">
        <ele>570.67</ele>
        <time>2019-05-04T11:09:42.000Z</time>
      </trkpt>
      <trkpt lat="45.19043" lon="5.84054">
        <ele>571.54</ele>
        <time>2019-05-04T11:09:47.000Z</time>
      </trkpt>
      <trkpt lat="45.19036" lon="5.84025">
        <ele>567.48</ele>
        <time>2019-05-04T11:09:52.000Z</time>
      </trkpt>
      <trkpt lat="45.19037" lon="5.8401">
        <ele>559.81</ele>
        <time>2019-05-04T11:09:57.000Z</time>
      </trkpt>
      <trkpt lat="45.19031" lon="5.83976">
        <ele>558.41</ele>
        <time>2019-05-04T11:10:02.000Z</time>
      </trkpt>
      <trkpt lat="45.19026" lon="5.83921">
        <ele>555.35</ele>
        <time>2019-05-04T11:10:07.000Z</time>
      </trkpt>
      <trkpt lat="45.19012" lon="5.83857">
        <ele>554.97</ele>
        <time>2019-05-04T11:10:12.000Z</time>
      </trkpt>
      <trkpt lat="45.18982" lon="5.8379">
        <ele>551.79</ele>
        <time>2019-05-04T11:10:17.000Z</time>
      </trkpt>
      <trkpt lat="45.18951" lon="5.83718">
        <ele>553.74</ele>
        <time>2019-05-04T11:10:22.000Z</time>
      </trkpt>
      <trkpt lat="45.18919" lon="5.83668">
        <ele>546.5</ele>
        <time>2019-05-04T11:10:27.000Z</time>
      </trkpt>
      <trkpt lat="45.18872" lon="5.83673">
        <ele>543.21</ele>
        <time>2019-05-04T11:10:32.000Z</time>
      </trkpt>
      <trkpt lat="45.18824" lon="5.83671">
        <ele>537.5</ele>
        <time>2019-05-04T11:10:37.000Z</time>
      </trkpt>
      <trkpt lat="45.18784" lon="5.8364">
        <ele>533.09</ele>
        <time>2019-05-04T11:10:42.000Z</time>
      </trkpt>
      <trkpt lat="45.18733" lon="5.8364">
        <ele>533.81</ele>
        <time>2019-05-04T11:10:47.000Z</time>
      </trkpt>
      <trkpt lat="45.18695" lon="5.8364">
        <ele>534.25</ele>
        <time>2019-05-04T11:10:52.000Z</time>
      </trkpt>
      <trkpt lat="45.18698" lon="5.8357">
        <ele>532.63</ele>
        <time>2019-05-04T11:10:57.000Z</time>
      </trkpt>
      <trkpt lat="45.18732" lon="5.83518">
        <ele>534.62</ele>
        <time>2019-05-04T11:11:02.000Z</time>
      </trkpt>
      <trkpt lat="45.18739" lon="5.83458">
        <ele>531.64</ele>
        <time>2019-05-04T11:11:07.000Z</time>
      </trkpt>
      <trkpt lat="45.1878" lon="5.83431">
        <ele>526.57</ele>
        <time>2019-05-04T11:11:12.000Z</time>
      </trkpt>
      <trkpt lat="45.18816" lon="5.83382">
        <ele>525.73</ele>
        <time>2019-05-04T11:11:17.000Z</time>
      </trkpt>
      <trkpt lat="45.18823" lon="5.833">
        <ele>524.03</ele>
        <time>2019-05-04T11:11:22.000Z</time>
      </trkpt>
      <trkpt lat="45.18847" lon="5.83234">
        <ele>519.09</ele>
        <time>2019-05-04T11:11:27.000Z</time>
      </trkpt>
      <trkpt lat="45.18883" lon="5.83168">
        <ele>517.24</ele>
        <time>2019-05-04T11:11:32.000Z</time>
      </trkpt>
      <trkpt lat="45.18889" lon="5.83089">
        <ele>512.61</ele>
        <time>2019-05-04T11:11:37.000Z</time>
      </trkpt>
      <trkpt lat="45.18895" lon="5.83005">
        <ele>504.59</ele>
        <time>2019-05-04T11:11:42.000Z</time>
      </trkpt>
      <trkpt lat="45.18901" lon="5.82925">
        <ele>499.91</ele>
        <time>2019-05-04T11:11:47.000Z</time>
      </trkpt>
      <trkpt lat="45.18875" lon="5.82842">
        <ele>498.91</ele>
        <time>2019-05-04T11:11:52.000Z</time>
      </trkpt>
      <trkpt lat="45.18848" lon="5.82762">
        <ele>496.76</ele>
        <time>2019-05-04T11:11:57.000Z</time>
      </trkpt>
      <trkpt lat="45.18808" lon="5.82688">
        <ele>489.4</ele>
        <time>2019-05-04T11:12:02.000Z</time>
      </trkpt>
      <trkpt lat="45.18759" lon="5.82658">
        <ele>485.89</ele>
        <time>2019-05-04T11:12:07.000Z</time>
      </trkpt>
      <trkpt lat="45.18705" lon="5.82668">
        <ele>479.61</ele>
        <time>2019-05-04T11:12:12.000Z</time>
      </trkpt>
      <trkpt lat="45.18647" lon="5.82639">
        <ele>474.96</ele>
        <time>2019-05-04T11:12:17.000Z</time>
      </trkpt>
      <trkpt lat="45.18601" lon="5.82579">
        <ele>471.57</ele>
        <time>2019-05-04T11:12:22.000Z</time>
      </trkpt>
      <trkpt lat="45.18549" lon="5.82531">
        <ele>468.03</ele>
        <time>2019-05-04T11:12:27.000Z</time>
      </trkpt>
      <trkpt lat="45.18495" lon="5.82542">
        <ele>462.56</ele>
        <time>2019-05-04T11:12:32.000Z</time>
      </trkpt>
      <trkpt lat="45.18447" lon="5.82595">
        <ele>457.25</ele>
        <time>2019-05-04T11:12:37.000Z</time>
      </trkpt>
      <trkpt lat="45.18398" lon="5.82633">
        <ele>453.41</ele>
        <time>2019-05-04T11:12:42.000Z</time>
      </trkpt>
      <trkpt lat="45.184" lon="5.82593">
        <ele>451.87</ele>
        <time>2019-05-04T11:12:47.000Z</time>
      </trkpt>
      <trkpt lat="45.18419" lon="5.82556">
        <ele>445.54</ele>
        <time>2019-05-04T11:12:52.000Z</time>
      </trkpt>
      <trkpt lat="45.1843" lon="5.82519">
        <ele>443.56</ele>
        <time>2019-05-04T11:12:57.000Z</time>
      </trkpt>
      <trkpt lat="45.18443" lon="5.82494">
        <ele>442.42</ele>
        <time>2019-05-04T11:13:02.000Z</time>
      </trkpt>
      <trkpt lat="45.18445" lon="5.82461">
        <ele>446.19</ele>
        <time>2019-05-04T11:13:07.000Z</time>
      </trkpt>
      <trkpt lat="45.18453" lon="5.8243">
        <ele>445.89</ele>
        <time>2019-05-04T11:13:12.000Z</time>
      </trkpt>
      <trkpt lat="45.18465" lon="5.82405">
        <ele>442.87</ele>
        <time>2019-05-04T11:13:17.000Z</time>
      </trkpt>
      <trkpt lat="45.18481" lon="5.82382">
        <ele>440.47</ele>
        <time>2019-05-04T11:13:22.000Z</time>
      </trkpt>
      <trkpt lat="45.18505" lon="5.82356">
        <ele>441.64</ele>
        <time>2019-05-04T11:13:27.000Z</time>
      </trkpt>
      <trkpt lat="45.18523" lon="5.82337">
        <ele>445.37</ele>
        <time>2019-05-04T11:13:32.000Z</time>
      </trkpt>
      <trkpt lat="45.1852" lon="5.82311">
        <ele>444.26</ele>
        <time>2019-05-04T11:13:37.000Z</time>
      </trkpt>
      <trkpt lat="45.18527" lon="5.82279">
        <ele>447.67</ele>
        <time>2019-05-04T11:13:42.000Z</time>
      </trkpt>
      <trkpt lat="45.18531" lon="5.82246">
        <ele>451.13</ele>
        <time>2019-05-04T11:13:47.000Z</time>
      </trkpt>
      <trkpt lat="45.18531" lon="5.8221">
        <ele>450.21</ele>
        <time>2019-05-04T11:13:52.000Z</time>
      </trkpt>
      <trkpt lat="45.18517" lon="5.82181">
        <ele>448.81</ele>
        <time>2019-05-04T11:13:57.000Z</time>
      </trkpt>
      <trkpt lat="45.18489" lon="5.82173">
        <ele>454.85</ele>
        <time>2019-05-04T11:14:02.000Z</time>
      </trkpt>
      <trkpt lat="45.18462" lon="5.8216">
        <ele>452.63</ele>
        <time>2019-05-04T11:14:07.000Z</time>
      </trkpt>
      <trkpt lat="45.18446" lon="5.82145">
        <ele>457.3</ele>
        <time>2019-05-04T11:14:12.000Z</time>
      </trkpt>
      <trkpt lat="45.18431" lon="5.82148">
        <ele>459.37</ele>
        <time>2019-05-04T11:14:17.000Z</time>
      </trkpt>
      <trkpt lat="45.18419" lon="5.82161">
        <ele>457.95</ele>
        <time>2019-05-04T11:14:22.000Z</time>
      </trkpt>
      <trkpt lat="45.18415" lon="5.82189">
        <ele>461.8</ele>
        <time>2019-05-04T11:14:27.000Z</time>
      </trkpt>
      <trkpt lat="45.18414" lon="5.82218">
        <ele>467.27</ele>
        <time>2019-05-04T11:14:32.000Z</time>
      </trkpt>
      <trkpt lat="45.18412" lon="5.82249">
        <ele>468.9</ele>
        <time>2019-05-04T11:14:37.000Z</time>
      </trkpt>
      <trkpt lat="45.18411" lon="5.82279">
        <ele>471.21</ele>
        <time>2019-05-04T11:14:42.000Z</time>
      </trkpt>
      <trkpt lat="45.18418" lon="5.82307">
        <ele>472.1</ele>
        <time>2019-05-04T11:14:47.000Z</time>
      </trkpt>
      <trkpt lat="45.18427" lon="5.82334">
        <ele>474.42</ele>
        <time>2019-05-04T11:14:52.000Z</time>
      </trkpt>
      <trkpt lat="45.18435" lon="5.82357">
        <ele>472.13</ele>
        <time>2019-05-04T11:14:57.000Z</time>
      </trkpt>
      <trkpt lat="45.18425" lon="5.82359">
        <ele>471.86</ele>
        <time>2019-05-04T11:15:02.000Z</time>
      </trkpt>
      <trkpt lat="45.18411" lon="5.82334">
        <ele>474.4</ele>
        <time>2019-05-04T11:15:07.000Z</time>
      </trkpt>
      <trkpt lat="45.18397" lon="5.8231">
        <ele>476.42</ele>
        <time>2019-05-04T11:15:12.000Z</time>
      </trkpt>
      <trkpt lat="45.18385" lon="5.82289">
        <ele>478.66</ele>
        <time>2019-05-04T11:15:17.000Z</time>
      </trkpt>
      <trkpt lat="45.18375" lon="5.82265">
        <ele>477.87</ele>
        <time>2019-05-04T11:15:22.000Z</time>
      </trkpt>
      <trkpt lat="45.18364" lon="5.82238">
        <ele>477.03</ele>
        <time>2019-05-04T11:15:27.000Z</time>
      </trkpt>
      <trkpt lat="45.18353" lon="5.82214">
        <ele>477.59</ele>
        <time>2019-05-04T11:15:32.000Z</time>
      </trkpt>
      <trkpt lat="45.18351" lon="5.82186">
        <ele>475.21</ele>
        <time>2019-05-04T11:15:37.000Z</time>
      </trkpt>
      <trkpt lat="45.18349" lon="5.82161">
        <ele>479.5</ele>
        <time>2019-05-04T11:15:42.000Z</time>
      </trkpt>
      <trkpt lat="45.18348" lon="5.82131">
        <ele>482.28</ele>
        <time>2019-05-04T11:15:47.000Z</time>
      </trkpt>
      <trkpt lat="45.18345" lon="5.82104">
        <ele>484.27</ele>
        <time>2019-05-04T11:15:52.000Z</time>
      </trkpt>
      <trkpt lat="45.18343" lon="5.82075">
        <ele>488.72</ele>
        <time>2019-05-04T11:15:57.000Z</time>
      </trkpt>
      <trkpt lat="45.18337" lon="5.82045">
        <ele>492.9</ele>
        <time>2019-05-04T11:16:02.000Z</time>
      </trkpt>
      <trkpt lat="45.18333" lon="5.82018">
        <ele>496.45</ele>
        <time>2019-05-04T11:16:07.000Z</time>
      </trkpt>
      <trkpt lat="45.18324" lon="5.81993">
        <ele>499.02</ele>
        <time>2019-05-04T11:16:12.000Z</time>
      </trkpt>
      <trkpt lat="45.18309" lon="5.81977">
        <ele>500.88</ele>
        <time>2019-05-04T11:16:17.000Z</time>
      </trkpt>
      <trkpt lat="45.18291" lon="5.81987">
        <ele>503.19</ele>
        <time>2019-05-04T11:16:22.000Z</time>
      </trkpt>
      <trkpt lat="45.18277" lon="5.82003">
        <ele>507.05</ele>
        <time>2019-05-04T11:16:27.000Z</time>
      </trkpt>
      <trkpt lat="45.1826" lon="5.82">
        <ele>506.9</ele>
        <time>2019-05-04T11:16:32.000Z</time>
      </trkpt>
      <trkpt lat="45.18246" lon="5.81987">
        <ele>509.27</ele>
        <time>2019-05-04T11:16:37.000Z</time>
      </trkpt>
      <trkpt lat="45.1823" lon="5.81978">
        <ele>516.13</ele>
        <time>2019-05-04T11:16:42.000Z</time>
      </trkpt>
      <trkpt lat="45.18217" lon="5.81967">
        <ele>517.06</ele>
        <time>2019-05-04T11:16:47.000Z</time>
      </trkpt>
      <trkpt lat="45.18203" lon="5.81955">
        <ele>517.71</ele>
        <time>2019-05-04T11:16:52.000Z</time>
      </trkpt>
      <trkpt lat="45.1819" lon="5.81944">
        <ele>520.77</ele>
        <time>2019-05-04T11:16:57.000Z</time>
      </trkpt>
      <trkpt lat="45.18172" lon="5.81935">
        <ele>525.18</ele>
        <time>2019-05-04T11:17:02.000Z</time>
      </trkpt>
      <trkpt lat="45.18156" lon="5.81924">
        <ele>527.35</ele>
        <time>2019-05-04T11:17:07.000Z</time>
      </trkpt>
      <trkpt lat="45.18141" lon="5.81912">
        <ele>526.62</ele>
        <time>2019-05-04T11:17:12.000Z</time>
      </trkpt>
      <trkpt lat="45.18127" lon="5.819">
        <ele>531.65</ele>
        <time>2019-05-04T11:17:17.000Z</time>
      </trkpt>
      <trkpt lat="45.18116" lon="5.81884">
        <ele>533.7</ele>
        <time>2019-05-04T11:17:22.000Z</time>
      </trkpt>
      <trkpt lat="45.18105" lon="5.81868">
        <ele>537.11</ele>
        <time>2019-05-04T11:17:27.000Z</time>
      </trkpt>
      <trkpt lat="45.18093" lon="5.81856">
        <ele>540.15</ele>
        <time>2019-05-04T11:17:32.000Z</time>
      </trkpt>
      <trkpt lat="45.18078" lon="5.81851">
        <ele>540.75</ele>
        <time>2019-05-04T11:17:37.000Z</time>
      </trkpt>
      <trkpt lat="45.18063" lon="5.8185">
        <ele>542.62</ele>
        <time>2019-05-04T11:17:42.000Z</time>
      </trkpt>
      <trkpt lat="45.18047" lon="5.81846">
        <ele>545.05</ele>
        <time>2019-05-04T11:17:47.000Z</time>
      </trkpt>
      <trkpt lat="45.18035" lon="5.81834">
        <ele>547.88</ele>
        <time>2019-05-04T11:17:52.000Z</time>
      </trkpt>
      <trkpt lat="45.18016" lon="5.81814">
        <ele>547.56</ele>
        <time>2019-05-04T11:17:57.000Z</time>
      </trkpt>
      <trkpt lat="45.17994" lon="5.81792">
        <ele>547.46</ele>
        <time>2019-05-04T11:18:02.000Z</time>
      </trkpt>
      <trkpt lat="45.17974" lon="5.81771">
        <ele>547.15</ele>
        <time>2019-05-04T11:18:07.000Z</time>
      </trkpt>
      <trkpt lat="45.17958" lon="5.8176">
        <ele>547.63</ele>
        <time>2019-05-04T11:18:12.000Z</time>
      </trkpt>
      <trkpt lat="45.17941" lon="5.81756">
        <ele>547.83</ele>
        <time>2019-05-04T11:18:17.000Z</time>
      </trkpt>
      <trkpt lat="45.1792" lon="5.81756">
        <ele>547.48</ele>
        <time>2019-05-04T11:18:22.000Z</time>
      </trkpt>
      <trkpt lat="45.17901" lon="5.81739">
        <ele>546.21</ele>
        <time>2019-05-04T11:18:27.000Z</time>
      </trkpt>
      <trkpt lat="45.17893" lon="5.81712">
        <ele>543.76</ele>
        <time>2019-05-04T11:18:32.000Z</time>
      </trkpt>
      <trkpt lat="45.179" lon="5.81671">
        <ele>537.55</ele>
        <time>2019-05-04T11:18:37.000Z</time>
      </trkpt>
      <trkpt lat="45.179" lon="5.81616">
        <ele>535.47</ele>
        <time>2019-05-04T11:18:42.000Z</time>
      </trkpt>
      <trkpt lat="45.1789" lon="5.81567">
        <ele>533.81</ele>
        <time>2019-05-04T11:18:47.000Z</time>
      </trkpt>
      <trkpt lat="45.17879" lon="5.81541">
        <ele>537.54</ele>
        <time>2019-05-04T11:18:52.000Z</time>
      </trkpt>
      <trkpt lat="45.17871" lon="5.81525">
        <ele>538.81</ele>
        <time>2019-05-04T11:18:57.000Z</time>
      </trkpt>
      <trkpt lat="45.1786" lon="5.81505">
        <ele>540.54</ele>
        <time>2019-05-04T11:19:02.000Z</time>
      </trkpt>
      <trkpt lat="45.17849" lon="5.8149">
        <ele>538.82</ele>
        <time>2019-05-04T11:19:07.000Z</time>
      </trkpt>
      <trkpt lat="45.17838" lon="5.81472">
        <ele>538.13</ele>
        <time>2019-05-04T11:19:12.000Z</time>
      </trkpt>
      <trkpt lat="45.17828" lon="5.81446">
        <ele>540.47</ele>
        <time>2019-05-04T11:19:17.000Z</time>
      </trkpt>
      <trkpt lat="45.17822" lon="5.81413">
        <ele>544.49</ele>
        <time>2019-05-04T11:19:22.000Z</time>
      </trkpt>
      <trkpt lat="45.17814" lon="5.8138">
        <ele>542.71</ele>
        <time>2019-05-04T11:19:27.000Z</time>
      </trkpt>
      <trkpt lat="45.17805" lon="5.8135">
        <ele>546.57</ele>
        <time>2019-05-04T11:19:32.000Z</time>
      </trkpt>
      <trkpt lat="45.17796" lon="5.81324">
        <ele>546.93</ele>
        <time>2019-05-04T11:19:37.000Z</time>
      </trkpt>
      <trkpt lat="45.17785" lon="5.81294">
        <ele>552.45</ele>
        <time>2019-05-04T11:19:42.000Z</time>
      </trkpt>
      <trkpt lat="45.17774" lon="5.81266">
        <ele>553.97</ele>
        <time>2019-05-04T11:19:47.000Z</time>
      </trkpt>
      <trkpt lat="45.17762" lon="5.81245">
        <ele>557.97</ele>
        <time>2019-05-04T11:19:52.000Z</time>
      </trkpt>
      <trkpt lat="45.1775" lon="5.8123">
        <ele>565.36</ele>
        <time>2019-05-04T11:19:57.000Z</time>
      </trkpt>
      <trkpt lat="45.17744" lon="5.8122">
        <ele>569.83</ele>
        <time>2019-05-04T11:20:07.000Z</time>
      </trkpt>
      <trkpt lat="45.17738" lon="5.81207">
        <ele>568.69</ele>
        <time>2019-05-04T11:21:05.000Z</time>
      </trkpt>
      <trkpt lat="45.17724" lon="5.8119">
        <ele>570.76</ele>
        <time>2019-05-04T11:21:10.000Z</time>
      </trkpt>
      <trkpt lat="45.17707" lon="5.81169">
        <ele>570.72</ele>
        <time>2019-05-04T11:21:15.000Z</time>
      </trkpt>
      <trkpt lat="45.17692" lon="5.8115">
        <ele>569.23</ele>
        <time>2019-05-04T11:21:20.000Z</time>
      </trkpt>
      <trkpt lat="45.17674" lon="5.81122">
        <ele>570.8</ele>
        <time>2019-05-04T11:21:25.000Z</time>
      </trkpt>
      <trkpt lat="45.17661" lon="5.811">
        <ele>570.35</ele>
        <time>2019-05-04T11:21:30.000Z</time>
      </trkpt>
      <trkpt lat="45.1764" lon="5.81055">
        <ele>564.36</ele>
        <time>2019-05-04T11:21:35.000Z</time>
      </trkpt>
      <trkpt lat="45.17629" lon="5.81002">
        <ele>558.45</ele>
        <time>2019-05-04T11:21:40.000Z</time>
      </trkpt>
      <trkpt lat="45.17612" lon="5.80953">
        <ele>551.02</ele>
        <time>2019-05-04T11:21:45.000Z</time>
      </trkpt>
      <trkpt lat="45.17597" lon="5.80911">
        <ele>554.95</ele>
        <time>2019-05-04T11:21:50.000Z</time>
      </trkpt>
      <trkpt lat="45.1759" lon="5.80866">
        <ele>554.56</ele>
        <time>2019-05-04T11:21:55.000Z</time>
      </trkpt>
      <trkpt lat="45.17585" lon="5.80818">
        <ele>550.27</ele>
        <time>2019-05-04T11:22:00.000Z</time>
      </trkpt>
      <trkpt lat="45.17562" lon="5.80781">
        <ele>547.99</ele>
        <time>2019-05-04T11:22:05.000Z</time>
      </trkpt>
      <trkpt lat="45.17534" lon="5.80743">
        <ele>544</ele>
        <time>2019-05-04T11:22:10.000Z</time>
      </trkpt>
      <trkpt lat="45.1752" lon="5.80688">
        <ele>540.99</ele>
        <time>2019-05-04T11:22:15.000Z</time>
      </trkpt>
      <trkpt lat="45.17512" lon="5.80628">
        <ele>533.28</ele>
        <time>2019-05-04T11:22:20.000Z</time>
      </trkpt>
      <trkpt lat="45.17502" lon="5.80592">
        <ele>531.32</ele>
        <time>2019-05-04T11:22:25.000Z</time>
      </trkpt>
      <trkpt lat="45.17488" lon="5.8055">
        <ele>526.99</ele>
        <time>2019-05-04T11:22:30.000Z</time>
      </trkpt>
      <trkpt lat="45.17467" lon="5.80511">
        <ele>523.42</ele>
        <time>2019-05-04T11:22:35.000Z</time>
      </trkpt>
      <trkpt lat="45.17447" lon="5.80466">
        <ele>520.95</ele>
        <time>2019-05-04T11:22:40.000Z</time>
      </trkpt>
      <trkpt lat="45.17441" lon="5.80424">
        <ele>521.59</ele>
        <time>2019-05-04T11:22:45.000Z</time>
      </trkpt>
      <trkpt lat="45.17441" lon="5.80377">
        <ele>521.14</ele>
        <time>2019-05-04T11:22:50.000Z</time>
      </trkpt>
      <trkpt lat="45.17436" lon="5.80332">
        <ele>521.76</ele>
        <time>2019-05-04T11:22:55.000Z</time>
      </trkpt>
      <trkpt lat="45.17445" lon="5.80286">
        <ele>521.46</ele>
        <time>2019-05-04T11:23:00.000Z</time>
      </trkpt>
      <trkpt lat="45.17454" lon="5.80267">
        <ele>515.79</ele>
        <time>2019-05-04T11:23:05.000Z</time>
      </trkpt>
      <trkpt lat="45.17481" lon="5.8026">
        <ele>505.45</ele>
        <time>2019-05-04T11:23:10.000Z</time>
      </trkpt>
      <trkpt lat="45.17502" lon="5.80243">
        <ele>498.89</ele>
        <time>2019-05-04T11:23:15.000Z</time>
      </trkpt>
      <trkpt lat="45.1752" lon="5.80241">
        <ele>496.16</ele>
        <time>2019-05-04T11:23:20.000Z</time>
      </trkpt>
      <trkpt lat="45.17543" lon="5.8023">
        <ele>493.91</ele>
        <time>2019-05-04T11:23:25.000Z</time>
      </trkpt>
      <trkpt lat="45.17575" lon="5.80222">
        <ele>489.51</ele>
        <time>2019-05-04T11:23:30.000Z</time>
      </trkpt>
      <trkpt lat="45.17593" lon="5.80206">
        <ele>487.07</ele>
        <time>2019-05-04T11:23:35.000Z</time>
      </trkpt>
      <trkpt lat="45.17597" lon="5.80156">
        <ele>487.37</ele>
        <time>2019-05-04T11:23:40.000Z</time>
      </trkpt>
      <trkpt lat="45.17595" lon="5.80116">
        <ele>480.55</ele>
        <time>2019-05-04T11:23:45.000Z</time>
      </trkpt>
      <trkpt lat="45.17589" lon="5.80066">
        <ele>481.24</ele>
        <time>2019-05-04T11:23:50.000Z</time>
      </trkpt>
      <trkpt lat="45.17612" lon="5.80037">
        <ele>479.41</ele>
        <time>2019-05-04T11:23:55.000Z</time>
      </trkpt>
      <trkpt lat="45.17645" lon="5.80034">
        <ele>475.76</ele>
        <time>2019-05-04T11:24:00.000Z</time>
      </trkpt>
      <trkpt lat="45.17675" lon="5.80051">
        <ele>470.69</ele>
        <time>2019-05-04T11:24:05.000Z</time>
      </trkpt>
      <trkpt lat="45.17695" lon="5.80067">
        <ele>464.84</ele>
        <time>2019-05-04T11:24:10.000Z</time>
      </trkpt>
      <trkpt lat="45.177" lon="5.80054">
        <ele>461.79</ele>
        <time>2019-05-04T11:24:16.000Z</time>
      </trkpt>
      <trkpt lat="45.17688" lon="5.80027">
        <ele>461.55</ele>
        <time>2019-05-04T11:24:21.000Z</time>
      </trkpt>
      <trkpt lat="45.17665" lon="5.79982">
        <ele>458.94</ele>
        <time>2019-05-04T11:24:26.000Z</time>
      </trkpt>
      <trkpt lat="45.17651" lon="5.79934">
        <ele>454.34</ele>
        <time>2019-05-04T11:24:31.000Z</time>
      </trkpt>
      <trkpt lat="45.17645" lon="5.79868">
        <ele>449.58</ele>
        <time>2019-05-04T11:24:36.000Z</time>
      </trkpt>
      <trkpt lat="45.1763" lon="5.79802">
        <ele>448.09</ele>
        <time>2019-05-04T11:24:41.000Z</time>
      </trkpt>
      <trkpt lat="45.17613" lon="5.7976">
        <ele>451.95</ele>
        <time>2019-05-04T11:24:46.000Z</time>
      </trkpt>
      <trkpt lat="45.17593" lon="5.79705">
        <ele>443.41</ele>
        <time>2019-05-04T11:24:51.000Z</time>
      </trkpt>
      <trkpt lat="45.17578" lon="5.79657">
        <ele>436.68</ele>
        <time>2019-05-04T11:24:56.000Z</time>
      </trkpt>
      <trkpt lat="45.17555" lon="5.79661">
        <ele>433.24</ele>
        <time>2019-05-04T11:25:01.000Z</time>
      </trkpt>
      <trkpt lat="45.17529" lon="5.79665">
        <ele>432</ele>
        <time>2019-05-04T11:25:06.000Z</time>
      </trkpt>
      <trkpt lat="45.17504" lon="5.79639">
        <ele>427.68</ele>
        <time>2019-05-04T11:25:11.000Z</time>
      </trkpt>
      <trkpt lat="45.17492" lon="5.79608">
        <ele>422.1</ele>
        <time>2019-05-04T11:25:16.000Z</time>
      </trkpt>
      <trkpt lat="45.175" lon="5.79564">
        <ele>414.04</ele>
        <time>2019-05-04T11:25:21.000Z</time>
      </trkpt>
      <trkpt lat="45.17521" lon="5.79518">
        <ele>408.33</ele>
        <time>2019-05-04T11:25:26.000Z</time>
      </trkpt>
      <trkpt lat="45.17529" lon="5.79503">
        <ele>405.84</ele>
        <time>2019-05-04T11:25:31.000Z</time>
      </trkpt>
      <trkpt lat="45.17548" lon="5.79481">
        <ele>400.55</ele>
        <time>2019-05-04T11:25:36.000Z</time>
      </trkpt>
      <trkpt lat="45.17567" lon="5.79448">
        <ele>396.17</ele>
        <time>2019-05-04T11:25:41.000Z</time>
      </trkpt>
      <trkpt lat="45.17595" lon="5.79413">
        <ele>392.67</ele>
        <time>2019-05-04T11:25:46.000Z</time>
      </trkpt>
      <trkpt lat="45.17634" lon="5.79382">
        <ele>383.46</ele>
        <time>2019-05-04T11:25:51.000Z</time>
      </trkpt>
      <trkpt lat="45.17681" lon="5.79346">
        <ele>377.99</ele>
        <time>2019-05-04T11:25:56.000Z</time>
      </trkpt>
      <trkpt lat="45.17739" lon="5.79333">
        <ele>373.44</ele>
        <time>2019-05-04T11:26:01.000Z</time>
      </trkpt>
      <trkpt lat="45.17791" lon="5.7935">
        <ele>368.03</ele>
        <time>2019-05-04T11:26:06.000Z</time>
      </trkpt>
      <trkpt lat="45.17812" lon="5.79341">
        <ele>361.96</ele>
        <time>2019-05-04T11:26:11.000Z</time>
      </trkpt>
      <trkpt lat="45.17774" lon="5.79306">
        <ele>357.73</ele>
        <time>2019-05-04T11:26:16.000Z</time>
      </trkpt>
      <trkpt lat="45.17735" lon="5.79249">
        <ele>353.56</ele>
        <time>2019-05-04T11:26:21.000Z</time>
      </trkpt>
      <trkpt lat="45.17671" lon="5.79245">
        <ele>352.01</ele>
        <time>2019-05-04T11:26:26.000Z</time>
      </trkpt>
      <trkpt lat="45.17617" lon="5.79274">
        <ele>347.38</ele>
        <time>2019-05-04T11:26:31.000Z</time>
      </trkpt>
      <trkpt lat="45.17613" lon="5.79257">
        <ele>344.77</ele>
        <time>2019-05-04T11:26:36.000Z</time>
      </trkpt>
      <trkpt lat="45.17651" lon="5.79225">
        <ele>342.42</ele>
        <time>2019-05-04T11:26:41.000Z</time>
      </trkpt>
      <trkpt lat="45.177" lon="5.79185">
        <ele>334.14</ele>
        <time>2019-05-04T11:26:46.000Z</time>
      </trkpt>
      <trkpt lat="45.17755" lon="5.79173">
        <ele>327.84</ele>
        <time>2019-05-04T11:26:51.000Z</time>
      </trkpt>
      <trkpt lat="45.17813" lon="5.79197">
        <ele>323.23</ele>
        <time>2019-05-04T11:26:56.000Z</time>
      </trkpt>
      <trkpt lat="45.17867" lon="5.79247">
        <ele>316.99</ele>
        <time>2019-05-04T11:27:01.000Z</time>
      </trkpt>
      <trkpt lat="45.17897" lon="5.79317">
        <ele>312</ele>
        <time>2019-05-04T11:27:06.000Z</time>
      </trkpt>
      <trkpt lat="45.17917" lon="5.79338">
        <ele>307.37</ele>
        <time>2019-05-04T11:27:11.000Z</time>
      </trkpt>
      <trkpt lat="45.1793" lon="5.7935">
        <ele>306.16</ele>
        <time>2019-05-04T11:27:16.000Z</time>
      </trkpt>
      <trkpt lat="45.17955" lon="5.79373">
        <ele>302.25</ele>
        <time>2019-05-04T11:27:21.000Z</time>
      </trkpt>
      <trkpt lat="45.17983" lon="5.79406">
        <ele>297.66</ele>
        <time>2019-05-04T11:27:26.000Z</time>
      </trkpt>
      <trkpt lat="45.18007" lon="5.79435">
        <ele>292.81</ele>
        <time>2019-05-04T11:27:31.000Z</time>
      </trkpt>
      <trkpt lat="45.18034" lon="5.79482">
        <ele>286.15</ele>
        <time>2019-05-04T11:27:36.000Z</time>
      </trkpt>
      <trkpt lat="45.18054" lon="5.79522">
        <ele>280.72</ele>
        <time>2019-05-04T11:27:41.000Z</time>
      </trkpt>
      <trkpt lat="45.18072" lon="5.79551">
        <ele>280.65</ele>
        <time>2019-05-04T11:27:46.000Z</time>
      </trkpt>
      <trkpt lat="45.18084" lon="5.7954">
        <ele>281.27</ele>
        <time>2019-05-04T11:27:51.000Z</time>
      </trkpt>
      <trkpt lat="45.18078" lon="5.795">
        <ele>280.66</ele>
        <time>2019-05-04T11:27:56.000Z</time>
      </trkpt>
      <trkpt lat="45.18078" lon="5.79458">
        <ele>280.74</ele>
        <time>2019-05-04T11:28:01.000Z</time>
      </trkpt>
      <trkpt lat="45.18079" lon="5.79398">
        <ele>281.02</ele>
        <time>2019-05-04T11:28:06.000Z</time>
      </trkpt>
      <trkpt lat="45.18103" lon="5.79358">
        <ele>276.74</ele>
        <time>2019-05-04T11:28:11.000Z</time>
      </trkpt>
      <trkpt lat="45.18124" lon="5.79325">
        <ele>271.8</ele>
        <time>2019-05-04T11:28:16.000Z</time>
      </trkpt>
      <trkpt lat="45.18148" lon="5.79292">
        <ele>266.64</ele>
        <time>2019-05-04T11:28:21.000Z</time>
      </trkpt>
      <trkpt lat="45.18173" lon="5.79261">
        <ele>258.87</ele>
        <time>2019-05-04T11:28:26.000Z</time>
      </trkpt>
      <trkpt lat="45.18191" lon="5.79235">
        <ele>253.61</ele>
        <time>2019-05-04T11:28:31.000Z</time>
      </trkpt>
      <trkpt lat="45.182" lon="5.79237">
        <ele>243.72</ele>
        <time>2019-05-04T11:28:37.000Z</time>
      </trkpt>
      <trkpt lat="45.1821" lon="5.79233">
        <ele>233.59</ele>
        <time>2019-05-04T11:29:08.000Z</time>
      </trkpt>
      <trkpt lat="45.18223" lon="5.79217">
        <ele>232.8</ele>
        <time>2019-05-04T11:29:13.000Z</time>
      </trkpt>
      <trkpt lat="45.18256" lon="5.79203">
        <ele>231.54</ele>
        <time>2019-05-04T11:29:18.000Z</time>
      </trkpt>
      <trkpt lat="45.18273" lon="5.79186">
        <ele>233.62</ele>
        <time>2019-05-04T11:29:23.000Z</time>
      </trkpt>
      <trkpt lat="45.18302" lon="5.79173">
        <ele>232.59</ele>
        <time>2019-05-04T11:29:28.000Z</time>
      </trkpt>
      <trkpt lat="45.18325" lon="5.79158">
        <ele>233.66</ele>
        <time>2019-05-04T11:29:33.000Z</time>
      </trkpt>
      <trkpt lat="45.18344" lon="5.79137">
        <ele>237.11</ele>
        <time>2019-05-04T11:29:38.000Z</time>
      </trkpt>
      <trkpt lat="45.18363" lon="5.79111">
        <ele>234.99</ele>
        <time>2019-05-04T11:29:43.000Z</time>
      </trkpt>
      <trkpt lat="45.18379" lon="5.79096">
        <ele>232.67</ele>
        <time>2019-05-04T11:29:48.000Z</time>
      </trkpt>
      <trkpt lat="45.18399" lon="5.79073">
        <ele>233.69</ele>
        <time>2019-05-04T11:29:53.000Z</time>
      </trkpt>
      <trkpt lat="45.18427" lon="5.79061">
        <ele>231.79</ele>
        <time>2019-05-04T11:29:58.000Z</time>
      </trkpt>
      <trkpt lat="45.1845" lon="5.79053">
        <ele>233.53</ele>
        <time>2019-05-04T11:30:03.000Z</time>
      </trkpt>
      <trkpt lat="45.18475" lon="5.79052">
        <ele>230.82</ele>
        <time>2019-05-04T11:30:08.000Z</time>
      </trkpt>
      <trkpt lat="45.18499" lon="5.79047">
        <ele>231.16</ele>
        <time>2019-05-04T11:30:13.000Z</time>
      </trkpt>
      <trkpt lat="45.18513" lon="5.79039">
        <ele>230.94</ele>
        <time>2019-05-04T11:30:18.000Z</time>
      </trkpt>
      <trkpt lat="45.18504" lon="5.79044">
        <ele>226.61</ele>
        <time>2019-05-04T11:30:29.000Z</time>
      </trkpt>
      <trkpt lat="45.18498" lon="5.79061">
        <ele>227.51</ele>
        <time>2019-05-04T11:30:34.000Z</time>
      </trkpt>
      <trkpt lat="45.18502" lon="5.79084">
        <ele>227.19</ele>
        <time>2019-05-04T11:30:39.000Z</time>
      </trkpt>
      <trkpt lat="45.18505" lon="5.79111">
        <ele>226.2</ele>
        <time>2019-05-04T11:30:44.000Z</time>
      </trkpt>
      <trkpt lat="45.18512" lon="5.79135">
        <ele>225.08</ele>
        <time>2019-05-04T11:30:49.000Z</time>
      </trkpt>
      <trkpt lat="45.18523" lon="5.79155">
        <ele>224.1</ele>
        <time>2019-05-04T11:30:54.000Z</time>
      </trkpt>
      <trkpt lat="45.18535" lon="5.79176">
        <ele>223.03</ele>
        <time>2019-05-04T11:30:59.000Z</time>
      </trkpt>
      <trkpt lat="45.18551" lon="5.79196">
        <ele>222.39</ele>
        <time>2019-05-04T11:31:04.000Z</time>
      </trkpt>
      <trkpt lat="45.18559" lon="5.79223">
        <ele>220.99</ele>
        <time>2019-05-04T11:31:09.000Z</time>
      </trkpt>
      <trkpt lat="45.18549" lon="5.79254">
        <ele>222.55</ele>
        <time>2019-05-04T11:31:15.000Z</time>
      </trkpt>
      <trkpt lat="45.18541" lon="5.79283">
        <ele>221.04</ele>
        <time>2019-05-04T11:31:20.000Z</time>
      </trkpt>
      <trkpt lat="45.18535" lon="5.79316">
        <ele>218.35</ele>
        <time>2019-05-04T11:31:25.000Z</time>
      </trkpt>
      <trkpt lat="45.18531" lon="5.79343">
        <ele>218.83</ele>
        <time>2019-05-04T11:31:30.000Z</time>
      </trkpt>
      <trkpt lat="45.18526" lon="5.79372">
        <ele>219.89</ele>
        <time>2019-05-04T11:31:35.000Z</time>
      </trkpt>
      <trkpt lat="45.18528" lon="5.79402">
        <ele>220.07</ele>
        <time>2019-05-04T11:31:40.000Z</time>
      </trkpt>
      <trkpt lat="45.18528" lon="5.79432">
        <ele>218.87</ele>
        <time>2019-05-04T11:31:45.000Z</time>
      </trkpt>
      <trkpt lat="45.18528" lon="5.79462">
        <ele>219.18</ele>
        <time>2019-05-04T11:31:50.000Z</time>
      </trkpt>
      <trkpt lat="45.18535" lon="5.79492">
        <ele>220.13</ele>
        <time>2019-05-04T11:31:55.000Z</time>
      </trkpt>
      <trkpt lat="45.18545" lon="5.7952">
        <ele>220.39</ele>
        <time>2019-05-04T11:32:00.000Z</time>
      </trkpt>
      <trkpt lat="45.18555" lon="5.79552">
        <ele>219.66</ele>
        <time>2019-05-04T11:32:05.000Z</time>
      </trkpt>
      <trkpt lat="45.18558" lon="5.79583">
        <ele>218.67</ele>
        <time>2019-05-04T11:32:10.000Z</time>
      </trkpt>
      <trkpt lat="45.18558" lon="5.79613">
        <ele>219.22</ele>
        <time>2019-05-04T11:32:15.000Z</time>
      </trkpt>
      <trkpt lat="45.18558" lon="5.79645">
        <ele>218.56</ele>
        <time>2019-05-04T11:32:20.000Z</time>
      </trkpt>
      <trkpt lat="45.18556" lon="5.79677">
        <ele>220.89</ele>
        <time>2019-05-04T11:32:25.000Z</time>
      </trkpt>
      <trkpt lat="45.18555" lon="5.79711">
        <ele>218.82</ele>
        <time>2019-05-04T11:32:30.000Z</time>
      </trkpt>
      <trkpt lat="45.18551" lon="5.79745">
        <ele>218.75</ele>
        <time>2019-05-04T11:32:35.000Z</time>
      </trkpt>
      <trkpt lat="45.18551" lon="5.79775">
        <ele>219.79</ele>
        <time>2019-05-04T11:32:40.000Z</time>
      </trkpt>
      <trkpt lat="45.1855" lon="5.79814">
        <ele>219.79</ele>
        <time>2019-05-04T11:32:45.000Z</time>
      </trkpt>
      <trkpt lat="45.18549" lon="5.79853">
        <ele>221.13</ele>
        <time>2019-05-04T11:32:50.000Z</time>
      </trkpt>
      <trkpt lat="45.1855" lon="5.79884">
        <ele>221.91</ele>
        <time>2019-05-04T11:32:55.000Z</time>
      </trkpt>
      <trkpt lat="45.1856" lon="5.79898">
        <ele>221.02</ele>
        <time>2019-05-04T11:33:00.000Z</time>
      </trkpt>
      <trkpt lat="45.1858" lon="5.7991">
        <ele>218.22</ele>
        <time>2019-05-04T11:33:05.000Z</time>
      </trkpt>
      <trkpt lat="45.18605" lon="5.79921">
        <ele>217.69</ele>
        <time>2019-05-04T11:33:10.000Z</time>
      </trkpt>
      <trkpt lat="45.18631" lon="5.79928">
        <ele>217.5</ele>
        <time>2019-05-04T11:33:15.000Z</time>
      </trkpt>
      <trkpt lat="45.18654" lon="5.79951">
        <ele>216.82</ele>
        <time>2019-05-04T11:33:20.000Z</time>
      </trkpt>
      <trkpt lat="45.18667" lon="5.79987">
        <ele>215.35</ele>
        <time>2019-05-04T11:33:25.000Z</time>
      </trkpt>
      <trkpt lat="45.18681" lon="5.80022">
        <ele>213.94</ele>
        <time>2019-05-04T11:33:30.000Z</time>
      </trkpt>
      <trkpt lat="45.18692" lon="5.80054">
        <ele>215.37</ele>
        <time>2019-05-04T11:33:35.000Z</time>
      </trkpt>
      <trkpt lat="45.18705" lon="5.80084">
        <ele>218.32</ele>
        <time>2019-05-04T11:33:40.000Z</time>
      </trkpt>
      <trkpt lat="45.18702" lon="5.80117">
        <ele>215.66</ele>
        <time>2019-05-04T11:33:45.000Z</time>
      </trkpt>
      <trkpt lat="45.18694" lon="5.80152">
        <ele>214.48</ele>
        <time>2019-05-04T11:33:50.000Z</time>
      </trkpt>
      <trkpt lat="45.18683" lon="5.80186">
        <ele>214.56</ele>
        <time>2019-05-04T11:33:55.000Z</time>
      </trkpt>
      <trkpt lat="45.18668" lon="5.80219">
        <ele>214.21</ele>
        <time>2019-05-04T11:34:00.000Z</time>
      </trkpt>
      <trkpt lat="45.1866" lon="5.80254">
        <ele>214.39</ele>
        <time>2019-05-04T11:34:05.000Z</time>
      </trkpt>
      <trkpt lat="45.18659" lon="5.80295">
        <ele>215.23</ele>
        <time>2019-05-04T11:34:10.000Z</time>
      </trkpt>
      <trkpt lat="45.18656" lon="5.80335">
        <ele>213.94</ele>
        <time>2019-05-04T11:34:15.000Z</time>
      </trkpt>
      <trkpt lat="45.18662" lon="5.80374">
        <ele>213.91</ele>
        <time>2019-05-04T11:34:20.000Z</time>
      </trkpt>
      <trkpt lat="45.18672" lon="5.80413">
        <ele>216.2</ele>
        <time>2019-05-04T11:34:25.000Z</time>
      </trkpt>
      <trkpt lat="45.18676" lon="5.80453">
        <ele>217.53</ele>
        <time>2019-05-04T11:34:30.000Z</time>
      </trkpt>
      <trkpt lat="45.18683" lon="5.80494">
        <ele>218.86</ele>
        <time>2019-05-04T11:34:35.000Z</time>
      </trkpt>
      <trkpt lat="45.18699" lon="5.80528">
        <ele>218.24</ele>
        <time>2019-05-04T11:34:40.000Z</time>
      </trkpt>
      <trkpt lat="45.18712" lon="5.80561">
        <ele>216.24</ele>
        <time>2019-05-04T11:34:45.000Z</time>
      </trkpt>
      <trkpt lat="45.18731" lon="5.80597">
        <ele>217.51</ele>
        <time>2019-05-04T11:34:50.000Z</time>
      </trkpt>
      <trkpt lat="45.18756" lon="5.80621">
        <ele>217.78</ele>
        <time>2019-05-04T11:34:55.000Z</time>
      </trkpt>
      <trkpt lat="45.18782" lon="5.8064">
        <ele>218.56</ele>
        <time>2019-05-04T11:35:00.000Z</time>
      </trkpt>
      <trkpt lat="45.1881" lon="5.80656">
        <ele>219.14</ele>
        <time>2019-05-04T11:35:05.000Z</time>
      </trkpt>
      <trkpt lat="45.18839" lon="5.80668">
        <ele>217.29</ele>
        <time>2019-05-04T11:35:10.000Z</time>
      </trkpt>
      <trkpt lat="45.18869" lon="5.80673">
        <ele>215.73</ele>
        <time>2019-05-04T11:35:15.000Z</time>
      </trkpt>
      <trkpt lat="45.189" lon="5.80675">
        <ele>215.27</ele>
        <time>2019-05-04T11:35:20.000Z</time>
      </trkpt>
      <trkpt lat="45.18929" lon="5.80672">
        <ele>215.38</ele>
        <time>2019-05-04T11:35:25.000Z</time>
      </trkpt>
      <trkpt lat="45.18951" lon="5.80675">
        <ele>213.82</ele>
        <time>2019-05-04T11:35:30.000Z</time>
      </trkpt>
      <trkpt lat="45.18959" lon="5.80711">
        <ele>214.94</ele>
        <time>2019-05-04T11:35:35.000Z</time>
      </trkpt>
      <trkpt lat="45.18969" lon="5.8075">
        <ele>218.3</ele>
        <time>2019-05-04T11:35:40.000Z</time>
      </trkpt>
      <trkpt lat="45.18987" lon="5.80758">
        <ele>219.75</ele>
        <time>2019-05-04T11:35:45.000Z</time>
      </trkpt>
      <trkpt lat="45.19005" lon="5.80751">
        <ele>220.42</ele>
        <time>2019-05-04T11:35:50.000Z</time>
      </trkpt>
      <trkpt lat="45.19029" lon="5.80764">
        <ele>218.82</ele>
        <time>2019-05-04T11:35:55.000Z</time>
      </trkpt>
      <trkpt lat="45.19054" lon="5.80779">
        <ele>217.23</ele>
        <time>2019-05-04T11:36:00.000Z</time>
      </trkpt>
      <trkpt lat="45.19081" lon="5.80794">
        <ele>217.63</ele>
        <time>2019-05-04T11:36:05.000Z</time>
      </trkpt>
      <trkpt lat="45.19107" lon="5.80811">
        <ele>217.24</ele>
        <time>2019-05-04T11:36:10.000Z</time>
      </trkpt>
      <trkpt lat="45.19136" lon="5.80829">
        <ele>215.78</ele>
        <time>2019-05-04T11:36:15.000Z</time>
      </trkpt>
      <trkpt lat="45.19163" lon="5.80848">
        <ele>220.27</ele>
        <time>2019-05-04T11:36:20.000Z</time>
      </trkpt>
      <trkpt lat="45.19191" lon="5.80863">
        <ele>219.19</ele>
        <time>2019-05-04T11:36:25.000Z</time>
      </trkpt>
      <trkpt lat="45.19217" lon="5.80882">
        <ele>218.53</ele>
        <time>2019-05-04T11:36:30.000Z</time>
      </trkpt>
      <trkpt lat="45.19242" lon="5.80902">
        <ele>217.67</ele>
        <time>2019-05-04T11:36:35.000Z</time>
      </trkpt>
      <trkpt lat="45.19269" lon="5.80923">
        <ele>216.86</ele>
        <time>2019-05-04T11:36:40.000Z</time>
      </trkpt>
      <trkpt lat="45.19296" lon="5.80943">
        <ele>216.38</ele>
        <time>2019-05-04T11:36:45.000Z</time>
      </trkpt>
      <trkpt lat="45.19323" lon="5.80959">
        <ele>215.92</ele>
        <time>2019-05-04T11:36:50.000Z</time>
      </trkpt>
      <trkpt lat="45.19349" lon="5.80977">
        <ele>216.38</ele>
        <time>2019-05-04T11:36:55.000Z</time>
      </trkpt>
      <trkpt lat="45.19374" lon="5.80996">
        <ele>215.29</ele>
        <time>2019-05-04T11:37:00.000Z</time>
      </trkpt>
      <trkpt lat="45.19399" lon="5.81018">
        <ele>215.06</ele>
        <time>2019-05-04T11:37:05.000Z</time>
      </trkpt>
      <trkpt lat="45.1942" lon="5.81037">
        <ele>215.05</ele>
        <time>2019-05-04T11:37:10.000Z</time>
      </trkpt>
      <trkpt lat="45.19435" lon="5.81064">
        <ele>214.76</ele>
        <time>2019-05-04T11:37:15.000Z</time>
      </trkpt>
      <trkpt lat="45.1945" lon="5.81098">
        <ele>214.59</ele>
        <time>2019-05-04T11:37:20.000Z</time>
      </trkpt>
      <trkpt lat="45.19468" lon="5.81136">
        <ele>212.68</ele>
        <time>2019-05-04T11:37:25.000Z</time>
      </trkpt>
      <trkpt lat="45.19486" lon="5.81171">
        <ele>212.82</ele>
        <time>2019-05-04T11:37:30.000Z</time>
      </trkpt>
      <trkpt lat="45.19504" lon="5.81206">
        <ele>212.2</ele>
        <time>2019-05-04T11:37:35.000Z</time>
      </trkpt>
      <trkpt lat="45.19521" lon="5.81245">
        <ele>211.23</ele>
        <time>2019-05-04T11:37:40.000Z</time>
      </trkpt>
      <trkpt lat="45.1954" lon="5.81284">
        <ele>211.73</ele>
        <time>2019-05-04T11:37:45.000Z</time>
      </trkpt>
      <trkpt lat="45.19558" lon="5.81322">
        <ele>212.76</ele>
        <time>2019-05-04T11:37:50.000Z</time>
      </trkpt>
      <trkpt lat="45.19575" lon="5.81356">
        <ele>210.94</ele>
        <time>2019-05-04T11:37:55.000Z</time>
      </trkpt>
      <trkpt lat="45.19583" lon="5.8138">
        <ele>213.28</ele>
        <time>2019-05-04T11:38:00.000Z</time>
      </trkpt>
      <trkpt lat="45.19577" lon="5.81392">
        <ele>212.48</ele>
        <time>2019-05-04T11:38:05.000Z</time>
      </trkpt>
      <trkpt lat="45.1958" lon="5.81411">
        <ele>212.31</ele>
        <time>2019-05-04T11:38:10.000Z</time>
      </trkpt>
      <trkpt lat="45.19596" lon="5.81437">
        <ele>212.28</ele>
        <time>2019-05-04T11:38:15.000Z</time>
      </trkpt>
      <trkpt lat="45.19611" lon="5.81463">
        <ele>212.04</ele>
        <time>2019-05-04T11:38:20.000Z</time>
      </trkpt>
      <trkpt lat="45.19628" lon="5.81493">
        <ele>212.36</ele>
        <time>2019-05-04T11:38:25.000Z</time>
      </trkpt>
      <trkpt lat="45.1964" lon="5.81521">
        <ele>214.2</ele>
        <time>2019-05-04T11:38:30.000Z</time>
      </trkpt>
      <trkpt lat="45.19656" lon="5.8155">
        <ele>213.72</ele>
        <time>2019-05-04T11:38:35.000Z</time>
      </trkpt>
      <trkpt lat="45.19675" lon="5.81585">
        <ele>213.15</ele>
        <time>2019-05-04T11:38:40.000Z</time>
      </trkpt>
      <trkpt lat="45.19696" lon="5.81618">
        <ele>214.22</ele>
        <time>2019-05-04T11:38:45.000Z</time>
      </trkpt>
      <trkpt lat="45.19717" lon="5.81655">
        <ele>213.63</ele>
        <time>2019-05-04T11:38:50.000Z</time>
      </trkpt>
      <trkpt lat="45.19736" lon="5.81679">
        <ele>218.13</ele>
        <time>2019-05-04T11:38:55.000Z</time>
      </trkpt>
      <trkpt lat="45.19757" lon="5.8171">
        <ele>217.76</ele>
        <time>2019-05-04T11:39:00.000Z</time>
      </trkpt>
      <trkpt lat="45.19781" lon="5.81739">
        <ele>216.54</ele>
        <time>2019-05-04T11:39:05.000Z</time>
      </trkpt>
      <trkpt lat="45.19807" lon="5.81768">
        <ele>216.16</ele>
        <time>2019-05-04T11:39:10.000Z</time>
      </trkpt>
      <trkpt lat="45.19831" lon="5.81797">
        <ele>215.46</ele>
        <time>2019-05-04T11:39:15.000Z</time>
      </trkpt>
      <trkpt lat="45.19851" lon="5.81818">
        <ele>213.61</ele>
        <time>2019-05-04T11:39:20.000Z</time>
      </trkpt>
      <trkpt lat="45.19878" lon="5.81835">
        <ele>216.34</ele>
        <time>2019-05-04T11:39:25.000Z</time>
      </trkpt>
      <trkpt lat="45.19903" lon="5.81858">
        <ele>216.75</ele>
        <time>2019-05-04T11:39:30.000Z</time>
      </trkpt>
      <trkpt lat="45.19928" lon="5.81873">
        <ele>218.64</ele>
        <time>2019-05-04T11:39:35.000Z</time>
      </trkpt>
      <trkpt lat="45.19956" lon="5.81891">
        <ele>216.39</ele>
        <time>2019-05-04T11:39:40.000Z</time>
      </trkpt>
      <trkpt lat="45.1998" lon="5.81903">
        <ele>216.77</ele>
        <time>2019-05-04T11:39:45.000Z</time>
      </trkpt>
      <trkpt lat="45.20005" lon="5.8192">
        <ele>218.67</ele>
        <time>2019-05-04T11:39:50.000Z</time>
      </trkpt>
      <trkpt lat="45.20035" lon="5.81935">
        <ele>221.67</ele>
        <time>2019-05-04T11:39:55.000Z</time>
      </trkpt>
      <trkpt lat="45.20061" lon="5.81946">
        <ele>222.46</ele>
        <time>2019-05-04T11:40:00.000Z</time>
      </trkpt>
      <trkpt lat="45.20089" lon="5.81964">
        <ele>220.75</ele>
        <time>2019-05-04T11:40:05.000Z</time>
      </trkpt>
      <trkpt lat="45.20117" lon="5.8198">
        <ele>219.2</ele>
        <time>2019-05-04T11:40:10.000Z</time>
      </trkpt>
      <trkpt lat="45.20139" lon="5.8199">
        <ele>217.37</ele>
        <time>2019-05-04T11:40:15.000Z</time>
      </trkpt>
      <trkpt lat="45.20162" lon="5.82008">
        <ele>221.35</ele>
        <time>2019-05-04T11:40:20.000Z</time>
      </trkpt>
      <trkpt lat="45.20184" lon="5.82031">
        <ele>219.2</ele>
        <time>2019-05-04T11:40:25.000Z</time>
      </trkpt>
      <trkpt lat="45.20201" lon="5.82054">
        <ele>216.47</ele>
        <time>2019-05-04T11:40:30.000Z</time>
      </trkpt>
      <trkpt lat="45.20224" lon="5.82063">
        <ele>214.13</ele>
        <time>2019-05-04T11:40:35.000Z</time>
      </trkpt>
      <trkpt lat="45.20234" lon="5.82066">
        <ele>215.07</ele>
        <time>2019-05-04T11:40:40.000Z</time>
      </trkpt>
      <trkpt lat="45.20242" lon="5.82097">
        <ele>216.67</ele>
        <time>2019-05-04T11:40:45.000Z</time>
      </trkpt>
      <trkpt lat="45.2025" lon="5.82139">
        <ele>216.26</ele>
        <time>2019-05-04T11:40:50.000Z</time>
      </trkpt>
      <trkpt lat="45.20268" lon="5.8217">
        <ele>217.08</ele>
        <time>2019-05-04T11:40:55.000Z</time>
      </trkpt>
      <trkpt lat="45.20285" lon="5.82203">
        <ele>217.86</ele>
        <time>2019-05-04T11:41:00.000Z</time>
      </trkpt>
      <trkpt lat="45.20309" lon="5.82243">
        <ele>215.02</ele>
        <time>2019-05-04T11:41:05.000Z</time>
      </trkpt>
      <trkpt lat="45.20322" lon="5.82269">
        <ele>217.77</ele>
        <time>2019-05-04T11:41:10.000Z</time>
      </trkpt>
      <trkpt lat="45.20339" lon="5.82298">
        <ele>215.36</ele>
        <time>2019-05-04T11:41:15.000Z</time>
      </trkpt>
      <trkpt lat="45.2036" lon="5.82328">
        <ele>212.88</ele>
        <time>2019-05-04T11:41:20.000Z</time>
      </trkpt>
      <trkpt lat="45.20379" lon="5.8236">
        <ele>211.29</ele>
        <time>2019-05-04T11:41:25.000Z</time>
      </trkpt>
      <trkpt lat="45.20404" lon="5.82394">
        <ele>209.15</ele>
        <time>2019-05-04T11:41:30.000Z</time>
      </trkpt>
      <trkpt lat="45.20426" lon="5.8242">
        <ele>212.38</ele>
        <time>2019-05-04T11:41:35.000Z</time>
      </trkpt>
      <trkpt lat="45.20447" lon="5.8245">
        <ele>212.18</ele>
        <time>2019-05-04T11:41:40.000Z</time>
      </trkpt>
      <trkpt lat="45.2047" lon="5.82478">
        <ele>213.52</ele>
        <time>2019-05-04T11:41:45.000Z</time>
      </trkpt>
      <trkpt lat="45.20488" lon="5.82489">
        <ele>213.88</ele>
        <time>2019-05-04T11:41:50.000Z</time>
      </trkpt>
      <trkpt lat="45.20495" lon="5.82474">
        <ele>214.44</ele>
        <time>2019-05-04T11:41:56.000Z</time>
      </trkpt>
      <trkpt lat="45.20505" lon="5.82451">
        <ele>211.19</ele>
        <time>2019-05-04T11:42:01.000Z</time>
      </trkpt>
      <trkpt lat="45.20523" lon="5.82441">
        <ele>212.36</ele>
        <time>2019-05-04T11:42:06.000Z</time>
      </trkpt>
      <trkpt lat="45.20545" lon="5.82461">
        <ele>216.03</ele>
        <time>2019-05-04T11:42:11.000Z</time>
      </trkpt>
      <trkpt lat="45.20567" lon="5.82487">
        <ele>214.59</ele>
        <time>2019-05-04T11:42:16.000Z</time>
      </trkpt>
      <trkpt lat="45.20588" lon="5.82506">
        <ele>216.69</ele>
        <time>2019-05-04T11:42:21.000Z</time>
      </trkpt>
      <trkpt lat="45.20613" lon="5.82537">
        <ele>214.82</ele>
        <time>2019-05-04T11:42:26.000Z</time>
      </trkpt>
      <trkpt lat="45.20638" lon="5.8256">
        <ele>222.3</ele>
        <time>2019-05-04T11:42:31.000Z</time>
      </trkpt>
      <trkpt lat="45.20662" lon="5.82588">
        <ele>221.16</ele>
        <time>2019-05-04T11:42:36.000Z</time>
      </trkpt>
      <trkpt lat="45.20686" lon="5.82613">
        <ele>223.02</ele>
        <time>2019-05-04T11:42:41.000Z</time>
      </trkpt>
      <trkpt lat="45.20717" lon="5.82646">
        <ele>217.22</ele>
        <time>2019-05-04T11:42:46.000Z</time>
      </trkpt>
      <trkpt lat="45.20743" lon="5.82673">
        <ele>212.86</ele>
        <time>2019-05-04T11:42:51.000Z</time>
      </trkpt>
      <trkpt lat="45.20768" lon="5.827">
        <ele>214.22</ele>
        <time>2019-05-04T11:42:56.000Z</time>
      </trkpt>
      <trkpt lat="45.20788" lon="5.82718">
        <ele>213.04</ele>
        <time>2019-05-04T11:43:01.000Z</time>
      </trkpt>
      <trkpt lat="45.20811" lon="5.82728">
        <ele>211.81</ele>
        <time>2019-05-04T11:43:06.000Z</time>
      </trkpt>
      <trkpt lat="45.20826" lon="5.82739">
        <ele>212.64</ele>
        <time>2019-05-04T11:43:11.000Z</time>
      </trkpt>
      <trkpt lat="45.20845" lon="5.82761">
        <ele>214.28</ele>
        <time>2019-05-04T11:43:16.000Z</time>
      </trkpt>
      <trkpt lat="45.20864" lon="5.82789">
        <ele>209.02</ele>
        <time>2019-05-04T11:43:21.000Z</time>
      </trkpt>
      <trkpt lat="45.20883" lon="5.82807">
        <ele>207.4</ele>
        <time>2019-05-04T11:43:26.000Z</time>
      </trkpt>
      <trkpt lat="45.20907" lon="5.82828">
        <ele>208.83</ele>
        <time>2019-05-04T11:43:31.000Z</time>
      </trkpt>
      <trkpt lat="45.20927" lon="5.82844">
        <ele>214.21</ele>
        <time>2019-05-04T11:43:36.000Z</time>
      </trkpt>
      <trkpt lat="45.20951" lon="5.82863">
        <ele>216.35</ele>
        <time>2019-05-04T11:43:41.000Z</time>
      </trkpt>
      <trkpt lat="45.20977" lon="5.82888">
        <ele>217.7</ele>
        <time>2019-05-04T11:43:46.000Z</time>
      </trkpt>
      <trkpt lat="45.20997" lon="5.82911">
        <ele>213.11</ele>
        <time>2019-05-04T11:43:51.000Z</time>
      </trkpt>
      <trkpt lat="45.21022" lon="5.82935">
        <ele>212.94</ele>
        <time>2019-05-04T11:43:56.000Z</time>
      </trkpt>
      <trkpt lat="45.21046" lon="5.82958">
        <ele>215.68</ele>
        <time>2019-05-04T11:44:01.000Z</time>
      </trkpt>
      <trkpt lat="45.21071" lon="5.8298">
        <ele>215.48</ele>
        <time>2019-05-04T11:44:06.000Z</time>
      </trkpt>
      <trkpt lat="45.21095" lon="5.83005">
        <ele>214.37</ele>
        <time>2019-05-04T11:44:11.000Z</time>
      </trkpt>
      <trkpt lat="45.21108" lon="5.83018">
        <ele>213.62</ele>
        <time>2019-05-04T11:44:16.000Z</time>
      </trkpt>
      <trkpt lat="45.21122" lon="5.83029">
        <ele>215.07</ele>
        <time>2019-05-04T11:44:21.000Z</time>
      </trkpt>
      <trkpt lat="45.21144" lon="5.83041">
        <ele>215.07</ele>
        <time>2019-05-04T11:44:26.000Z</time>
      </trkpt>
      <trkpt lat="45.21165" lon="5.83067">
        <ele>214.22</ele>
        <time>2019-05-04T11:44:31.000Z</time>
      </trkpt>
      <trkpt lat="45.21178" lon="5.8309">
        <ele>213.48</ele>
        <time>2019-05-04T11:44:36.000Z</time>
      </trkpt>
      <trkpt lat="45.21187" lon="5.83098">
        <ele>214.1</ele>
        <time>2019-05-04T11:44:41.000Z</time>
      </trkpt>
      <trkpt lat="45.21181" lon="5.83088">
        <ele>213.18</ele>
        <time>2019-05-04T11:44:50.000Z</time>
      </trkpt>
      <trkpt lat="45.2117" lon="5.83071">
        <ele>214.3</ele>
        <time>2019-05-04T11:44:55.000Z</time>
      </trkpt>
      <trkpt lat="45.21162" lon="5.83058">
        <ele>215.06</ele>
        <time>2019-05-04T11:45:00.000Z</time>
      </trkpt>
      <trkpt lat="45.21168" lon="5.83071">
        <ele>217.39</ele>
        <time>2019-05-04T11:45:13.000Z</time>
      </trkpt>
      <trkpt lat="45.21181" lon="5.83086">
        <ele>217.59</ele>
        <time>2019-05-04T11:45:18.000Z</time>
      </trkpt>
      <trkpt lat="45.21194" lon="5.83112">
        <ele>216.41</ele>
        <time>2019-05-04T11:45:23.000Z</time>
      </trkpt>
      <trkpt lat="45.21213" lon="5.83137">
        <ele>217.45</ele>
        <time>2019-05-04T11:45:28.000Z</time>
      </trkpt>
      <trkpt lat="45.21238" lon="5.83163">
        <ele>217.54</ele>
        <time>2019-05-04T11:45:33.000Z</time>
      </trkpt>
      <trkpt lat="45.21262" lon="5.83186">
        <ele>215.36</ele>
        <time>2019-05-04T11:45:38.000Z</time>
      </trkpt>
      <trkpt lat="45.21285" lon="5.83207">
        <ele>216.05</ele>
        <time>2019-05-04T11:45:43.000Z</time>
      </trkpt>
      <trkpt lat="45.21304" lon="5.83229">
        <ele>216.61</ele>
        <time>2019-05-04T11:45:48.000Z</time>
      </trkpt>
      <trkpt lat="45.21329" lon="5.83254">
        <ele>215.74</ele>
        <time>2019-05-04T11:45:53.000Z</time>
      </trkpt>
      <trkpt lat="45.21352" lon="5.83279">
        <ele>217.56</ele>
        <time>2019-05-04T11:45:58.000Z</time>
      </trkpt>
      <trkpt lat="45.21375" lon="5.83302">
        <ele>217.99</ele>
        <time>2019-05-04T11:46:03.000Z</time>
      </trkpt>
      <trkpt lat="45.21396" lon="5.83322">
        <ele>218.08</ele>
        <time>2019-05-04T11:46:08.000Z</time>
      </trkpt>
      <trkpt lat="45.21418" lon="5.83346">
        <ele>217.69</ele>
        <time>2019-05-04T11:46:13.000Z</time>
      </trkpt>
      <trkpt lat="45.2144" lon="5.8337">
        <ele>216.91</ele>
        <time>2019-05-04T11:46:18.000Z</time>
      </trkpt>
      <trkpt lat="45.21466" lon="5.83394">
        <ele>216.74</ele>
        <time>2019-05-04T11:46:23.000Z</time>
      </trkpt>
      <trkpt lat="45.21488" lon="5.83423">
        <ele>220.57</ele>
        <time>2019-05-04T11:46:28.000Z</time>
      </trkpt>
      <trkpt lat="45.21511" lon="5.83455">
        <ele>214.93</ele>
        <time>2019-05-04T11:46:33.000Z</time>
      </trkpt>
      <trkpt lat="45.21529" lon="5.8349">
        <ele>215.06</ele>
        <time>2019-05-04T11:46:38.000Z</time>
      </trkpt>
      <trkpt lat="45.21547" lon="5.83528">
        <ele>213.7</ele>
        <time>2019-05-04T11:46:43.000Z</time>
      </trkpt>
      <trkpt lat="45.21564" lon="5.83568">
        <ele>213</ele>
        <time>2019-05-04T11:46:48.000Z</time>
      </trkpt>
      <trkpt lat="45.21579" lon="5.83603">
        <ele>214.33</ele>
        <time>2019-05-04T11:46:53.000Z</time>
      </trkpt>
      <trkpt lat="45.21595" lon="5.83636">
        <ele>212.53</ele>
        <time>2019-05-04T11:46:58.000Z</time>
      </trkpt>
      <trkpt lat="45.21612" lon="5.8367">
        <ele>210.91</ele>
        <time>2019-05-04T11:47:03.000Z</time>
      </trkpt>
      <trkpt lat="45.21634" lon="5.83714">
        <ele>212.37</ele>
        <time>2019-05-04T11:47:08.000Z</time>
      </trkpt>
      <trkpt lat="45.21654" lon="5.83745">
        <ele>210.16</ele>
        <time>2019-05-04T11:47:13.000Z</time>
      </trkpt>
      <trkpt lat="45.21673" lon="5.83783">
        <ele>210.23</ele>
        <time>2019-05-04T11:47:18.000Z</time>
      </trkpt>
      <trkpt lat="45.21691" lon="5.83816">
        <ele>212.36</ele>
        <time>2019-05-04T11:47:23.000Z</time>
      </trkpt>
      <trkpt lat="45.21709" lon="5.83855">
        <ele>214.04</ele>
        <time>2019-05-04T11:47:28.000Z</time>
      </trkpt>
      <trkpt lat="45.21729" lon="5.83887">
        <ele>216.93</ele>
        <time>2019-05-04T11:47:33.000Z</time>
      </trkpt>
      <trkpt lat="45.21748" lon="5.8392">
        <ele>219.37</ele>
        <time>2019-05-04T11:47:38.000Z</time>
      </trkpt>
      <trkpt lat="45.2177" lon="5.83953">
        <ele>215.45</ele>
        <time>2019-05-04T11:47:43.000Z</time>
      </trkpt>
      <trkpt lat="45.21792" lon="5.83989">
        <ele>213.78</ele>
        <time>2019-05-04T11:47:48.000Z</time>
      </trkpt>
      <trkpt lat="45.21814" lon="5.84024">
        <ele>212.92</ele>
        <time>2019-05-04T11:47:53.000Z</time>
      </trkpt>
      <trkpt lat="45.21836" lon="5.8406">
        <ele>213.72</ele>
        <time>2019-05-04T11:47:58.000Z</time>
      </trkpt>
      <trkpt lat="45.2186" lon="5.84093">
        <ele>214.53</ele>
        <time>2019-05-04T11:48:03.000Z</time>
      </trkpt>
      <trkpt lat="45.21885" lon="5.84127">
        <ele>215.91</ele>
        <time>2019-05-04T11:48:08.000Z</time>
      </trkpt>
      <trkpt lat="45.21907" lon="5.84156">
        <ele>218.29</ele>
        <time>2019-05-04T11:48:13.000Z</time>
      </trkpt>
      <trkpt lat="45.21924" lon="5.84179">
        <ele>219.33</ele>
        <time>2019-05-04T11:48:18.000Z</time>
      </trkpt>
      <trkpt lat="45.21942" lon="5.84199">
        <ele>217.73</ele>
        <time>2019-05-04T11:48:23.000Z</time>
      </trkpt>
      <trkpt lat="45.2196" lon="5.84216">
        <ele>219.08</ele>
        <time>2019-05-04T11:48:28.000Z</time>
      </trkpt>
      <trkpt lat="45.21977" lon="5.84234">
        <ele>224.22</ele>
        <time>2019-05-04T11:48:33.000Z</time>
      </trkpt>
      <trkpt lat="45.21995" lon="5.84254">
        <ele>224.02</ele>
        <time>2019-05-04T11:48:38.000Z</time>
      </trkpt>
      <trkpt lat="45.22012" lon="5.8427">
        <ele>224.95</ele>
        <time>2019-05-04T11:48:43.000Z</time>
      </trkpt>
      <trkpt lat="45.22031" lon="5.8429">
        <ele>225.34</ele>
        <time>2019-05-04T11:48:48.000Z</time>
      </trkpt>
      <trkpt lat="45.22049" lon="5.84314">
        <ele>223.96</ele>
        <time>2019-05-04T11:48:53.000Z</time>
      </trkpt>
      <trkpt lat="45.2207" lon="5.84338">
        <ele>226.14</ele>
        <time>2019-05-04T11:48:58.000Z</time>
      </trkpt>
      <trkpt lat="45.22088" lon="5.84362">
        <ele>226.34</ele>
        <time>2019-05-04T11:49:03.000Z</time>
      </trkpt>
      <trkpt lat="45.22106" lon="5.84384">
        <ele>227.02</ele>
        <time>2019-05-04T11:49:08.000Z</time>
      </trkpt>
      <trkpt lat="45.22128" lon="5.84408">
        <ele>226.99</ele>
        <time>2019-05-04T11:49:13.000Z</time>
      </trkpt>
      <trkpt lat="45.22145" lon="5.84432">
        <ele>224.05</ele>
        <time>2019-05-04T11:49:18.000Z</time>
      </trkpt>
      <trkpt lat="45.22167" lon="5.84456">
        <ele>220.61</ele>
        <time>2019-05-04T11:49:23.000Z</time>
      </trkpt>
      <trkpt lat="45.22185" lon="5.84481">
        <ele>218.47</ele>
        <time>2019-05-04T11:49:28.000Z</time>
      </trkpt>
      <trkpt lat="45.22204" lon="5.8451">
        <ele>224.65</ele>
        <time>2019-05-04T11:49:33.000Z</time>
      </trkpt>
      <trkpt lat="45.22223" lon="5.84539">
        <ele>226.97</ele>
        <time>2019-05-04T11:49:38.000Z</time>
      </trkpt>
      <trkpt lat="45.22246" lon="5.84567">
        <ele>227.24</ele>
        <time>2019-05-04T11:49:43.000Z</time>
      </trkpt>
      <trkpt lat="45.2227" lon="5.84592">
        <ele>224.64</ele>
        <time>2019-05-04T11:49:48.000Z</time>
      </trkpt>
      <trkpt lat="45.22292" lon="5.8462">
        <ele>223.57</ele>
        <time>2019-05-04T11:49:53.000Z</time>
      </trkpt>
      <trkpt lat="45.22314" lon="5.84648">
        <ele>223.74</ele>
        <time>2019-05-04T11:49:58.000Z</time>
      </trkpt>
      <trkpt lat="45.22337" lon="5.84678">
        <ele>223.21</ele>
        <time>2019-05-04T11:50:03.000Z</time>
      </trkpt>
      <trkpt lat="45.22356" lon="5.84707">
        <ele>218.29</ele>
        <time>2019-05-04T11:50:08.000Z</time>
      </trkpt>
      <trkpt lat="45.22377" lon="5.84735">
        <ele>217.96</ele>
        <time>2019-05-04T11:50:13.000Z</time>
      </trkpt>
      <trkpt lat="45.224" lon="5.84766">
        <ele>218.49</ele>
        <time>2019-05-04T11:50:18.000Z</time>
      </trkpt>
      <trkpt lat="45.22424" lon="5.84792">
        <ele>219.06</ele>
        <time>2019-05-04T11:50:23.000Z</time>
      </trkpt>
      <trkpt lat="45.22452" lon="5.84822">
        <ele>219.28</ele>
        <time>2019-05-04T11:50:28.000Z</time>
      </trkpt>
      <trkpt lat="45.22477" lon="5.84852">
        <ele>222.97</ele>
        <time>2019-05-04T11:50:33.000Z</time>
      </trkpt>
      <trkpt lat="45.22499" lon="5.8488">
        <ele>219.37</ele>
        <time>2019-05-04T11:50:38.000Z</time>
      </trkpt>
      <trkpt lat="45.22525" lon="5.84908">
        <ele>219.88</ele>
        <time>2019-05-04T11:50:43.000Z</time>
      </trkpt>
      <trkpt lat="45.22548" lon="5.84935">
        <ele>220.45</ele>
        <time>2019-05-04T11:50:48.000Z</time>
      </trkpt>
      <trkpt lat="45.22569" lon="5.84964">
        <ele>218.29</ele>
        <time>2019-05-04T11:50:53.000Z</time>
      </trkpt>
      <trkpt lat="45.2259" lon="5.8499">
        <ele>218.97</ele>
        <time>2019-05-04T11:50:58.000Z</time>
      </trkpt>
      <trkpt lat="45.22612" lon="5.85018">
        <ele>218.91</ele>
        <time>2019-05-04T11:51:03.000Z</time>
      </trkpt>
      <trkpt lat="45.22635" lon="5.85048">
        <ele>218.26</ele>
        <time>2019-05-04T11:51:08.000Z</time>
      </trkpt>
      <trkpt lat="45.22657" lon="5.85076">
        <ele>219.46</ele>
        <time>2019-05-04T11:51:13.000Z</time>
      </trkpt>
      <trkpt lat="45.22679" lon="5.85104">
        <ele>219.76</ele>
        <time>2019-05-04T11:51:18.000Z</time>
      </trkpt>
      <trkpt lat="45.22703" lon="5.85132">
        <ele>217.61</ele>
        <time>2019-05-04T11:51:23.000Z</time>
      </trkpt>
      <trkpt lat="45.22727" lon="5.8516">
        <ele>219.95</ele>
        <time>2019-05-04T11:51:28.000Z</time>
      </trkpt>
      <trkpt lat="45.22754" lon="5.8519">
        <ele>223.56</ele>
        <time>2019-05-04T11:51:33.000Z</time>
      </trkpt>
      <trkpt lat="45.2278" lon="5.85221">
        <ele>222.22</ele>
        <time>2019-05-04T11:51:38.000Z</time>
      </trkpt>
      <trkpt lat="45.22803" lon="5.85249">
        <ele>223.45</ele>
        <time>2019-05-04T11:51:43.000Z</time>
      </trkpt>
      <trkpt lat="45.22824" lon="5.85277">
        <ele>219.74</ele>
        <time>2019-05-04T11:51:48.000Z</time>
      </trkpt>
      <trkpt lat="45.2285" lon="5.85306">
        <ele>218.67</ele>
        <time>2019-05-04T11:51:53.000Z</time>
      </trkpt>
      <trkpt lat="45.22873" lon="5.85337">
        <ele>224.07</ele>
        <time>2019-05-04T11:51:58.000Z</time>
      </trkpt>
      <trkpt lat="45.22895" lon="5.85363">
        <ele>226.26</ele>
        <time>2019-05-04T11:52:03.000Z</time>
      </trkpt>
      <trkpt lat="45.22917" lon="5.85386">
        <ele>222.87</ele>
        <time>2019-05-04T11:52:08.000Z</time>
      </trkpt>
      <trkpt lat="45.22927" lon="5.85409">
        <ele>226.3</ele>
        <time>2019-05-04T11:52:13.000Z</time>
      </trkpt>
      <trkpt lat="45.22935" lon="5.85443">
        <ele>226.68</ele>
        <time>2019-05-04T11:52:18.000Z</time>
      </trkpt>
      <trkpt lat="45.22952" lon="5.8547">
        <ele>225.18</ele>
        <time>2019-05-04T11:52:23.000Z</time>
      </trkpt>
      <trkpt lat="45.22964" lon="5.85504">
        <ele>222.23</ele>
        <time>2019-05-04T11:52:28.000Z</time>
      </trkpt>
      <trkpt lat="45.22976" lon="5.8553">
        <ele>224.92</ele>
        <time>2019-05-04T11:52:33.000Z</time>
      </trkpt>
      <trkpt lat="45.22981" lon="5.85548">
        <ele>223.05</ele>
        <time>2019-05-04T11:52:38.000Z</time>
      </trkpt>
      <trkpt lat="45.22989" lon="5.85569">
        <ele>223.39</ele>
        <time>2019-05-04T11:52:43.000Z</time>
      </trkpt>
      <trkpt lat="45.23002" lon="5.85588">
        <ele>222.31</ele>
        <time>2019-05-04T11:52:48.000Z</time>
      </trkpt>
      <trkpt lat="45.2302" lon="5.85612">
        <ele>224.32</ele>
        <time>2019-05-04T11:52:53.000Z</time>
      </trkpt>
      <trkpt lat="45.23042" lon="5.85633">
        <ele>225.9</ele>
        <time>2019-05-04T11:52:58.000Z</time>
      </trkpt>
      <trkpt lat="45.2307" lon="5.85648">
        <ele>225.19</ele>
        <time>2019-05-04T11:53:03.000Z</time>
      </trkpt>
      <trkpt lat="45.23099" lon="5.85654">
        <ele>225.34</ele>
        <time>2019-05-04T11:53:08.000Z</time>
      </trkpt>
      <trkpt lat="45.23128" lon="5.8566">
        <ele>224.77</ele>
        <time>2019-05-04T11:53:13.000Z</time>
      </trkpt>
      <trkpt lat="45.23156" lon="5.85669">
        <ele>224.08</ele>
        <time>2019-05-04T11:53:18.000Z</time>
      </trkpt>
      <trkpt lat="45.23187" lon="5.85675">
        <ele>230.24</ele>
        <time>2019-05-04T11:53:23.000Z</time>
      </trkpt>
      <trkpt lat="45.23219" lon="5.85683">
        <ele>232.75</ele>
        <time>2019-05-04T11:53:28.000Z</time>
      </trkpt>
      <trkpt lat="45.23251" lon="5.85695">
        <ele>230.44</ele>
        <time>2019-05-04T11:53:33.000Z</time>
      </trkpt>
      <trkpt lat="45.23281" lon="5.857">
        <ele>230.12</ele>
        <time>2019-05-04T11:53:38.000Z</time>
      </trkpt>
      <trkpt lat="45.23312" lon="5.85711">
        <ele>229.1</ele>
        <time>2019-05-04T11:53:43.000Z</time>
      </trkpt>
      <trkpt lat="45.2334" lon="5.85725">
        <ele>232.02</ele>
        <time>2019-05-04T11:53:48.000Z</time>
      </trkpt>
      <trkpt lat="45.23371" lon="5.85756">
        <ele>229.52</ele>
        <time>2019-05-04T11:53:53.000Z</time>
      </trkpt>
      <trkpt lat="45.23396" lon="5.85779">
        <ele>233.04</ele>
        <time>2019-05-04T11:53:58.000Z</time>
      </trkpt>
      <trkpt lat="45.23426" lon="5.85795">
        <ele>234.76</ele>
        <time>2019-05-04T11:54:03.000Z</time>
      </trkpt>
      <trkpt lat="45.23461" lon="5.85795">
        <ele>226.98</ele>
        <time>2019-05-04T11:54:08.000Z</time>
      </trkpt>
      <trkpt lat="45.23495" lon="5.85794">
        <ele>229.56</ele>
        <time>2019-05-04T11:54:13.000Z</time>
      </trkpt>
      <trkpt lat="45.23529" lon="5.85802">
        <ele>228.13</ele>
        <time>2019-05-04T11:54:18.000Z</time>
      </trkpt>
      <trkpt lat="45.23561" lon="5.85815">
        <ele>227.92</ele>
        <time>2019-05-04T11:54:23.000Z</time>
      </trkpt>
      <trkpt lat="45.23594" lon="5.8583">
        <ele>227.67</ele>
        <time>2019-05-04T11:54:28.000Z</time>
      </trkpt>
      <trkpt lat="45.23621" lon="5.85846">
        <ele>227.31</ele>
        <time>2019-05-04T11:54:33.000Z</time>
      </trkpt>
      <trkpt lat="45.23644" lon="5.85877">
        <ele>223.17</ele>
        <time>2019-05-04T11:54:38.000Z</time>
      </trkpt>
      <trkpt lat="45.23661" lon="5.85919">
        <ele>225.4</ele>
        <time>2019-05-04T11:54:43.000Z</time>
      </trkpt>
      <trkpt lat="45.2367" lon="5.85967">
        <ele>222.02</ele>
        <time>2019-05-04T11:54:48.000Z</time>
      </trkpt>
      <trkpt lat="45.23664" lon="5.86014">
        <ele>220.21</ele>
        <time>2019-05-04T11:54:53.000Z</time>
      </trkpt>
      <trkpt lat="45.23651" lon="5.86056">
        <ele>219.79</ele>
        <time>2019-05-04T11:54:58.000Z</time>
      </trkpt>
      <trkpt lat="45.2364" lon="5.86099">
        <ele>219.65</ele>
        <time>2019-05-04T11:55:03.000Z</time>
      </trkpt>
      <trkpt lat="45.23626" lon="5.86147">
        <ele>220.27</ele>
        <time>2019-05-04T11:55:08.000Z</time>
      </trkpt>
      <trkpt lat="45.23615" lon="5.86191">
        <ele>220.94</ele>
        <time>2019-05-04T11:55:13.000Z</time>
      </trkpt>
      <trkpt lat="45.23604" lon="5.86235">
        <ele>222.78</ele>
        <time>2019-05-04T11:55:18.000Z</time>
      </trkpt>
      <trkpt lat="45.23593" lon="5.86281">
        <ele>221.3</ele>
        <time>2019-05-04T11:55:23.000Z</time>
      </trkpt>
      <trkpt lat="45.23582" lon="5.86325">
        <ele>220.71</ele>
        <time>2019-05-04T11:55:28.000Z</time>
      </trkpt>
      <trkpt lat="45.23571" lon="5.8637">
        <ele>221.66</ele>
        <time>2019-05-04T11:55:33.000Z</time>
      </trkpt>
      <trkpt lat="45.23558" lon="5.86417">
        <ele>221.1</ele>
        <time>2019-05-04T11:55:38.000Z</time>
      </trkpt>
      <trkpt lat="45.23548" lon="5.86462">
        <ele>221.34</ele>
        <time>2019-05-04T11:55:43.000Z</time>
      </trkpt>
      <trkpt lat="45.2354" lon="5.86505">
        <ele>222.46</ele>
        <time>2019-05-04T11:55:48.000Z</time>
      </trkpt>
      <trkpt lat="45.23529" lon="5.8655">
        <ele>223.58</ele>
        <time>2019-05-04T11:55:53.000Z</time>
      </trkpt>
      <trkpt lat="45.23516" lon="5.86594">
        <ele>224.67</ele>
        <time>2019-05-04T11:55:58.000Z</time>
      </trkpt>
      <trkpt lat="45.23506" lon="5.86635">
        <ele>223.97</ele>
        <time>2019-05-04T11:56:03.000Z</time>
      </trkpt>
      <trkpt lat="45.23495" lon="5.86682">
        <ele>223.89</ele>
        <time>2019-05-04T11:56:08.000Z</time>
      </trkpt>
      <trkpt lat="45.23479" lon="5.86722">
        <ele>223.92</ele>
        <time>2019-05-04T11:56:13.000Z</time>
      </trkpt>
      <trkpt lat="45.23467" lon="5.86766">
        <ele>223.72</ele>
        <time>2019-05-04T11:56:18.000Z</time>
      </trkpt>
      <trkpt lat="45.23459" lon="5.86813">
        <ele>223.64</ele>
        <time>2019-05-04T11:56:23.000Z</time>
      </trkpt>
      <trkpt lat="45.23449" lon="5.86859">
        <ele>224.74</ele>
        <time>2019-05-04T11:56:28.000Z</time>
      </trkpt>
      <trkpt lat="45.23441" lon="5.86902">
        <ele>225.45</ele>
        <time>2019-05-04T11:56:33.000Z</time>
      </trkpt>
      <trkpt lat="45.23431" lon="5.86944">
        <ele>224.33</ele>
        <time>2019-05-04T11:56:38.000Z</time>
      </trkpt>
      <trkpt lat="45.23419" lon="5.86989">
        <ele>222.22</ele>
        <time>2019-05-04T11:56:43.000Z</time>
      </trkpt>
      <trkpt lat="45.23412" lon="5.87035">
        <ele>221.88</ele>
        <time>2019-05-04T11:56:48.000Z</time>
      </trkpt>
      <trkpt lat="45.23409" lon="5.87086">
        <ele>222.81</ele>
        <time>2019-05-04T11:56:53.000Z</time>
      </trkpt>
      <trkpt lat="45.23404" lon="5.87134">
        <ele>223.91</ele>
        <time>2019-05-04T11:56:58.000Z</time>
      </trkpt>
      <trkpt lat="45.23398" lon="5.8718">
        <ele>222.35</ele>
        <time>2019-05-04T11:57:03.000Z</time>
      </trkpt>
      <trkpt lat="45.23395" lon="5.87225">
        <ele>220.86</ele>
        <time>2019-05-04T11:57:08.000Z</time>
      </trkpt>
      <trkpt lat="45.23391" lon="5.87271">
        <ele>222.9</ele>
        <time>2019-05-04T11:57:13.000Z</time>
      </trkpt>
      <trkpt lat="45.23389" lon="5.87318">
        <ele>224.45</ele>
        <time>2019-05-04T11:57:18.000Z</time>
      </trkpt>
      <trkpt lat="45.2339" lon="5.87365">
        <ele>225.22</ele>
        <time>2019-05-04T11:57:23.000Z</time>
      </trkpt>
      <trkpt lat="45.23388" lon="5.87412">
        <ele>225.34</ele>
        <time>2019-05-04T11:57:28.000Z</time>
      </trkpt>
      <trkpt lat="45.23386" lon="5.87459">
        <ele>227.37</ele>
        <time>2019-05-04T11:57:33.000Z</time>
      </trkpt>
      <trkpt lat="45.23385" lon="5.87508">
        <ele>229.01</ele>
        <time>2019-05-04T11:57:38.000Z</time>
      </trkpt>
      <trkpt lat="45.23386" lon="5.87555">
        <ele>228.63</ele>
        <time>2019-05-04T11:57:43.000Z</time>
      </trkpt>
      <trkpt lat="45.2339" lon="5.87602">
        <ele>228.85</ele>
        <time>2019-05-04T11:57:48.000Z</time>
      </trkpt>
      <trkpt lat="45.23397" lon="5.8765">
        <ele>228.18</ele>
        <time>2019-05-04T11:57:53.000Z</time>
      </trkpt>
      <trkpt lat="45.23404" lon="5.87698">
        <ele>225.73</ele>
        <time>2019-05-04T11:57:58.000Z</time>
      </trkpt>
      <trkpt lat="45.23412" lon="5.87744">
        <ele>228.62</ele>
        <time>2019-05-04T11:58:03.000Z</time>
      </trkpt>
      <trkpt lat="45.23421" lon="5.87791">
        <ele>231.26</ele>
        <time>2019-05-04T11:58:08.000Z</time>
      </trkpt>
      <trkpt lat="45.23433" lon="5.87838">
        <ele>230.21</ele>
        <time>2019-05-04T11:58:13.000Z</time>
      </trkpt>
      <trkpt lat="45.23445" lon="5.87881">
        <ele>228.95</ele>
        <time>2019-05-04T11:58:18.000Z</time>
      </trkpt>
      <trkpt lat="45.23456" lon="5.87924">
        <ele>230.96</ele>
        <time>2019-05-04T11:58:23.000Z</time>
      </trkpt>
      <trkpt lat="45.23467" lon="5.87965">
        <ele>227.76</ele>
        <time>2019-05-04T11:58:28.000Z</time>
      </trkpt>
      <trkpt lat="45.23479" lon="5.88007">
        <ele>228.85</ele>
        <time>2019-05-04T11:58:33.000Z</time>
      </trkpt>
      <trkpt lat="45.23492" lon="5.88051">
        <ele>228.97</ele>
        <time>2019-05-04T11:58:38.000Z</time>
      </trkpt>
      <trkpt lat="45.23503" lon="5.88092">
        <ele>228.17</ele>
        <time>2019-05-04T11:58:43.000Z</time>
      </trkpt>
      <trkpt lat="45.23501" lon="5.8813">
        <ele>228.51</ele>
        <time>2019-05-04T11:58:48.000Z</time>
      </trkpt>
      <trkpt lat="45.23483" lon="5.88158">
        <ele>227.85</ele>
        <time>2019-05-04T11:58:53.000Z</time>
      </trkpt>
      <trkpt lat="45.23468" lon="5.88178">
        <ele>228.73</ele>
        <time>2019-05-04T11:58:58.000Z</time>
      </trkpt>
      <trkpt lat="45.2345" lon="5.882">
        <ele>229.26</ele>
        <time>2019-05-04T11:59:03.000Z</time>
      </trkpt>
      <trkpt lat="45.23432" lon="5.88216">
        <ele>230.96</ele>
        <time>2019-05-04T11:59:08.000Z</time>
      </trkpt>
      <trkpt lat="45.23414" lon="5.88231">
        <ele>230.2</ele>
        <time>2019-05-04T11:59:13.000Z</time>
      </trkpt>
      <trkpt lat="45.23405" lon="5.88239">
        <ele>229.89</ele>
        <time>2019-05-04T11:59:18.000Z</time>
      </trkpt>
      <trkpt lat="45.23398" lon="5.88254">
        <ele>226.56</ele>
        <time>2019-05-04T11:59:23.000Z</time>
      </trkpt>
      <trkpt lat="45.23387" lon="5.88276">
        <ele>225.65</ele>
        <time>2019-05-04T11:59:28.000Z</time>
      </trkpt>
      <trkpt lat="45.23368" lon="5.88295">
        <ele>225.65</ele>
        <time>2019-05-04T11:59:33.000Z</time>
      </trkpt>
      <trkpt lat="45.23353" lon="5.88315">
        <ele>228.94</ele>
        <time>2019-05-04T11:59:38.000Z</time>
      </trkpt>
      <trkpt lat="45.23341" lon="5.88331">
        <ele>228.05</ele>
        <time>2019-05-04T11:59:43.000Z</time>
      </trkpt>
      <trkpt lat="45.23334" lon="5.88338">
        <ele>229.16</ele>
        <time>2019-05-04T11:59:48.000Z</time>
      </trkpt>
      <trkpt lat="45.23332" lon="5.88352">
        <ele>240.56</ele>
        <time>2019-05-04T12:03:10.000Z</time>
      </trkpt>
      <trkpt lat="45.23315" lon="5.88376">
        <ele>239.51</ele>
        <time>2019-05-04T12:03:15.000Z</time>
      </trkpt>
      <trkpt lat="45.23296" lon="5.88391">
        <ele>242.61</ele>
        <time>2019-05-04T12:03:20.000Z</time>
      </trkpt>
      <trkpt lat="45.23282" lon="5.88414">
        <ele>244.78</ele>
        <time>2019-05-04T12:03:25.000Z</time>
      </trkpt>
      <trkpt lat="45.23277" lon="5.88441">
        <ele>244.65</ele>
        <time>2019-05-04T12:03:30.000Z</time>
      </trkpt>
      <trkpt lat="45.23282" lon="5.88468">
        <ele>242.18</ele>
        <time>2019-05-04T12:03:35.000Z</time>
      </trkpt>
      <trkpt lat="45.23291" lon="5.88493">
        <ele>243.67</ele>
        <time>2019-05-04T12:03:40.000Z</time>
      </trkpt>
      <trkpt lat="45.233" lon="5.88516">
        <ele>243.97</ele>
        <time>2019-05-04T12:03:45.000Z</time>
      </trkpt>
      <trkpt lat="45.23319" lon="5.8853">
        <ele>246.37</ele>
        <time>2019-05-04T12:03:50.000Z</time>
      </trkpt>
      <trkpt lat="45.23336" lon="5.88548">
        <ele>244.78</ele>
        <time>2019-05-04T12:03:55.000Z</time>
      </trkpt>
      <trkpt lat="45.23352" lon="5.88563">
        <ele>245.96</ele>
        <time>2019-05-04T12:04:00.000Z</time>
      </trkpt>
      <trkpt lat="45.23365" lon="5.88582">
        <ele>247.91</ele>
        <time>2019-05-04T12:04:05.000Z</time>
      </trkpt>
      <trkpt lat="45.23379" lon="5.88599">
        <ele>250.17</ele>
        <time>2019-05-04T12:04:10.000Z</time>
      </trkpt>
      <trkpt lat="45.23393" lon="5.88612">
        <ele>255.02</ele>
        <time>2019-05-04T12:04:15.000Z</time>
      </trkpt>
      <trkpt lat="45.23407" lon="5.88633">
        <ele>255.72</ele>
        <time>2019-05-04T12:04:20.000Z</time>
      </trkpt>
      <trkpt lat="45.23415" lon="5.8866">
        <ele>257.64</ele>
        <time>2019-05-04T12:04:25.000Z</time>
      </trkpt>
      <trkpt lat="45.23421" lon="5.88686">
        <ele>260.01</ele>
        <time>2019-05-04T12:04:30.000Z</time>
      </trkpt>
      <trkpt lat="45.23429" lon="5.88717">
        <ele>260.02</ele>
        <time>2019-05-04T12:04:35.000Z</time>
      </trkpt>
      <trkpt lat="45.23451" lon="5.88737">
        <ele>258.06</ele>
        <time>2019-05-04T12:04:40.000Z</time>
      </trkpt>
      <trkpt lat="45.2347" lon="5.88752">
        <ele>260.63</ele>
        <time>2019-05-04T12:04:45.000Z</time>
      </trkpt>
      <trkpt lat="45.23489" lon="5.8877">
        <ele>260.24</ele>
        <time>2019-05-04T12:04:50.000Z</time>
      </trkpt>
      <trkpt lat="45.23503" lon="5.88792">
        <ele>264.58</ele>
        <time>2019-05-04T12:04:55.000Z</time>
      </trkpt>
      <trkpt lat="45.23521" lon="5.88811">
        <ele>264.79</ele>
        <time>2019-05-04T12:05:00.000Z</time>
      </trkpt>
      <trkpt lat="45.23535" lon="5.88836">
        <ele>264.23</ele>
        <time>2019-05-04T12:05:05.000Z</time>
      </trkpt>
      <trkpt lat="45.23551" lon="5.88853">
        <ele>264.15</ele>
        <time>2019-05-04T12:05:10.000Z</time>
      </trkpt>
      <trkpt lat="45.23567" lon="5.88868">
        <ele>259.57</ele>
        <time>2019-05-04T12:05:15.000Z</time>
      </trkpt>
      <trkpt lat="45.23583" lon="5.88881">
        <ele>260.01</ele>
        <time>2019-05-04T12:05:20.000Z</time>
      </trkpt>
      <trkpt lat="45.236" lon="5.88893">
        <ele>267.55</ele>
        <time>2019-05-04T12:05:25.000Z</time>
      </trkpt>
      <trkpt lat="45.23615" lon="5.88906">
        <ele>271.98</ele>
        <time>2019-05-04T12:05:30.000Z</time>
      </trkpt>
      <trkpt lat="45.23629" lon="5.88919">
        <ele>279.06</ele>
        <time>2019-05-04T12:05:35.000Z</time>
      </trkpt>
      <trkpt lat="45.23642" lon="5.88939">
        <ele>281.36</ele>
        <time>2019-05-04T12:05:40.000Z</time>
      </trkpt>
      <trkpt lat="45.23654" lon="5.88958">
        <ele>281.94</ele>
        <time>2019-05-04T12:05:45.000Z</time>
      </trkpt>
      <trkpt lat="45.23668" lon="5.88974">
        <ele>285.45</ele>
        <time>2019-05-04T12:05:50.000Z</time>
      </trkpt>
      <trkpt lat="45.23681" lon="5.88989">
        <ele>288.69</ele>
        <time>2019-05-04T12:05:55.000Z</time>
      </trkpt>
      <trkpt lat="45.23696" lon="5.89007">
        <ele>290.68</ele>
        <time>2019-05-04T12:06:00.000Z</time>
      </trkpt>
      <trkpt lat="45.23712" lon="5.89025">
        <ele>290.36</ele>
        <time>2019-05-04T12:06:05.000Z</time>
      </trkpt>
      <trkpt lat="45.23729" lon="5.89039">
        <ele>290.95</ele>
        <time>2019-05-04T12:06:10.000Z</time>
      </trkpt>
      <trkpt lat="45.23747" lon="5.89061">
        <ele>290.37</ele>
        <time>2019-05-04T12:06:15.000Z</time>
      </trkpt>
      <trkpt lat="45.23766" lon="5.89088">
        <ele>286.08</ele>
        <time>2019-05-04T12:06:20.000Z</time>
      </trkpt>
      <trkpt lat="45.23777" lon="5.89105">
        <ele>289.81</ele>
        <time>2019-05-04T12:06:25.000Z</time>
      </trkpt>
      <trkpt lat="45.23781" lon="5.89125">
        <ele>292.05</ele>
        <time>2019-05-04T12:06:30.000Z</time>
      </trkpt>
      <trkpt lat="45.23787" lon="5.89143">
        <ele>297.38</ele>
        <time>2019-05-04T12:06:35.000Z</time>
      </trkpt>
      <trkpt lat="45.23796" lon="5.89161">
        <ele>302.66</ele>
        <time>2019-05-04T12:06:40.000Z</time>
      </trkpt>
      <trkpt lat="45.23808" lon="5.8918">
        <ele>304.11</ele>
        <time>2019-05-04T12:06:45.000Z</time>
      </trkpt>
      <trkpt lat="45.23825" lon="5.89196">
        <ele>308.04</ele>
        <time>2019-05-04T12:06:50.000Z</time>
      </trkpt>
      <trkpt lat="45.23835" lon="5.89218">
        <ele>305.9</ele>
        <time>2019-05-04T12:06:55.000Z</time>
      </trkpt>
      <trkpt lat="45.23843" lon="5.89239">
        <ele>306.29</ele>
        <time>2019-05-04T12:07:00.000Z</time>
      </trkpt>
      <trkpt lat="45.23853" lon="5.89257">
        <ele>309.9</ele>
        <time>2019-05-04T12:07:05.000Z</time>
      </trkpt>
      <trkpt lat="45.23866" lon="5.89272">
        <ele>312.37</ele>
        <time>2019-05-04T12:07:10.000Z</time>
      </trkpt>
      <trkpt lat="45.23881" lon="5.89294">
        <ele>313.32</ele>
        <time>2019-05-04T12:07:15.000Z</time>
      </trkpt>
      <trkpt lat="45.23894" lon="5.89314">
        <ele>315.11</ele>
        <time>2019-05-04T12:07:20.000Z</time>
      </trkpt>
      <trkpt lat="45.23904" lon="5.89329">
        <ele>316.68</ele>
        <time>2019-05-04T12:07:25.000Z</time>
      </trkpt>
      <trkpt lat="45.23921" lon="5.89348">
        <ele>322.29</ele>
        <time>2019-05-04T12:07:30.000Z</time>
      </trkpt>
      <trkpt lat="45.23937" lon="5.89367">
        <ele>325.12</ele>
        <time>2019-05-04T12:07:35.000Z</time>
      </trkpt>
      <trkpt lat="45.23949" lon="5.89389">
        <ele>329.04</ele>
        <time>2019-05-04T12:07:40.000Z</time>
      </trkpt>
      <trkpt lat="45.23964" lon="5.89407">
        <ele>330.05</ele>
        <time>2019-05-04T12:07:45.000Z</time>
      </trkpt>
      <trkpt lat="45.23981" lon="5.89424">
        <ele>329.24</ele>
        <time>2019-05-04T12:07:50.000Z</time>
      </trkpt>
      <trkpt lat="45.23996" lon="5.89441">
        <ele>325.06</ele>
        <time>2019-05-04T12:07:55.000Z</time>
      </trkpt>
      <trkpt lat="45.24015" lon="5.89453">
        <ele>330.08</ele>
        <time>2019-05-04T12:08:00.000Z</time>
      </trkpt>
      <trkpt lat="45.24031" lon="5.89465">
        <ele>333.51</ele>
        <time>2019-05-04T12:08:05.000Z</time>
      </trkpt>
      <trkpt lat="45.24047" lon="5.89478">
        <ele>335</ele>
        <time>2019-05-04T12:08:10.000Z</time>
      </trkpt>
      <trkpt lat="45.24063" lon="5.89494">
        <ele>338.36</ele>
        <time>2019-05-04T12:08:15.000Z</time>
      </trkpt>
      <trkpt lat="45.24077" lon="5.89513">
        <ele>342.41</ele>
        <time>2019-05-04T12:08:20.000Z</time>
      </trkpt>
      <trkpt lat="45.24089" lon="5.89531">
        <ele>344.54</ele>
        <time>2019-05-04T12:08:25.000Z</time>
      </trkpt>
      <trkpt lat="45.24104" lon="5.89547">
        <ele>344.89</ele>
        <time>2019-05-04T12:08:30.000Z</time>
      </trkpt>
      <trkpt lat="45.2412" lon="5.89566">
        <ele>345.44</ele>
        <time>2019-05-04T12:08:35.000Z</time>
      </trkpt>
      <trkpt lat="45.24131" lon="5.89582">
        <ele>349.82</ele>
        <time>2019-05-04T12:08:40.000Z</time>
      </trkpt>
      <trkpt lat="45.24143" lon="5.89602">
        <ele>354.43</ele>
        <time>2019-05-04T12:08:45.000Z</time>
      </trkpt>
      <trkpt lat="45.24154" lon="5.89623">
        <ele>356.27</ele>
        <time>2019-05-04T12:08:50.000Z</time>
      </trkpt>
      <trkpt lat="45.24159" lon="5.89644">
        <ele>360.73</ele>
        <time>2019-05-04T12:08:55.000Z</time>
      </trkpt>
      <trkpt lat="45.24168" lon="5.89666">
        <ele>360.63</ele>
        <time>2019-05-04T12:09:00.000Z</time>
      </trkpt>
      <trkpt lat="45.24183" lon="5.89684">
        <ele>364.06</ele>
        <time>2019-05-04T12:09:05.000Z</time>
      </trkpt>
      <trkpt lat="45.242" lon="5.89702">
        <ele>365.37</ele>
        <time>2019-05-04T12:09:10.000Z</time>
      </trkpt>
      <trkpt lat="45.24211" lon="5.89722">
        <ele>366.12</ele>
        <time>2019-05-04T12:09:15.000Z</time>
      </trkpt>
      <trkpt lat="45.24218" lon="5.89743">
        <ele>370.78</ele>
        <time>2019-05-04T12:09:20.000Z</time>
      </trkpt>
      <trkpt lat="45.24231" lon="5.89765">
        <ele>368.18</ele>
        <time>2019-05-04T12:09:25.000Z</time>
      </trkpt>
      <trkpt lat="45.24245" lon="5.89786">
        <ele>373.88</ele>
        <time>2019-05-04T12:09:30.000Z</time>
      </trkpt>
      <trkpt lat="45.24261" lon="5.89803">
        <ele>382.37</ele>
        <time>2019-05-04T12:09:35.000Z</time>
      </trkpt>
      <trkpt lat="45.24261" lon="5.89826">
        <ele>383.72</ele>
        <time>2019-05-04T12:09:40.000Z</time>
      </trkpt>
      <trkpt lat="45.24245" lon="5.89806">
        <ele>385.72</ele>
        <time>2019-05-04T12:09:45.000Z</time>
      </trkpt>
      <trkpt lat="45.2423" lon="5.89783">
        <ele>385.35</ele>
        <time>2019-05-04T12:09:50.000Z</time>
      </trkpt>
      <trkpt lat="45.24215" lon="5.89765">
        <ele>388.06</ele>
        <time>2019-05-04T12:09:55.000Z</time>
      </trkpt>
      <trkpt lat="45.242" lon="5.89749">
        <ele>389.65</ele>
        <time>2019-05-04T12:10:00.000Z</time>
      </trkpt>
      <trkpt lat="45.24184" lon="5.89735">
        <ele>391.87</ele>
        <time>2019-05-04T12:10:05.000Z</time>
      </trkpt>
      <trkpt lat="45.24169" lon="5.89723">
        <ele>395.37</ele>
        <time>2019-05-04T12:10:10.000Z</time>
      </trkpt>
      <trkpt lat="45.24151" lon="5.89713">
        <ele>395.41</ele>
        <time>2019-05-04T12:10:15.000Z</time>
      </trkpt>
      <trkpt lat="45.24131" lon="5.89706">
        <ele>394.52</ele>
        <time>2019-05-04T12:10:20.000Z</time>
      </trkpt>
      <trkpt lat="45.24113" lon="5.897">
        <ele>395.51</ele>
        <time>2019-05-04T12:10:25.000Z</time>
      </trkpt>
      <trkpt lat="45.24096" lon="5.89693">
        <ele>394.62</ele>
        <time>2019-05-04T12:10:30.000Z</time>
      </trkpt>
      <trkpt lat="45.24076" lon="5.89691">
        <ele>396.13</ele>
        <time>2019-05-04T12:10:35.000Z</time>
      </trkpt>
      <trkpt lat="45.24058" lon="5.89688">
        <ele>400.72</ele>
        <time>2019-05-04T12:10:40.000Z</time>
      </trkpt>
      <trkpt lat="45.24039" lon="5.89685">
        <ele>406.09</ele>
        <time>2019-05-04T12:10:45.000Z</time>
      </trkpt>
      <trkpt lat="45.24023" lon="5.89677">
        <ele>407.08</ele>
        <time>2019-05-04T12:10:50.000Z</time>
      </trkpt>
      <trkpt lat="45.24007" lon="5.89664">
        <ele>408.1</ele>
        <time>2019-05-04T12:10:55.000Z</time>
      </trkpt>
      <trkpt lat="45.23991" lon="5.89651">
        <ele>409.77</ele>
        <time>2019-05-04T12:11:00.000Z</time>
      </trkpt>
      <trkpt lat="45.23974" lon="5.89639">
        <ele>409.93</ele>
        <time>2019-05-04T12:11:05.000Z</time>
      </trkpt>
      <trkpt lat="45.23959" lon="5.89631">
        <ele>408.68</ele>
        <time>2019-05-04T12:11:10.000Z</time>
      </trkpt>
      <trkpt lat="45.23943" lon="5.89625">
        <ele>409.8</ele>
        <time>2019-05-04T12:11:15.000Z</time>
      </trkpt>
      <trkpt lat="45.23926" lon="5.89618">
        <ele>412.75</ele>
        <time>2019-05-04T12:11:20.000Z</time>
      </trkpt>
      <trkpt lat="45.2391" lon="5.89614">
        <ele>412.96</ele>
        <time>2019-05-04T12:11:25.000Z</time>
      </trkpt>
      <trkpt lat="45.2389" lon="5.89608">
        <ele>414.68</ele>
        <time>2019-05-04T12:11:30.000Z</time>
      </trkpt>
      <trkpt lat="45.23862" lon="5.89585">
        <ele>414.66</ele>
        <time>2019-05-04T12:11:35.000Z</time>
      </trkpt>
      <trkpt lat="45.23843" lon="5.89581">
        <ele>413.93</ele>
        <time>2019-05-04T12:11:40.000Z</time>
      </trkpt>
      <trkpt lat="45.23826" lon="5.89574">
        <ele>414.64</ele>
        <time>2019-05-04T12:11:45.000Z</time>
      </trkpt>
      <trkpt lat="45.23811" lon="5.89562">
        <ele>416.01</ele>
        <time>2019-05-04T12:11:50.000Z</time>
      </trkpt>
      <trkpt lat="45.238" lon="5.89555">
        <ele>414.95</ele>
        <time>2019-05-04T12:11:55.000Z</time>
      </trkpt>
      <trkpt lat="45.23787" lon="5.89549">
        <ele>417.23</ele>
        <time>2019-05-04T12:12:00.000Z</time>
      </trkpt>
      <trkpt lat="45.23774" lon="5.89542">
        <ele>424.34</ele>
        <time>2019-05-04T12:12:05.000Z</time>
      </trkpt>
      <trkpt lat="45.23756" lon="5.89531">
        <ele>424.33</ele>
        <time>2019-05-04T12:12:10.000Z</time>
      </trkpt>
      <trkpt lat="45.23735" lon="5.89514">
        <ele>429.76</ele>
        <time>2019-05-04T12:12:15.000Z</time>
      </trkpt>
      <trkpt lat="45.23716" lon="5.89495">
        <ele>437.37</ele>
        <time>2019-05-04T12:12:20.000Z</time>
      </trkpt>
      <trkpt lat="45.23695" lon="5.89482">
        <ele>437.91</ele>
        <time>2019-05-04T12:12:25.000Z</time>
      </trkpt>
      <trkpt lat="45.23675" lon="5.89472">
        <ele>438.7</ele>
        <time>2019-05-04T12:12:30.000Z</time>
      </trkpt>
      <trkpt lat="45.23659" lon="5.89463">
        <ele>439.83</ele>
        <time>2019-05-04T12:12:35.000Z</time>
      </trkpt>
      <trkpt lat="45.23646" lon="5.8946">
        <ele>440.35</ele>
        <time>2019-05-04T12:12:40.000Z</time>
      </trkpt>
      <trkpt lat="45.23647" lon="5.89483">
        <ele>442.38</ele>
        <time>2019-05-04T12:12:45.000Z</time>
      </trkpt>
      <trkpt lat="45.23671" lon="5.89508">
        <ele>445.08</ele>
        <time>2019-05-04T12:12:50.000Z</time>
      </trkpt>
      <trkpt lat="45.23694" lon="5.89527">
        <ele>445.06</ele>
        <time>2019-05-04T12:12:55.000Z</time>
      </trkpt>
      <trkpt lat="45.23709" lon="5.89542">
        <ele>446.93</ele>
        <time>2019-05-04T12:13:00.000Z</time>
      </trkpt>
      <trkpt lat="45.23726" lon="5.89557">
        <ele>452.45</ele>
        <time>2019-05-04T12:13:05.000Z</time>
      </trkpt>
      <trkpt lat="45.23741" lon="5.89571">
        <ele>456.33</ele>
        <time>2019-05-04T12:13:10.000Z</time>
      </trkpt>
      <trkpt lat="45.23755" lon="5.89586">
        <ele>454.38</ele>
        <time>2019-05-04T12:13:15.000Z</time>
      </trkpt>
      <trkpt lat="45.23769" lon="5.89601">
        <ele>458.72</ele>
        <time>2019-05-04T12:13:20.000Z</time>
      </trkpt>
      <trkpt lat="45.2378" lon="5.89623">
        <ele>461.62</ele>
        <time>2019-05-04T12:13:25.000Z</time>
      </trkpt>
      <trkpt lat="45.23791" lon="5.89644">
        <ele>463.84</ele>
        <time>2019-05-04T12:13:30.000Z</time>
      </trkpt>
      <trkpt lat="45.23807" lon="5.8966">
        <ele>466.1</ele>
        <time>2019-05-04T12:13:35.000Z</time>
      </trkpt>
      <trkpt lat="45.23826" lon="5.89678">
        <ele>466.46</ele>
        <time>2019-05-04T12:13:40.000Z</time>
      </trkpt>
      <trkpt lat="45.23841" lon="5.89693">
        <ele>470.26</ele>
        <time>2019-05-04T12:13:45.000Z</time>
      </trkpt>
      <trkpt lat="45.23858" lon="5.89709">
        <ele>471.6</ele>
        <time>2019-05-04T12:13:50.000Z</time>
      </trkpt>
      <trkpt lat="45.23873" lon="5.89725">
        <ele>476.97</ele>
        <time>2019-05-04T12:13:55.000Z</time>
      </trkpt>
      <trkpt lat="45.2389" lon="5.89741">
        <ele>477.77</ele>
        <time>2019-05-04T12:14:00.000Z</time>
      </trkpt>
      <trkpt lat="45.23905" lon="5.89761">
        <ele>477.93</ele>
        <time>2019-05-04T12:14:05.000Z</time>
      </trkpt>
      <trkpt lat="45.23921" lon="5.89787">
        <ele>477.13</ele>
        <time>2019-05-04T12:14:10.000Z</time>
      </trkpt>
      <trkpt lat="45.23932" lon="5.8981">
        <ele>476.67</ele>
        <time>2019-05-04T12:14:15.000Z</time>
      </trkpt>
      <trkpt lat="45.23943" lon="5.89831">
        <ele>478.71</ele>
        <time>2019-05-04T12:14:20.000Z</time>
      </trkpt>
      <trkpt lat="45.23953" lon="5.89851">
        <ele>485.48</ele>
        <time>2019-05-04T12:14:25.000Z</time>
      </trkpt>
      <trkpt lat="45.23965" lon="5.89874">
        <ele>487.81</ele>
        <time>2019-05-04T12:14:30.000Z</time>
      </trkpt>
      <trkpt lat="45.23975" lon="5.89898">
        <ele>492.16</ele>
        <time>2019-05-04T12:14:35.000Z</time>
      </trkpt>
      <trkpt lat="45.23985" lon="5.89919">
        <ele>497.38</ele>
        <time>2019-05-04T12:14:40.000Z</time>
      </trkpt>
      <trkpt lat="45.23999" lon="5.8994">
        <ele>498.41</ele>
        <time>2019-05-04T12:14:45.000Z</time>
      </trkpt>
      <trkpt lat="45.24013" lon="5.89959">
        <ele>498.05</ele>
        <time>2019-05-04T12:14:50.000Z</time>
      </trkpt>
      <trkpt lat="45.24031" lon="5.89976">
        <ele>500.35</ele>
        <time>2019-05-04T12:14:55.000Z</time>
      </trkpt>
      <trkpt lat="45.24045" lon="5.89989">
        <ele>502.09</ele>
        <time>2019-05-04T12:15:00.000Z</time>
      </trkpt>
      <trkpt lat="45.24061" lon="5.90006">
        <ele>506.48</ele>
        <time>2019-05-04T12:15:05.000Z</time>
      </trkpt>
      <trkpt lat="45.24078" lon="5.90022">
        <ele>510.23</ele>
        <time>2019-05-04T12:15:10.000Z</time>
      </trkpt>
      <trkpt lat="45.24095" lon="5.90037">
        <ele>513.43</ele>
        <time>2019-05-04T12:15:15.000Z</time>
      </trkpt>
      <trkpt lat="45.24109" lon="5.90055">
        <ele>514.25</ele>
        <time>2019-05-04T12:15:20.000Z</time>
      </trkpt>
      <trkpt lat="45.24113" lon="5.90079">
        <ele>513.63</ele>
        <time>2019-05-04T12:15:25.000Z</time>
      </trkpt>
      <trkpt lat="45.24098" lon="5.90092">
        <ele>515.12</ele>
        <time>2019-05-04T12:15:30.000Z</time>
      </trkpt>
      <trkpt lat="45.24082" lon="5.90103">
        <ele>515.15</ele>
        <time>2019-05-04T12:15:35.000Z</time>
      </trkpt>
      <trkpt lat="45.24061" lon="5.90125">
        <ele>519.89</ele>
        <time>2019-05-04T12:15:40.000Z</time>
      </trkpt>
      <trkpt lat="45.24045" lon="5.90146">
        <ele>521.15</ele>
        <time>2019-05-04T12:15:45.000Z</time>
      </trkpt>
      <trkpt lat="45.24039" lon="5.90176">
        <ele>520.95</ele>
        <time>2019-05-04T12:15:50.000Z</time>
      </trkpt>
      <trkpt lat="45.24038" lon="5.90198">
        <ele>523.83</ele>
        <time>2019-05-04T12:15:55.000Z</time>
      </trkpt>
      <trkpt lat="45.24032" lon="5.90219">
        <ele>526.14</ele>
        <time>2019-05-04T12:16:00.000Z</time>
      </trkpt>
      <trkpt lat="45.24026" lon="5.90236">
        <ele>524.61</ele>
        <time>2019-05-04T12:16:05.000Z</time>
      </trkpt>
      <trkpt lat="45.24017" lon="5.90251">
        <ele>525.33</ele>
        <time>2019-05-04T12:16:10.000Z</time>
      </trkpt>
      <trkpt lat="45.24" lon="5.90271">
        <ele>525.92</ele>
        <time>2019-05-04T12:16:15.000Z</time>
      </trkpt>
      <trkpt lat="45.23982" lon="5.90288">
        <ele>526.33</ele>
        <time>2019-05-04T12:16:20.000Z</time>
      </trkpt>
      <trkpt lat="45.23964" lon="5.90302">
        <ele>530.19</ele>
        <time>2019-05-04T12:16:25.000Z</time>
      </trkpt>
      <trkpt lat="45.23948" lon="5.90313">
        <ele>530.7</ele>
        <time>2019-05-04T12:16:30.000Z</time>
      </trkpt>
      <trkpt lat="45.23934" lon="5.90325">
        <ele>534.39</ele>
        <time>2019-05-04T12:16:35.000Z</time>
      </trkpt>
      <trkpt lat="45.23919" lon="5.90338">
        <ele>538.35</ele>
        <time>2019-05-04T12:16:40.000Z</time>
      </trkpt>
      <trkpt lat="45.23903" lon="5.90346">
        <ele>541.54</ele>
        <time>2019-05-04T12:16:45.000Z</time>
      </trkpt>
      <trkpt lat="45.23883" lon="5.90362">
        <ele>546.79</ele>
        <time>2019-05-04T12:16:50.000Z</time>
      </trkpt>
      <trkpt lat="45.23864" lon="5.90375">
        <ele>550.57</ele>
        <time>2019-05-04T12:16:55.000Z</time>
      </trkpt>
      <trkpt lat="45.23845" lon="5.90382">
        <ele>550.27</ele>
        <time>2019-05-04T12:17:00.000Z</time>
      </trkpt>
      <trkpt lat="45.2383" lon="5.9039">
        <ele>552.38</ele>
        <time>2019-05-04T12:17:05.000Z</time>
      </trkpt>
      <trkpt lat="45.23819" lon="5.90405">
        <ele>551.49</ele>
        <time>2019-05-04T12:17:10.000Z</time>
      </trkpt>
      <trkpt lat="45.2381" lon="5.90423">
        <ele>552.03</ele>
        <time>2019-05-04T12:17:15.000Z</time>
      </trkpt>
      <trkpt lat="45.23799" lon="5.90443">
        <ele>552.14</ele>
        <time>2019-05-04T12:17:20.000Z</time>
      </trkpt>
      <trkpt lat="45.23793" lon="5.90464">
        <ele>553.06</ele>
        <time>2019-05-04T12:17:25.000Z</time>
      </trkpt>
      <trkpt lat="45.23792" lon="5.90478">
        <ele>557.15</ele>
        <time>2019-05-04T12:17:35.000Z</time>
      </trkpt>
      <trkpt lat="45.23788" lon="5.90492">
        <ele>561.41</ele>
        <time>2019-05-04T12:21:51.000Z</time>
      </trkpt>
      <trkpt lat="45.23784" lon="5.90512">
        <ele>563.92</ele>
        <time>2019-05-04T12:21:56.000Z</time>
      </trkpt>
      <trkpt lat="45.23775" lon="5.90535">
        <ele>562.86</ele>
        <time>2019-05-04T12:22:01.000Z</time>
      </trkpt>
      <trkpt lat="45.23764" lon="5.90553">
        <ele>563.85</ele>
        <time>2019-05-04T12:22:06.000Z</time>
      </trkpt>
      <trkpt lat="45.23757" lon="5.90574">
        <ele>564.61</ele>
        <time>2019-05-04T12:22:11.000Z</time>
      </trkpt>
      <trkpt lat="45.23758" lon="5.90603">
        <ele>569.12</ele>
        <time>2019-05-04T12:22:16.000Z</time>
      </trkpt>
      <trkpt lat="45.23758" lon="5.90632">
        <ele>571.45</ele>
        <time>2019-05-04T12:22:21.000Z</time>
      </trkpt>
      <trkpt lat="45.23753" lon="5.90656">
        <ele>570.29</ele>
        <time>2019-05-04T12:22:26.000Z</time>
      </trkpt>
      <trkpt lat="45.23745" lon="5.90677">
        <ele>570.06</ele>
        <time>2019-05-04T12:22:31.000Z</time>
      </trkpt>
      <trkpt lat="45.23735" lon="5.90696">
        <ele>570.43</ele>
        <time>2019-05-04T12:22:36.000Z</time>
      </trkpt>
      <trkpt lat="45.23707" lon="5.90747">
        <ele>571.28</ele>
        <time>2019-05-04T12:22:41.000Z</time>
      </trkpt>
      <trkpt lat="45.23699" lon="5.90771">
        <ele>570.5</ele>
        <time>2019-05-04T12:22:46.000Z</time>
      </trkpt>
      <trkpt lat="45.23693" lon="5.90793">
        <ele>577.02</ele>
        <time>2019-05-04T12:22:51.000Z</time>
      </trkpt>
      <trkpt lat="45.23685" lon="5.90815">
        <ele>576.82</ele>
        <time>2019-05-04T12:22:56.000Z</time>
      </trkpt>
      <trkpt lat="45.23675" lon="5.90831">
        <ele>583.43</ele>
        <time>2019-05-04T12:23:01.000Z</time>
      </trkpt>
      <trkpt lat="45.23662" lon="5.90842">
        <ele>582.88</ele>
        <time>2019-05-04T12:23:06.000Z</time>
      </trkpt>
      <trkpt lat="45.23649" lon="5.90855">
        <ele>582.87</ele>
        <time>2019-05-04T12:23:11.000Z</time>
      </trkpt>
      <trkpt lat="45.2364" lon="5.90871">
        <ele>588.88</ele>
        <time>2019-05-04T12:23:16.000Z</time>
      </trkpt>
      <trkpt lat="45.23629" lon="5.90894">
        <ele>590.18</ele>
        <time>2019-05-04T12:23:21.000Z</time>
      </trkpt>
      <trkpt lat="45.23619" lon="5.90917">
        <ele>592.77</ele>
        <time>2019-05-04T12:23:26.000Z</time>
      </trkpt>
      <trkpt lat="45.23609" lon="5.90938">
        <ele>596.24</ele>
        <time>2019-05-04T12:23:31.000Z</time>
      </trkpt>
      <trkpt lat="45.23596" lon="5.90956">
        <ele>598.09</ele>
        <time>2019-05-04T12:23:36.000Z</time>
      </trkpt>
      <trkpt lat="45.23579" lon="5.90977">
        <ele>598.52</ele>
        <time>2019-05-04T12:23:41.000Z</time>
      </trkpt>
      <trkpt lat="45.23563" lon="5.90992">
        <ele>599.49</ele>
        <time>2019-05-04T12:23:46.000Z</time>
      </trkpt>
      <trkpt lat="45.23546" lon="5.91006">
        <ele>599.12</ele>
        <time>2019-05-04T12:23:51.000Z</time>
      </trkpt>
      <trkpt lat="45.23534" lon="5.9102">
        <ele>602.12</ele>
        <time>2019-05-04T12:23:56.000Z</time>
      </trkpt>
      <trkpt lat="45.23525" lon="5.9104">
        <ele>603.88</ele>
        <time>2019-05-04T12:24:01.000Z</time>
      </trkpt>
      <trkpt lat="45.23513" lon="5.91061">
        <ele>606.55</ele>
        <time>2019-05-04T12:24:06.000Z</time>
      </trkpt>
      <trkpt lat="45.23501" lon="5.91082">
        <ele>612.63</ele>
        <time>2019-05-04T12:24:11.000Z</time>
      </trkpt>
      <trkpt lat="45.23485" lon="5.91106">
        <ele>612.17</ele>
        <time>2019-05-04T12:24:16.000Z</time>
      </trkpt>
      <trkpt lat="45.23467" lon="5.91136">
        <ele>613.38</ele>
        <time>2019-05-04T12:24:21.000Z</time>
      </trkpt>
      <trkpt lat="45.23457" lon="5.91157">
        <ele>618.49</ele>
        <time>2019-05-04T12:24:26.000Z</time>
      </trkpt>
      <trkpt lat="45.23438" lon="5.91162">
        <ele>616.37</ele>
        <time>2019-05-04T12:24:31.000Z</time>
      </trkpt>
      <trkpt lat="45.23419" lon="5.91163">
        <ele>616.3</ele>
        <time>2019-05-04T12:24:36.000Z</time>
      </trkpt>
      <trkpt lat="45.23399" lon="5.91171">
        <ele>617.71</ele>
        <time>2019-05-04T12:24:41.000Z</time>
      </trkpt>
      <trkpt lat="45.23389" lon="5.91195">
        <ele>618.99</ele>
        <time>2019-05-04T12:24:46.000Z</time>
      </trkpt>
      <trkpt lat="45.23394" lon="5.91223">
        <ele>623.19</ele>
        <time>2019-05-04T12:24:51.000Z</time>
      </trkpt>
      <trkpt lat="45.23392" lon="5.91249">
        <ele>627.17</ele>
        <time>2019-05-04T12:24:56.000Z</time>
      </trkpt>
      <trkpt lat="45.23383" lon="5.91272">
        <ele>629.77</ele>
        <time>2019-05-04T12:25:01.000Z</time>
      </trkpt>
      <trkpt lat="45.2337" lon="5.91295">
        <ele>629.25</ele>
        <time>2019-05-04T12:25:06.000Z</time>
      </trkpt>
      <trkpt lat="45.23358" lon="5.91315">
        <ele>631.24</ele>
        <time>2019-05-04T12:25:11.000Z</time>
      </trkpt>
      <trkpt lat="45.23347" lon="5.91335">
        <ele>634.13</ele>
        <time>2019-05-04T12:25:16.000Z</time>
      </trkpt>
      <trkpt lat="45.23335" lon="5.91356">
        <ele>632.62</ele>
        <time>2019-05-04T12:25:21.000Z</time>
      </trkpt>
      <trkpt lat="45.23323" lon="5.91373">
        <ele>634.67</ele>
        <time>2019-05-04T12:25:26.000Z</time>
      </trkpt>
      <trkpt lat="45.23307" lon="5.91387">
        <ele>636.2</ele>
        <time>2019-05-04T12:25:31.000Z</time>
      </trkpt>
      <trkpt lat="45.23284" lon="5.91385">
        <ele>636.19</ele>
        <time>2019-05-04T12:25:36.000Z</time>
      </trkpt>
      <trkpt lat="45.23267" lon="5.91377">
        <ele>635.83</ele>
        <time>2019-05-04T12:25:41.000Z</time>
      </trkpt>
      <trkpt lat="45.23251" lon="5.91371">
        <ele>636.56</ele>
        <time>2019-05-04T12:25:46.000Z</time>
      </trkpt>
      <trkpt lat="45.23232" lon="5.91379">
        <ele>637.25</ele>
        <time>2019-05-04T12:25:51.000Z</time>
      </trkpt>
      <trkpt lat="45.23212" lon="5.9138">
        <ele>639.32</ele>
        <time>2019-05-04T12:25:56.000Z</time>
      </trkpt>
      <trkpt lat="45.23191" lon="5.9138">
        <ele>640.41</ele>
        <time>2019-05-04T12:26:01.000Z</time>
      </trkpt>
      <trkpt lat="45.23174" lon="5.91387">
        <ele>642.97</ele>
        <time>2019-05-04T12:26:06.000Z</time>
      </trkpt>
      <trkpt lat="45.23158" lon="5.91405">
        <ele>639.9</ele>
        <time>2019-05-04T12:26:11.000Z</time>
      </trkpt>
      <trkpt lat="45.23141" lon="5.9141">
        <ele>640.57</ele>
        <time>2019-05-04T12:26:16.000Z</time>
      </trkpt>
      <trkpt lat="45.23121" lon="5.91415">
        <ele>640.16</ele>
        <time>2019-05-04T12:26:21.000Z</time>
      </trkpt>
      <trkpt lat="45.23103" lon="5.91431">
        <ele>640.69</ele>
        <time>2019-05-04T12:26:26.000Z</time>
      </trkpt>
      <trkpt lat="45.23094" lon="5.91455">
        <ele>643.37</ele>
        <time>2019-05-04T12:26:31.000Z</time>
      </trkpt>
      <trkpt lat="45.23089" lon="5.91485">
        <ele>646.82</ele>
        <time>2019-05-04T12:26:36.000Z</time>
      </trkpt>
      <trkpt lat="45.23087" lon="5.91527">
        <ele>653.22</ele>
        <time>2019-05-04T12:26:41.000Z</time>
      </trkpt>
      <trkpt lat="45.23097" lon="5.91555">
        <ele>658.31</ele>
        <time>2019-05-04T12:26:46.000Z</time>
      </trkpt>
      <trkpt lat="45.23102" lon="5.91576">
        <ele>657.85</ele>
        <time>2019-05-04T12:26:51.000Z</time>
      </trkpt>
      <trkpt lat="45.23112" lon="5.91601">
        <ele>659.77</ele>
        <time>2019-05-04T12:26:56.000Z</time>
      </trkpt>
      <trkpt lat="45.23116" lon="5.9163">
        <ele>660.3</ele>
        <time>2019-05-04T12:27:01.000Z</time>
      </trkpt>
      <trkpt lat="45.23121" lon="5.91658">
        <ele>663.3</ele>
        <time>2019-05-04T12:27:06.000Z</time>
      </trkpt>
      <trkpt lat="45.23116" lon="5.91687">
        <ele>659.07</ele>
        <time>2019-05-04T12:27:11.000Z</time>
      </trkpt>
      <trkpt lat="45.23104" lon="5.91711">
        <ele>657.42</ele>
        <time>2019-05-04T12:27:16.000Z</time>
      </trkpt>
      <trkpt lat="45.23093" lon="5.91732">
        <ele>658.97</ele>
        <time>2019-05-04T12:27:21.000Z</time>
      </trkpt>
      <trkpt lat="45.23085" lon="5.91747">
        <ele>655.46</ele>
        <time>2019-05-04T12:27:26.000Z</time>
      </trkpt>
      <trkpt lat="45.23076" lon="5.91775">
        <ele>658.24</ele>
        <time>2019-05-04T12:27:31.000Z</time>
      </trkpt>
      <trkpt lat="45.23067" lon="5.91803">
        <ele>659.7</ele>
        <time>2019-05-04T12:27:36.000Z</time>
      </trkpt>
      <trkpt lat="45.2306" lon="5.91824">
        <ele>664.23</ele>
        <time>2019-05-04T12:27:41.000Z</time>
      </trkpt>
      <trkpt lat="45.23054" lon="5.91847">
        <ele>666.17</ele>
        <time>2019-05-04T12:27:46.000Z</time>
      </trkpt>
      <trkpt lat="45.23041" lon="5.91879">
        <ele>667.03</ele>
        <time>2019-05-04T12:27:51.000Z</time>
      </trkpt>
      <trkpt lat="45.2303" lon="5.91916">
        <ele>669.74</ele>
        <time>2019-05-04T12:27:56.000Z</time>
      </trkpt>
      <trkpt lat="45.2302" lon="5.9194">
        <ele>675.82</ele>
        <time>2019-05-04T12:28:01.000Z</time>
      </trkpt>
      <trkpt lat="45.23021" lon="5.91958">
        <ele>677.98</ele>
        <time>2019-05-04T12:28:06.000Z</time>
      </trkpt>
      <trkpt lat="45.23015" lon="5.9198">
        <ele>679.01</ele>
        <time>2019-05-04T12:28:11.000Z</time>
      </trkpt>
      <trkpt lat="45.22982" lon="5.91997">
        <ele>678.43</ele>
        <time>2019-05-04T12:28:16.000Z</time>
      </trkpt>
      <trkpt lat="45.22973" lon="5.9201">
        <ele>681.65</ele>
        <time>2019-05-04T12:28:22.000Z</time>
      </trkpt>
      <trkpt lat="45.22959" lon="5.92037">
        <ele>687.59</ele>
        <time>2019-05-04T12:28:27.000Z</time>
      </trkpt>
      <trkpt lat="45.22941" lon="5.92049">
        <ele>687.46</ele>
        <time>2019-05-04T12:28:32.000Z</time>
      </trkpt>
      <trkpt lat="45.22915" lon="5.92056">
        <ele>682.99</ele>
        <time>2019-05-04T12:28:37.000Z</time>
      </trkpt>
      <trkpt lat="45.22895" lon="5.92056">
        <ele>685.22</ele>
        <time>2019-05-04T12:28:42.000Z</time>
      </trkpt>
      <trkpt lat="45.22875" lon="5.92052">
        <ele>687.43</ele>
        <time>2019-05-04T12:28:47.000Z</time>
      </trkpt>
      <trkpt lat="45.22859" lon="5.92047">
        <ele>689.21</ele>
        <time>2019-05-04T12:28:52.000Z</time>
      </trkpt>
      <trkpt lat="45.22842" lon="5.92049">
        <ele>693.1</ele>
        <time>2019-05-04T12:28:57.000Z</time>
      </trkpt>
      <trkpt lat="45.22831" lon="5.92071">
        <ele>694.32</ele>
        <time>2019-05-04T12:29:02.000Z</time>
      </trkpt>
      <trkpt lat="45.22836" lon="5.92103">
        <ele>695.42</ele>
        <time>2019-05-04T12:29:07.000Z</time>
      </trkpt>
      <trkpt lat="45.22837" lon="5.92133">
        <ele>700.77</ele>
        <time>2019-05-04T12:29:12.000Z</time>
      </trkpt>
      <trkpt lat="45.22824" lon="5.92155">
        <ele>704.56</ele>
        <time>2019-05-04T12:29:17.000Z</time>
      </trkpt>
      <trkpt lat="45.22803" lon="5.92181">
        <ele>705.28</ele>
        <time>2019-05-04T12:29:22.000Z</time>
      </trkpt>
      <trkpt lat="45.22791" lon="5.92196">
        <ele>704.41</ele>
        <time>2019-05-04T12:29:27.000Z</time>
      </trkpt>
      <trkpt lat="45.22778" lon="5.92217">
        <ele>706.57</ele>
        <time>2019-05-04T12:29:32.000Z</time>
      </trkpt>
      <trkpt lat="45.22767" lon="5.92243">
        <ele>707.24</ele>
        <time>2019-05-04T12:29:37.000Z</time>
      </trkpt>
      <trkpt lat="45.22756" lon="5.92258">
        <ele>710.21</ele>
        <time>2019-05-04T12:29:42.000Z</time>
      </trkpt>
      <trkpt lat="45.22748" lon="5.92279">
        <ele>715.64</ele>
        <time>2019-05-04T12:29:47.000Z</time>
      </trkpt>
      <trkpt lat="45.22737" lon="5.92303">
        <ele>718.72</ele>
        <time>2019-05-04T12:29:52.000Z</time>
      </trkpt>
      <trkpt lat="45.22727" lon="5.92321">
        <ele>719.93</ele>
        <time>2019-05-04T12:29:57.000Z</time>
      </trkpt>
      <trkpt lat="45.22715" lon="5.92319">
        <ele>713.28</ele>
        <time>2019-05-04T12:30:02.000Z</time>
      </trkpt>
      <trkpt lat="45.2272" lon="5.92294">
        <ele>713.38</ele>
        <time>2019-05-04T12:30:07.000Z</time>
      </trkpt>
      <trkpt lat="45.2272" lon="5.92265">
        <ele>710.96</ele>
        <time>2019-05-04T12:30:12.000Z</time>
      </trkpt>
      <trkpt lat="45.22717" lon="5.92236">
        <ele>708.9</ele>
        <time>2019-05-04T12:30:17.000Z</time>
      </trkpt>
      <trkpt lat="45.22717" lon="5.92208">
        <ele>709.85</ele>
        <time>2019-05-04T12:30:22.000Z</time>
      </trkpt>
      <trkpt lat="45.22724" lon="5.92185">
        <ele>713.55</ele>
        <time>2019-05-04T12:30:27.000Z</time>
      </trkpt>
      <trkpt lat="45.2273" lon="5.92162">
        <ele>717.05</ele>
        <time>2019-05-04T12:30:32.000Z</time>
      </trkpt>
      <trkpt lat="45.22745" lon="5.92123">
        <ele>719.63</ele>
        <time>2019-05-04T12:30:37.000Z</time>
      </trkpt>
      <trkpt lat="45.2276" lon="5.92098">
        <ele>720.21</ele>
        <time>2019-05-04T12:30:42.000Z</time>
      </trkpt>
      <trkpt lat="45.22767" lon="5.92074">
        <ele>722.86</ele>
        <time>2019-05-04T12:30:47.000Z</time>
      </trkpt>
      <trkpt lat="45.22773" lon="5.92052">
        <ele>719.3</ele>
        <time>2019-05-04T12:30:52.000Z</time>
      </trkpt>
      <trkpt lat="45.22775" lon="5.92025">
        <ele>715.85</ele>
        <time>2019-05-04T12:30:57.000Z</time>
      </trkpt>
      <trkpt lat="45.22773" lon="5.92007">
        <ele>722.59</ele>
        <time>2019-05-04T12:31:02.000Z</time>
      </trkpt>
      <trkpt lat="45.22766" lon="5.91991">
        <ele>724.82</ele>
        <time>2019-05-04T12:31:07.000Z</time>
      </trkpt>
      <trkpt lat="45.22766" lon="5.91969">
        <ele>725.02</ele>
        <time>2019-05-04T12:31:12.000Z</time>
      </trkpt>
      <trkpt lat="45.2277" lon="5.91951">
        <ele>731.1</ele>
        <time>2019-05-04T12:31:17.000Z</time>
      </trkpt>
      <trkpt lat="45.22788" lon="5.91946">
        <ele>727.55</ele>
        <time>2019-05-04T12:31:22.000Z</time>
      </trkpt>
      <trkpt lat="45.22803" lon="5.91939">
        <ele>727.12</ele>
        <time>2019-05-04T12:31:27.000Z</time>
      </trkpt>
      <trkpt lat="45.22821" lon="5.9193">
        <ele>727.32</ele>
        <time>2019-05-04T12:31:32.000Z</time>
      </trkpt>
      <trkpt lat="45.22835" lon="5.91922">
        <ele>725.74</ele>
        <time>2019-05-04T12:31:37.000Z</time>
      </trkpt>
      <trkpt lat="45.22849" lon="5.91911">
        <ele>726.04</ele>
        <time>2019-05-04T12:31:42.000Z</time>
      </trkpt>
      <trkpt lat="45.22863" lon="5.91901">
        <ele>730.09</ele>
        <time>2019-05-04T12:31:47.000Z</time>
      </trkpt>
      <trkpt lat="45.22876" lon="5.9189">
        <ele>732.02</ele>
        <time>2019-05-04T12:31:52.000Z</time>
      </trkpt>
      <trkpt lat="45.22889" lon="5.91872">
        <ele>735.9</ele>
        <time>2019-05-04T12:31:57.000Z</time>
      </trkpt>
      <trkpt lat="45.22898" lon="5.9186">
        <ele>736.07</ele>
        <time>2019-05-04T12:32:02.000Z</time>
      </trkpt>
      <trkpt lat="45.22906" lon="5.91853">
        <ele>738.5</ele>
        <time>2019-05-04T12:32:07.000Z</time>
      </trkpt>
      <trkpt lat="45.22898" lon="5.91856">
        <ele>742.68</ele>
        <time>2019-05-04T12:33:21.000Z</time>
      </trkpt>
      <trkpt lat="45.22903" lon="5.91845">
        <ele>745.34</ele>
        <time>2019-05-04T12:33:42.000Z</time>
      </trkpt>
      <trkpt lat="45.22905" lon="5.91857">
        <ele>748.72</ele>
        <time>2019-05-04T12:34:06.000Z</time>
      </trkpt>
      <trkpt lat="45.22913" lon="5.91845">
        <ele>750.23</ele>
        <time>2019-05-04T12:34:32.000Z</time>
      </trkpt>
      <trkpt lat="45.22927" lon="5.91824">
        <ele>756.44</ele>
        <time>2019-05-04T12:34:37.000Z</time>
      </trkpt>
      <trkpt lat="45.2294" lon="5.91801">
        <ele>755.93</ele>
        <time>2019-05-04T12:34:42.000Z</time>
      </trkpt>
      <trkpt lat="45.22962" lon="5.91771">
        <ele>756.4</ele>
        <time>2019-05-04T12:34:47.000Z</time>
      </trkpt>
      <trkpt lat="45.22965" lon="5.91746">
        <ele>750.6</ele>
        <time>2019-05-04T12:34:52.000Z</time>
      </trkpt>
      <trkpt lat="45.22969" lon="5.91717">
        <ele>752.01</ele>
        <time>2019-05-04T12:34:57.000Z</time>
      </trkpt>
      <trkpt lat="45.22977" lon="5.91686">
        <ele>754.75</ele>
        <time>2019-05-04T12:35:02.000Z</time>
      </trkpt>
      <trkpt lat="45.22978" lon="5.91661">
        <ele>754.27</ele>
        <time>2019-05-04T12:35:07.000Z</time>
      </trkpt>
      <trkpt lat="45.22974" lon="5.9163">
        <ele>752.91</ele>
        <time>2019-05-04T12:35:12.000Z</time>
      </trkpt>
      <trkpt lat="45.22972" lon="5.91594">
        <ele>750.87</ele>
        <time>2019-05-04T12:35:17.000Z</time>
      </trkpt>
      <trkpt lat="45.22961" lon="5.91568">
        <ele>751.11</ele>
        <time>2019-05-04T12:35:22.000Z</time>
      </trkpt>
      <trkpt lat="45.22949" lon="5.91544">
        <ele>752.02</ele>
        <time>2019-05-04T12:35:27.000Z</time>
      </trkpt>
      <trkpt lat="45.2295" lon="5.91506">
        <ele>755.04</ele>
        <time>2019-05-04T12:35:32.000Z</time>
      </trkpt>
      <trkpt lat="45.22955" lon="5.91461">
        <ele>757.44</ele>
        <time>2019-05-04T12:35:37.000Z</time>
      </trkpt>
      <trkpt lat="45.22964" lon="5.91424">
        <ele>756.26</ele>
        <time>2019-05-04T12:35:42.000Z</time>
      </trkpt>
      <trkpt lat="45.22976" lon="5.91396">
        <ele>753.9</ele>
        <time>2019-05-04T12:35:47.000Z</time>
      </trkpt>
      <trkpt lat="45.22979" lon="5.91367">
        <ele>751.26</ele>
        <time>2019-05-04T12:35:52.000Z</time>
      </trkpt>
      <trkpt lat="45.22997" lon="5.91336">
        <ele>750.46</ele>
        <time>2019-05-04T12:35:57.000Z</time>
      </trkpt>
      <trkpt lat="45.23023" lon="5.91302">
        <ele>751.36</ele>
        <time>2019-05-04T12:36:02.000Z</time>
      </trkpt>
      <trkpt lat="45.23052" lon="5.91269">
        <ele>755.44</ele>
        <time>2019-05-04T12:36:07.000Z</time>
      </trkpt>
      <trkpt lat="45.23097" lon="5.91236">
        <ele>756.39</ele>
        <time>2019-05-04T12:36:12.000Z</time>
      </trkpt>
      <trkpt lat="45.23135" lon="5.91212">
        <ele>756.14</ele>
        <time>2019-05-04T12:36:17.000Z</time>
      </trkpt>
      <trkpt lat="45.23185" lon="5.91183">
        <ele>754.2</ele>
        <time>2019-05-04T12:36:22.000Z</time>
      </trkpt>
      <trkpt lat="45.23212" lon="5.91111">
        <ele>749.09</ele>
        <time>2019-05-04T12:36:27.000Z</time>
      </trkpt>
      <trkpt lat="45.23244" lon="5.91048">
        <ele>741.66</ele>
        <time>2019-05-04T12:36:32.000Z</time>
      </trkpt>
      <trkpt lat="45.23296" lon="5.9099">
        <ele>736.36</ele>
        <time>2019-05-04T12:36:37.000Z</time>
      </trkpt>
      <trkpt lat="45.23337" lon="5.90916">
        <ele>733.31</ele>
        <time>2019-05-04T12:36:42.000Z</time>
      </trkpt>
      <trkpt lat="45.2337" lon="5.90828">
        <ele>726.97</ele>
        <time>2019-05-04T12:36:47.000Z</time>
      </trkpt>
      <trkpt lat="45.234" lon="5.90747">
        <ele>722.74</ele>
        <time>2019-05-04T12:36:52.000Z</time>
      </trkpt>
      <trkpt lat="45.2343" lon="5.90667">
        <ele>713.5</ele>
        <time>2019-05-04T12:36:57.000Z</time>
      </trkpt>
      <trkpt lat="45.23453" lon="5.90592">
        <ele>710.42</ele>
        <time>2019-05-04T12:37:02.000Z</time>
      </trkpt>
      <trkpt lat="45.23471" lon="5.90523">
        <ele>709.78</ele>
        <time>2019-05-04T12:37:07.000Z</time>
      </trkpt>
      <trkpt lat="45.23479" lon="5.90466">
        <ele>710.36</ele>
        <time>2019-05-04T12:37:12.000Z</time>
      </trkpt>
      <trkpt lat="45.23488" lon="5.90414">
        <ele>711.05</ele>
        <time>2019-05-04T12:37:17.000Z</time>
      </trkpt>
      <trkpt lat="45.23497" lon="5.90364">
        <ele>710.25</ele>
        <time>2019-05-04T12:37:22.000Z</time>
      </trkpt>
      <trkpt lat="45.23495" lon="5.90315">
        <ele>708.62</ele>
        <time>2019-05-04T12:37:27.000Z</time>
      </trkpt>
      <trkpt lat="45.23474" lon="5.90273">
        <ele>706.26</ele>
        <time>2019-05-04T12:37:32.000Z</time>
      </trkpt>
      <trkpt lat="45.23455" lon="5.90251">
        <ele>702.42</ele>
        <time>2019-05-04T12:37:37.000Z</time>
      </trkpt>
      <trkpt lat="45.23446" lon="5.90247">
        <ele>700.8</ele>
        <time>2019-05-04T12:39:46.000Z</time>
      </trkpt>
      <trkpt lat="45.23436" lon="5.9025">
        <ele>699.94</ele>
        <time>2019-05-04T12:39:57.000Z</time>
      </trkpt>
      <trkpt lat="45.23418" lon="5.90256">
        <ele>698.14</ele>
        <time>2019-05-04T12:40:02.000Z</time>
      </trkpt>
      <trkpt lat="45.2339" lon="5.90267">
        <ele>696.02</ele>
        <time>2019-05-04T12:40:07.000Z</time>
      </trkpt>
      <trkpt lat="45.23355" lon="5.90287">
        <ele>695.22</ele>
        <time>2019-05-04T12:40:12.000Z</time>
      </trkpt>
      <trkpt lat="45.23316" lon="5.90307">
        <ele>691.28</ele>
        <time>2019-05-04T12:40:17.000Z</time>
      </trkpt>
      <trkpt lat="45.23269" lon="5.90332">
        <ele>688.31</ele>
        <time>2019-05-04T12:40:22.000Z</time>
      </trkpt>
      <trkpt lat="45.23221" lon="5.90327">
        <ele>686.16</ele>
        <time>2019-05-04T12:40:27.000Z</time>
      </trkpt>
      <trkpt lat="45.23179" lon="5.90329">
        <ele>686.93</ele>
        <time>2019-05-04T12:40:32.000Z</time>
      </trkpt>
      <trkpt lat="45.23141" lon="5.90318">
        <ele>685.68</ele>
        <time>2019-05-04T12:40:37.000Z</time>
      </trkpt>
      <trkpt lat="45.23094" lon="5.90321">
        <ele>687.91</ele>
        <time>2019-05-04T12:40:42.000Z</time>
      </trkpt>
      <trkpt lat="45.23056" lon="5.90328">
        <ele>687.9</ele>
        <time>2019-05-04T12:40:47.000Z</time>
      </trkpt>
      <trkpt lat="45.23018" lon="5.90334">
        <ele>686.88</ele>
        <time>2019-05-04T12:40:52.000Z</time>
      </trkpt>
      <trkpt lat="45.22984" lon="5.90347">
        <ele>689.27</ele>
        <time>2019-05-04T12:40:57.000Z</time>
      </trkpt>
      <trkpt lat="45.22957" lon="5.90364">
        <ele>684.45</ele>
        <time>2019-05-04T12:41:02.000Z</time>
      </trkpt>
      <trkpt lat="45.22936" lon="5.9034">
        <ele>682.77</ele>
        <time>2019-05-04T12:41:07.000Z</time>
      </trkpt>
      <trkpt lat="45.22927" lon="5.90312">
        <ele>684.48</ele>
        <time>2019-05-04T12:41:12.000Z</time>
      </trkpt>
      <trkpt lat="45.22907" lon="5.90292">
        <ele>682.96</ele>
        <time>2019-05-04T12:41:17.000Z</time>
      </trkpt>
      <trkpt lat="45.22888" lon="5.90276">
        <ele>686.26</ele>
        <time>2019-05-04T12:41:22.000Z</time>
      </trkpt>
      <trkpt lat="45.22872" lon="5.90261">
        <ele>687.11</ele>
        <time>2019-05-04T12:41:27.000Z</time>
      </trkpt>
      <trkpt lat="45.22848" lon="5.90247">
        <ele>690.17</ele>
        <time>2019-05-04T12:41:32.000Z</time>
      </trkpt>
      <trkpt lat="45.22828" lon="5.90239">
        <ele>690.06</ele>
        <time>2019-05-04T12:41:37.000Z</time>
      </trkpt>
      <trkpt lat="45.22805" lon="5.90237">
        <ele>689.01</ele>
        <time>2019-05-04T12:41:42.000Z</time>
      </trkpt>
      <trkpt lat="45.22779" lon="5.9024">
        <ele>688.92</ele>
        <time>2019-05-04T12:41:47.000Z</time>
      </trkpt>
      <trkpt lat="45.22756" lon="5.90241">
        <ele>688.08</ele>
        <time>2019-05-04T12:41:52.000Z</time>
      </trkpt>
      <trkpt lat="45.22737" lon="5.90243">
        <ele>688.48</ele>
        <time>2019-05-04T12:41:57.000Z</time>
      </trkpt>
      <trkpt lat="45.22713" lon="5.90246">
        <ele>688.45</ele>
        <time>2019-05-04T12:42:02.000Z</time>
      </trkpt>
      <trkpt lat="45.22683" lon="5.90251">
        <ele>689.52</ele>
        <time>2019-05-04T12:42:07.000Z</time>
      </trkpt>
      <trkpt lat="45.22653" lon="5.90269">
        <ele>688.88</ele>
        <time>2019-05-04T12:42:12.000Z</time>
      </trkpt>
      <trkpt lat="45.22624" lon="5.90293">
        <ele>688.94</ele>
        <time>2019-05-04T12:42:17.000Z</time>
      </trkpt>
      <trkpt lat="45.2261" lon="5.90332">
        <ele>690.7</ele>
        <time>2019-05-04T12:42:22.000Z</time>
      </trkpt>
      <trkpt lat="45.22597" lon="5.90367">
        <ele>688.05</ele>
        <time>2019-05-04T12:42:27.000Z</time>
      </trkpt>
      <trkpt lat="45.22591" lon="5.90403">
        <ele>689.59</ele>
        <time>2019-05-04T12:42:32.000Z</time>
      </trkpt>
      <trkpt lat="45.22586" lon="5.90442">
        <ele>691.29</ele>
        <time>2019-05-04T12:42:37.000Z</time>
      </trkpt>
      <trkpt lat="45.22584" lon="5.90483">
        <ele>687.85</ele>
        <time>2019-05-04T12:42:42.000Z</time>
      </trkpt>
      <trkpt lat="45.22572" lon="5.90519">
        <ele>687.28</ele>
        <time>2019-05-04T12:42:47.000Z</time>
      </trkpt>
      <trkpt lat="45.22542" lon="5.90512">
        <ele>685.99</ele>
        <time>2019-05-04T12:42:52.000Z</time>
      </trkpt>
      <trkpt lat="45.2253" lon="5.9048">
        <ele>688.31</ele>
        <time>2019-05-04T12:42:57.000Z</time>
      </trkpt>
      <trkpt lat="45.2252" lon="5.90454">
        <ele>691.77</ele>
        <time>2019-05-04T12:43:02.000Z</time>
      </trkpt>
      <trkpt lat="45.22505" lon="5.90425">
        <ele>690.62</ele>
        <time>2019-05-04T12:43:07.000Z</time>
      </trkpt>
      <trkpt lat="45.22484" lon="5.90407">
        <ele>692.83</ele>
        <time>2019-05-04T12:43:12.000Z</time>
      </trkpt>
      <trkpt lat="45.22461" lon="5.9039">
        <ele>694.89</ele>
        <time>2019-05-04T12:43:17.000Z</time>
      </trkpt>
      <trkpt lat="45.2244" lon="5.90368">
        <ele>699.9</ele>
        <time>2019-05-04T12:43:22.000Z</time>
      </trkpt>
      <trkpt lat="45.22422" lon="5.90339">
        <ele>703.23</ele>
        <time>2019-05-04T12:43:27.000Z</time>
      </trkpt>
      <trkpt lat="45.22403" lon="5.90313">
        <ele>701.78</ele>
        <time>2019-05-04T12:43:32.000Z</time>
      </trkpt>
      <trkpt lat="45.22394" lon="5.90289">
        <ele>694.37</ele>
        <time>2019-05-04T12:43:37.000Z</time>
      </trkpt>
      <trkpt lat="45.22388" lon="5.90256">
        <ele>695.25</ele>
        <time>2019-05-04T12:43:42.000Z</time>
      </trkpt>
      <trkpt lat="45.22376" lon="5.90224">
        <ele>696.11</ele>
        <time>2019-05-04T12:43:47.000Z</time>
      </trkpt>
      <trkpt lat="45.22361" lon="5.90196">
        <ele>696.6</ele>
        <time>2019-05-04T12:43:52.000Z</time>
      </trkpt>
      <trkpt lat="45.22341" lon="5.90175">
        <ele>700.08</ele>
        <time>2019-05-04T12:43:57.000Z</time>
      </trkpt>
      <trkpt lat="45.22316" lon="5.90155">
        <ele>706.67</ele>
        <time>2019-05-04T12:44:02.000Z</time>
      </trkpt>
      <trkpt lat="45.22294" lon="5.90139">
        <ele>703.1</ele>
        <time>2019-05-04T12:44:07.000Z</time>
      </trkpt>
      <trkpt lat="45.22271" lon="5.90125">
        <ele>707.07</ele>
        <time>2019-05-04T12:44:12.000Z</time>
      </trkpt>
      <trkpt lat="45.22242" lon="5.90111">
        <ele>708.57</ele>
        <time>2019-05-04T12:44:17.000Z</time>
      </trkpt>
      <trkpt lat="45.22217" lon="5.90123">
        <ele>703.98</ele>
        <time>2019-05-04T12:44:22.000Z</time>
      </trkpt>
      <trkpt lat="45.22199" lon="5.90148">
        <ele>706.63</ele>
        <time>2019-05-04T12:44:27.000Z</time>
      </trkpt>
      <trkpt lat="45.22172" lon="5.90181">
        <ele>706.76</ele>
        <time>2019-05-04T12:44:32.000Z</time>
      </trkpt>
      <trkpt lat="45.22143" lon="5.90208">
        <ele>709.85</ele>
        <time>2019-05-04T12:44:37.000Z</time>
      </trkpt>
      <trkpt lat="45.22115" lon="5.9023">
        <ele>709.76</ele>
        <time>2019-05-04T12:44:42.000Z</time>
      </trkpt>
      <trkpt lat="45.22084" lon="5.9025">
        <ele>711.52</ele>
        <time>2019-05-04T12:44:47.000Z</time>
      </trkpt>
      <trkpt lat="45.22047" lon="5.90256">
        <ele>713.6</ele>
        <time>2019-05-04T12:44:52.000Z</time>
      </trkpt>
      <trkpt lat="45.22018" lon="5.90243">
        <ele>712.3</ele>
        <time>2019-05-04T12:44:57.000Z</time>
      </trkpt>
      <trkpt lat="45.21992" lon="5.90229">
        <ele>714.52</ele>
        <time>2019-05-04T12:45:02.000Z</time>
      </trkpt>
      <trkpt lat="45.21971" lon="5.90215">
        <ele>716.7</ele>
        <time>2019-05-04T12:45:07.000Z</time>
      </trkpt>
      <trkpt lat="45.21956" lon="5.90192">
        <ele>719.33</ele>
        <time>2019-05-04T12:45:12.000Z</time>
      </trkpt>
      <trkpt lat="45.21944" lon="5.90168">
        <ele>721.64</ele>
        <time>2019-05-04T12:45:17.000Z</time>
      </trkpt>
      <trkpt lat="45.21934" lon="5.90133">
        <ele>720.5</ele>
        <time>2019-05-04T12:45:22.000Z</time>
      </trkpt>
      <trkpt lat="45.21941" lon="5.90099">
        <ele>722.58</ele>
        <time>2019-05-04T12:45:27.000Z</time>
      </trkpt>
      <trkpt lat="45.21941" lon="5.90065">
        <ele>725.56</ele>
        <time>2019-05-04T12:45:32.000Z</time>
      </trkpt>
      <trkpt lat="45.21925" lon="5.90039">
        <ele>723.4</ele>
        <time>2019-05-04T12:45:37.000Z</time>
      </trkpt>
      <trkpt lat="45.21902" lon="5.90021">
        <ele>721.34</ele>
        <time>2019-05-04T12:45:42.000Z</time>
      </trkpt>
      <trkpt lat="45.21872" lon="5.90001">
        <ele>719.16</ele>
        <time>2019-05-04T12:45:47.000Z</time>
      </trkpt>
      <trkpt lat="45.2185" lon="5.89987">
        <ele>720.47</ele>
        <time>2019-05-04T12:45:52.000Z</time>
      </trkpt>
      <trkpt lat="45.2182" lon="5.89974">
        <ele>721.01</ele>
        <time>2019-05-04T12:45:57.000Z</time>
      </trkpt>
      <trkpt lat="45.21793" lon="5.89964">
        <ele>722.28</ele>
        <time>2019-05-04T12:46:02.000Z</time>
      </trkpt>
      <trkpt lat="45.21769" lon="5.8995">
        <ele>723.32</ele>
        <time>2019-05-04T12:46:07.000Z</time>
      </trkpt>
      <trkpt lat="45.21748" lon="5.89934">
        <ele>726.42</ele>
        <time>2019-05-04T12:46:12.000Z</time>
      </trkpt>
      <trkpt lat="45.21727" lon="5.89922">
        <ele>724.57</ele>
        <time>2019-05-04T12:46:17.000Z</time>
      </trkpt>
      <trkpt lat="45.21704" lon="5.899">
        <ele>727.8</ele>
        <time>2019-05-04T12:46:22.000Z</time>
      </trkpt>
      <trkpt lat="45.21683" lon="5.8988">
        <ele>723.95</ele>
        <time>2019-05-04T12:46:27.000Z</time>
      </trkpt>
      <trkpt lat="45.21658" lon="5.89859">
        <ele>726.55</ele>
        <time>2019-05-04T12:46:32.000Z</time>
      </trkpt>
      <trkpt lat="45.21632" lon="5.89842">
        <ele>723.77</ele>
        <time>2019-05-04T12:46:37.000Z</time>
      </trkpt>
      <trkpt lat="45.21606" lon="5.8982">
        <ele>727.18</ele>
        <time>2019-05-04T12:46:42.000Z</time>
      </trkpt>
      <trkpt lat="45.21579" lon="5.89799">
        <ele>728.84</ele>
        <time>2019-05-04T12:46:47.000Z</time>
      </trkpt>
      <trkpt lat="45.21551" lon="5.89783">
        <ele>729.53</ele>
        <time>2019-05-04T12:46:52.000Z</time>
      </trkpt>
      <trkpt lat="45.21522" lon="5.89763">
        <ele>731.69</ele>
        <time>2019-05-04T12:46:57.000Z</time>
      </trkpt>
      <trkpt lat="45.21493" lon="5.89745">
        <ele>735.02</ele>
        <time>2019-05-04T12:47:02.000Z</time>
      </trkpt>
      <trkpt lat="45.21467" lon="5.89732">
        <ele>737.95</ele>
        <time>2019-05-04T12:47:07.000Z</time>
      </trkpt>
      <trkpt lat="45.21438" lon="5.89726">
        <ele>741.81</ele>
        <time>2019-05-04T12:47:12.000Z</time>
      </trkpt>
      <trkpt lat="45.21407" lon="5.89731">
        <ele>743.81</ele>
        <time>2019-05-04T12:47:17.000Z</time>
      </trkpt>
      <trkpt lat="45.2138" lon="5.8974">
        <ele>742.99</ele>
        <time>2019-05-04T12:47:22.000Z</time>
      </trkpt>
      <trkpt lat="45.21354" lon="5.89754">
        <ele>742.99</ele>
        <time>2019-05-04T12:47:27.000Z</time>
      </trkpt>
      <trkpt lat="45.21325" lon="5.8977">
        <ele>742.73</ele>
        <time>2019-05-04T12:47:32.000Z</time>
      </trkpt>
      <trkpt lat="45.213" lon="5.89784">
        <ele>746.3</ele>
        <time>2019-05-04T12:47:37.000Z</time>
      </trkpt>
      <trkpt lat="45.21276" lon="5.89788">
        <ele>744.56</ele>
        <time>2019-05-04T12:47:42.000Z</time>
      </trkpt>
      <trkpt lat="45.21256" lon="5.89785">
        <ele>743.14</ele>
        <time>2019-05-04T12:47:47.000Z</time>
      </trkpt>
      <trkpt lat="45.2123" lon="5.89786">
        <ele>742.09</ele>
        <time>2019-05-04T12:47:52.000Z</time>
      </trkpt>
      <trkpt lat="45.21214" lon="5.89784">
        <ele>743.52</ele>
        <time>2019-05-04T12:47:57.000Z</time>
      </trkpt>
      <trkpt lat="45.21202" lon="5.89777">
        <ele>745.91</ele>
        <time>2019-05-04T12:48:02.000Z</time>
      </trkpt>
      <trkpt lat="45.21179" lon="5.89765">
        <ele>746.18</ele>
        <time>2019-05-04T12:48:07.000Z</time>
      </trkpt>
      <trkpt lat="45.21153" lon="5.89759">
        <ele>748.31</ele>
        <time>2019-05-04T12:48:12.000Z</time>
      </trkpt>
      <trkpt lat="45.21128" lon="5.89771">
        <ele>752.19</ele>
        <time>2019-05-04T12:48:17.000Z</time>
      </trkpt>
      <trkpt lat="45.21104" lon="5.89783">
        <ele>753.19</ele>
        <time>2019-05-04T12:48:22.000Z</time>
      </trkpt>
      <trkpt lat="45.21084" lon="5.89782">
        <ele>753.65</ele>
        <time>2019-05-04T12:48:27.000Z</time>
      </trkpt>
      <trkpt lat="45.21057" lon="5.89767">
        <ele>749.96</ele>
        <time>2019-05-04T12:48:32.000Z</time>
      </trkpt>
      <trkpt lat="45.21014" lon="5.89779">
        <ele>749.02</ele>
        <time>2019-05-04T12:48:37.000Z</time>
      </trkpt>
      <trkpt lat="45.20975" lon="5.8978">
        <ele>749.6</ele>
        <time>2019-05-04T12:48:42.000Z</time>
      </trkpt>
      <trkpt lat="45.20964" lon="5.89742">
        <ele>751.23</ele>
        <time>2019-05-04T12:48:47.000Z</time>
      </trkpt>
      <trkpt lat="45.20978" lon="5.8971">
        <ele>751.71</ele>
        <time>2019-05-04T12:48:52.000Z</time>
      </trkpt>
      <trkpt lat="45.20997" lon="5.89684">
        <ele>750.47</ele>
        <time>2019-05-04T12:48:57.000Z</time>
      </trkpt>
      <trkpt lat="45.21007" lon="5.89663">
        <ele>748.35</ele>
        <time>2019-05-04T12:49:02.000Z</time>
      </trkpt>
      <trkpt lat="45.21018" lon="5.89634">
        <ele>748.24</ele>
        <time>2019-05-04T12:49:07.000Z</time>
      </trkpt>
      <trkpt lat="45.21017" lon="5.89595">
        <ele>746.49</ele>
        <time>2019-05-04T12:49:12.000Z</time>
      </trkpt>
      <trkpt lat="45.21019" lon="5.89553">
        <ele>747.76</ele>
        <time>2019-05-04T12:49:17.000Z</time>
      </trkpt>
      <trkpt lat="45.21018" lon="5.89514">
        <ele>748.77</ele>
        <time>2019-05-04T12:49:22.000Z</time>
      </trkpt>
      <trkpt lat="45.21025" lon="5.89478">
        <ele>751.66</ele>
        <time>2019-05-04T12:49:27.000Z</time>
      </trkpt>
      <trkpt lat="45.2104" lon="5.89443">
        <ele>754.19</ele>
        <time>2019-05-04T12:49:32.000Z</time>
      </trkpt>
      <trkpt lat="45.21055" lon="5.89409">
        <ele>754.08</ele>
        <time>2019-05-04T12:49:37.000Z</time>
      </trkpt>
      <trkpt lat="45.21075" lon="5.89376">
        <ele>753.03</ele>
        <time>2019-05-04T12:49:42.000Z</time>
      </trkpt>
      <trkpt lat="45.21093" lon="5.89342">
        <ele>753.99</ele>
        <time>2019-05-04T12:49:47.000Z</time>
      </trkpt>
      <trkpt lat="45.21114" lon="5.89312">
        <ele>755.76</ele>
        <time>2019-05-04T12:49:52.000Z</time>
      </trkpt>
      <trkpt lat="45.21142" lon="5.89299">
        <ele>753.05</ele>
        <time>2019-05-04T12:49:57.000Z</time>
      </trkpt>
      <trkpt lat="45.21169" lon="5.89297">
        <ele>756.21</ele>
        <time>2019-05-04T12:50:02.000Z</time>
      </trkpt>
      <trkpt lat="45.21185" lon="5.89265">
        <ele>756.39</ele>
        <time>2019-05-04T12:50:07.000Z</time>
      </trkpt>
      <trkpt lat="45.21198" lon="5.89229">
        <ele>757.21</ele>
        <time>2019-05-04T12:50:12.000Z</time>
      </trkpt>
      <trkpt lat="45.21209" lon="5.89201">
        <ele>759.94</ele>
        <time>2019-05-04T12:50:17.000Z</time>
      </trkpt>
      <trkpt lat="45.21241" lon="5.89184">
        <ele>759.02</ele>
        <time>2019-05-04T12:50:22.000Z</time>
      </trkpt>
      <trkpt lat="45.21264" lon="5.89161">
        <ele>763.02</ele>
        <time>2019-05-04T12:50:27.000Z</time>
      </trkpt>
      <trkpt lat="45.21289" lon="5.89154">
        <ele>764.83</ele>
        <time>2019-05-04T12:50:32.000Z</time>
      </trkpt>
      <trkpt lat="45.21306" lon="5.89145">
        <ele>765.61</ele>
        <time>2019-05-04T12:50:37.000Z</time>
      </trkpt>
      <trkpt lat="45.21333" lon="5.89134">
        <ele>772.59</ele>
        <time>2019-05-04T12:50:42.000Z</time>
      </trkpt>
      <trkpt lat="45.21358" lon="5.89125">
        <ele>775.15</ele>
        <time>2019-05-04T12:50:47.000Z</time>
      </trkpt>
      <trkpt lat="45.21383" lon="5.89115">
        <ele>777.65</ele>
        <time>2019-05-04T12:50:52.000Z</time>
      </trkpt>
      <trkpt lat="45.21404" lon="5.89095">
        <ele>774.59</ele>
        <time>2019-05-04T12:50:57.000Z</time>
      </trkpt>
      <trkpt lat="45.21424" lon="5.89077">
        <ele>778.66</ele>
        <time>2019-05-04T12:51:02.000Z</time>
      </trkpt>
      <trkpt lat="45.21447" lon="5.89063">
        <ele>781.39</ele>
        <time>2019-05-04T12:51:07.000Z</time>
      </trkpt>
      <trkpt lat="45.21472" lon="5.89054">
        <ele>788.78</ele>
        <time>2019-05-04T12:51:12.000Z</time>
      </trkpt>
      <trkpt lat="45.21499" lon="5.89052">
        <ele>790.08</ele>
        <time>2019-05-04T12:51:17.000Z</time>
      </trkpt>
      <trkpt lat="45.21525" lon="5.89044">
        <ele>791.35</ele>
        <time>2019-05-04T12:51:22.000Z</time>
      </trkpt>
      <trkpt lat="45.21552" lon="5.89032">
        <ele>791.69</ele>
        <time>2019-05-04T12:51:27.000Z</time>
      </trkpt>
      <trkpt lat="45.21576" lon="5.89021">
        <ele>795.43</ele>
        <time>2019-05-04T12:51:32.000Z</time>
      </trkpt>
      <trkpt lat="45.21596" lon="5.88998">
        <ele>792.56</ele>
        <time>2019-05-04T12:51:37.000Z</time>
      </trkpt>
      <trkpt lat="45.21614" lon="5.88979">
        <ele>788.69</ele>
        <time>2019-05-04T12:51:42.000Z</time>
      </trkpt>
      <trkpt lat="45.21635" lon="5.88959">
        <ele>788.56</ele>
        <time>2019-05-04T12:51:47.000Z</time>
      </trkpt>
      <trkpt lat="45.21658" lon="5.88944">
        <ele>788.13</ele>
        <time>2019-05-04T12:51:52.000Z</time>
      </trkpt>
      <trkpt lat="45.21681" lon="5.88928">
        <ele>789.82</ele>
        <time>2019-05-04T12:51:57.000Z</time>
      </trkpt>
      <trkpt lat="45.21701" lon="5.88907">
        <ele>790.71</ele>
        <time>2019-05-04T12:52:02.000Z</time>
      </trkpt>
      <trkpt lat="45.21702" lon="5.88875">
        <ele>791.4</ele>
        <time>2019-05-04T12:52:07.000Z</time>
      </trkpt>
      <trkpt lat="45.21688" lon="5.88855">
        <ele>793.6</ele>
        <time>2019-05-04T12:52:12.000Z</time>
      </trkpt>
      <trkpt lat="45.21661" lon="5.88844">
        <ele>792.19</ele>
        <time>2019-05-04T12:52:17.000Z</time>
      </trkpt>
      <trkpt lat="45.21628" lon="5.88828">
        <ele>793.16</ele>
        <time>2019-05-04T12:52:22.000Z</time>
      </trkpt>
      <trkpt lat="45.21586" lon="5.88792">
        <ele>788.51</ele>
        <time>2019-05-04T12:52:27.000Z</time>
      </trkpt>
      <trkpt lat="45.21547" lon="5.88745">
        <ele>784.3</ele>
        <time>2019-05-04T12:52:32.000Z</time>
      </trkpt>
      <trkpt lat="45.21504" lon="5.88686">
        <ele>779.64</ele>
        <time>2019-05-04T12:52:37.000Z</time>
      </trkpt>
      <trkpt lat="45.21474" lon="5.88598">
        <ele>778.45</ele>
        <time>2019-05-04T12:52:42.000Z</time>
      </trkpt>
      <trkpt lat="45.21444" lon="5.88508">
        <ele>776.49</ele>
        <time>2019-05-04T12:52:47.000Z</time>
      </trkpt>
      <trkpt lat="45.21423" lon="5.88422">
        <ele>767.72</ele>
        <time>2019-05-04T12:52:52.000Z</time>
      </trkpt>
      <trkpt lat="45.21419" lon="5.88349">
        <ele>765.04</ele>
        <time>2019-05-04T12:52:57.000Z</time>
      </trkpt>
      <trkpt lat="45.21378" lon="5.88313">
        <ele>763.15</ele>
        <time>2019-05-04T12:53:02.000Z</time>
      </trkpt>
      <trkpt lat="45.21332" lon="5.88338">
        <ele>758.77</ele>
        <time>2019-05-04T12:53:07.000Z</time>
      </trkpt>
      <trkpt lat="45.21285" lon="5.88353">
        <ele>756.06</ele>
        <time>2019-05-04T12:53:12.000Z</time>
      </trkpt>
      <trkpt lat="45.21241" lon="5.88358">
        <ele>753.11</ele>
        <time>2019-05-04T12:53:17.000Z</time>
      </trkpt>
      <trkpt lat="45.21203" lon="5.88359">
        <ele>751.28</ele>
        <time>2019-05-04T12:53:22.000Z</time>
      </trkpt>
      <trkpt lat="45.21171" lon="5.8835">
        <ele>749.7</ele>
        <time>2019-05-04T12:53:27.000Z</time>
      </trkpt>
      <trkpt lat="45.21135" lon="5.88339">
        <ele>748.82</ele>
        <time>2019-05-04T12:53:32.000Z</time>
      </trkpt>
      <trkpt lat="45.21101" lon="5.88328">
        <ele>750.78</ele>
        <time>2019-05-04T12:53:37.000Z</time>
      </trkpt>
      <trkpt lat="45.21067" lon="5.8831">
        <ele>750.97</ele>
        <time>2019-05-04T12:53:42.000Z</time>
      </trkpt>
      <trkpt lat="45.21036" lon="5.88292">
        <ele>751.52</ele>
        <time>2019-05-04T12:53:47.000Z</time>
      </trkpt>
      <trkpt lat="45.21001" lon="5.88285">
        <ele>748.03</ele>
        <time>2019-05-04T12:53:52.000Z</time>
      </trkpt>
      <trkpt lat="45.20965" lon="5.88278">
        <ele>747.56</ele>
        <time>2019-05-04T12:53:57.000Z</time>
      </trkpt>
      <trkpt lat="45.20932" lon="5.8827">
        <ele>745.18</ele>
        <time>2019-05-04T12:54:02.000Z</time>
      </trkpt>
      <trkpt lat="45.20899" lon="5.88263">
        <ele>746.19</ele>
        <time>2019-05-04T12:54:07.000Z</time>
      </trkpt>
      <trkpt lat="45.2087" lon="5.8827">
        <ele>745.07</ele>
        <time>2019-05-04T12:54:12.000Z</time>
      </trkpt>
      <trkpt lat="45.20856" lon="5.88283">
        <ele>746.08</ele>
        <time>2019-05-04T12:54:17.000Z</time>
      </trkpt>
      <trkpt lat="45.2084" lon="5.88303">
        <ele>746.79</ele>
        <time>2019-05-04T12:54:22.000Z</time>
      </trkpt>
      <trkpt lat="45.2081" lon="5.88321">
        <ele>743.73</ele>
        <time>2019-05-04T12:54:27.000Z</time>
      </trkpt>
      <trkpt lat="45.20772" lon="5.88339">
        <ele>743.76</ele>
        <time>2019-05-04T12:54:32.000Z</time>
      </trkpt>
      <trkpt lat="45.20729" lon="5.88347">
        <ele>734.81</ele>
        <time>2019-05-04T12:54:37.000Z</time>
      </trkpt>
      <trkpt lat="45.20683" lon="5.88333">
        <ele>728.1</ele>
        <time>2019-05-04T12:54:42.000Z</time>
      </trkpt>
      <trkpt lat="45.2065" lon="5.88268">
        <ele>722.31</ele>
        <time>2019-05-04T12:54:47.000Z</time>
      </trkpt>
      <trkpt lat="45.20604" lon="5.8823">
        <ele>721.66</ele>
        <time>2019-05-04T12:54:52.000Z</time>
      </trkpt>
      <trkpt lat="45.20588" lon="5.88175">
        <ele>720.9</ele>
        <time>2019-05-04T12:54:57.000Z</time>
      </trkpt>
      <trkpt lat="45.20565" lon="5.8814">
        <ele>717.65</ele>
        <time>2019-05-04T12:55:02.000Z</time>
      </trkpt>
      <trkpt lat="45.20534" lon="5.88131">
        <ele>717.37</ele>
        <time>2019-05-04T12:55:07.000Z</time>
      </trkpt>
      <trkpt lat="45.20503" lon="5.88142">
        <ele>719.48</ele>
        <time>2019-05-04T12:55:12.000Z</time>
      </trkpt>
      <trkpt lat="45.20472" lon="5.88145">
        <ele>720.31</ele>
        <time>2019-05-04T12:55:17.000Z</time>
      </trkpt>
      <trkpt lat="45.2044" lon="5.88141">
        <ele>721.91</ele>
        <time>2019-05-04T12:55:22.000Z</time>
      </trkpt>
      <trkpt lat="45.20411" lon="5.88133">
        <ele>722.39</ele>
        <time>2019-05-04T12:55:27.000Z</time>
      </trkpt>
      <trkpt lat="45.20377" lon="5.88138">
        <ele>717.94</ele>
        <time>2019-05-04T12:55:32.000Z</time>
      </trkpt>
      <trkpt lat="45.20349" lon="5.88152">
        <ele>717.08</ele>
        <time>2019-05-04T12:55:37.000Z</time>
      </trkpt>
      <trkpt lat="45.20325" lon="5.88177">
        <ele>719.27</ele>
        <time>2019-05-04T12:55:42.000Z</time>
      </trkpt>
      <trkpt lat="45.20299" lon="5.88207">
        <ele>717.81</ele>
        <time>2019-05-04T12:55:47.000Z</time>
      </trkpt>
      <trkpt lat="45.2028" lon="5.88218">
        <ele>719.34</ele>
        <time>2019-05-04T12:55:52.000Z</time>
      </trkpt>
      <trkpt lat="45.20259" lon="5.88221">
        <ele>720.72</ele>
        <time>2019-05-04T12:55:57.000Z</time>
      </trkpt>
      <trkpt lat="45.20235" lon="5.88218">
        <ele>723.38</ele>
        <time>2019-05-04T12:56:02.000Z</time>
      </trkpt>
      <trkpt lat="45.20212" lon="5.88209">
        <ele>724.58</ele>
        <time>2019-05-04T12:56:07.000Z</time>
      </trkpt>
      <trkpt lat="45.20191" lon="5.882">
        <ele>725.64</ele>
        <time>2019-05-04T12:56:12.000Z</time>
      </trkpt>
      <trkpt lat="45.20171" lon="5.8818">
        <ele>725.58</ele>
        <time>2019-05-04T12:56:17.000Z</time>
      </trkpt>
      <trkpt lat="45.20163" lon="5.88157">
        <ele>729.06</ele>
        <time>2019-05-04T12:56:22.000Z</time>
      </trkpt>
      <trkpt lat="45.20156" lon="5.88134">
        <ele>730.75</ele>
        <time>2019-05-04T12:56:27.000Z</time>
      </trkpt>
      <trkpt lat="45.20156" lon="5.88112">
        <ele>731.61</ele>
        <time>2019-05-04T12:56:32.000Z</time>
      </trkpt>
      <trkpt lat="45.20159" lon="5.88085">
        <ele>732.58</ele>
        <time>2019-05-04T12:56:37.000Z</time>
      </trkpt>
      <trkpt lat="45.20161" lon="5.88051">
        <ele>734.16</ele>
        <time>2019-05-04T12:56:42.000Z</time>
      </trkpt>
      <trkpt lat="45.20151" lon="5.88018">
        <ele>735.02</ele>
        <time>2019-05-04T12:56:47.000Z</time>
      </trkpt>
      <trkpt lat="45.20147" lon="5.87987">
        <ele>735.55</ele>
        <time>2019-05-04T12:56:52.000Z</time>
      </trkpt>
      <trkpt lat="45.20138" lon="5.87955">
        <ele>734.84</ele>
        <time>2019-05-04T12:56:57.000Z</time>
      </trkpt>
      <trkpt lat="45.20132" lon="5.87925">
        <ele>736.62</ele>
        <time>2019-05-04T12:57:02.000Z</time>
      </trkpt>
      <trkpt lat="45.20124" lon="5.87899">
        <ele>739.96</ele>
        <time>2019-05-04T12:57:07.000Z</time>
      </trkpt>
      <trkpt lat="45.20114" lon="5.87868">
        <ele>742.97</ele>
        <time>2019-05-04T12:57:12.000Z</time>
      </trkpt>
      <trkpt lat="45.20112" lon="5.87837">
        <ele>741.44</ele>
        <time>2019-05-04T12:57:17.000Z</time>
      </trkpt>
      <trkpt lat="45.20107" lon="5.87804">
        <ele>740.25</ele>
        <time>2019-05-04T12:57:22.000Z</time>
      </trkpt>
      <trkpt lat="45.20112" lon="5.87776">
        <ele>745.07</ele>
        <time>2019-05-04T12:57:27.000Z</time>
      </trkpt>
      <trkpt lat="45.20119" lon="5.87746">
        <ele>750.18</ele>
        <time>2019-05-04T12:57:32.000Z</time>
      </trkpt>
      <trkpt lat="45.20126" lon="5.87706">
        <ele>751.22</ele>
        <time>2019-05-04T12:57:37.000Z</time>
      </trkpt>
      <trkpt lat="45.20131" lon="5.87673">
        <ele>756.24</ele>
        <time>2019-05-04T12:57:42.000Z</time>
      </trkpt>
      <trkpt lat="45.20133" lon="5.87636">
        <ele>759.91</ele>
        <time>2019-05-04T12:57:47.000Z</time>
      </trkpt>
      <trkpt lat="45.20123" lon="5.87606">
        <ele>762.05</ele>
        <time>2019-05-04T12:57:52.000Z</time>
      </trkpt>
      <trkpt lat="45.20114" lon="5.87576">
        <ele>763.3</ele>
        <time>2019-05-04T12:57:57.000Z</time>
      </trkpt>
      <trkpt lat="45.20106" lon="5.8754">
        <ele>767.21</ele>
        <time>2019-05-04T12:58:02.000Z</time>
      </trkpt>
      <trkpt lat="45.20108" lon="5.87505">
        <ele>769.21</ele>
        <time>2019-05-04T12:58:07.000Z</time>
      </trkpt>
      <trkpt lat="45.20112" lon="5.87477">
        <ele>772.27</ele>
        <time>2019-05-04T12:58:12.000Z</time>
      </trkpt>
      <trkpt lat="45.20126" lon="5.8745">
        <ele>774.65</ele>
        <time>2019-05-04T12:58:17.000Z</time>
      </trkpt>
      <trkpt lat="45.20141" lon="5.87426">
        <ele>774.9</ele>
        <time>2019-05-04T12:58:22.000Z</time>
      </trkpt>
      <trkpt lat="45.20147" lon="5.874">
        <ele>777.76</ele>
        <time>2019-05-04T12:58:27.000Z</time>
      </trkpt>
      <trkpt lat="45.20149" lon="5.87373">
        <ele>778.28</ele>
        <time>2019-05-04T12:58:32.000Z</time>
      </trkpt>
      <trkpt lat="45.20144" lon="5.87342">
        <ele>781.01</ele>
        <time>2019-05-04T12:58:37.000Z</time>
      </trkpt>
      <trkpt lat="45.2014" lon="5.87312">
        <ele>785.17</ele>
        <time>2019-05-04T12:58:42.000Z</time>
      </trkpt>
      <trkpt lat="45.20128" lon="5.87282">
        <ele>787.31</ele>
        <time>2019-05-04T12:58:47.000Z</time>
      </trkpt>
      <trkpt lat="45.2012" lon="5.87253">
        <ele>790.06</ele>
        <time>2019-05-04T12:58:52.000Z</time>
      </trkpt>
      <trkpt lat="45.20103" lon="5.87228">
        <ele>791.64</ele>
        <time>2019-05-04T12:58:57.000Z</time>
      </trkpt>
      <trkpt lat="45.20088" lon="5.87206">
        <ele>792.94</ele>
        <time>2019-05-04T12:59:02.000Z</time>
      </trkpt>
      <trkpt lat="45.2008" lon="5.87182">
        <ele>794.33</ele>
        <time>2019-05-04T12:59:07.000Z</time>
      </trkpt>
      <trkpt lat="45.20075" lon="5.87154">
        <ele>800.65</ele>
        <time>2019-05-04T12:59:12.000Z</time>
      </trkpt>
      <trkpt lat="45.2007" lon="5.87116">
        <ele>801.69</ele>
        <time>2019-05-04T12:59:17.000Z</time>
      </trkpt>
      <trkpt lat="45.20067" lon="5.87084">
        <ele>805.31</ele>
        <time>2019-05-04T12:59:22.000Z</time>
      </trkpt>
      <trkpt lat="45.20062" lon="5.87055">
        <ele>806.61</ele>
        <time>2019-05-04T12:59:27.000Z</time>
      </trkpt>
      <trkpt lat="45.20063" lon="5.8702">
        <ele>807.33</ele>
        <time>2019-05-04T12:59:32.000Z</time>
      </trkpt>
      <trkpt lat="45.20063" lon="5.86991">
        <ele>803.99</ele>
        <time>2019-05-04T12:59:37.000Z</time>
      </trkpt>
      <trkpt lat="45.2007" lon="5.86961">
        <ele>802.75</ele>
        <time>2019-05-04T12:59:42.000Z</time>
      </trkpt>
      <trkpt lat="45.20074" lon="5.86928">
        <ele>803.27</ele>
        <time>2019-05-04T12:59:47.000Z</time>
      </trkpt>
      <trkpt lat="45.20077" lon="5.869">
        <ele>806.96</ele>
        <time>2019-05-04T12:59:52.000Z</time>
      </trkpt>
      <trkpt lat="45.20072" lon="5.86874">
        <ele>808.53</ele>
        <time>2019-05-04T12:59:57.000Z</time>
      </trkpt>
      <trkpt lat="45.20064" lon="5.86851">
        <ele>810.24</ele>
        <time>2019-05-04T13:00:02.000Z</time>
      </trkpt>
      <trkpt lat="45.20059" lon="5.86835">
        <ele>812.87</ele>
        <time>2019-05-04T13:00:19.000Z</time>
      </trkpt>
      <trkpt lat="45.20046" lon="5.86812">
        <ele>816.32</ele>
        <time>2019-05-04T13:00:24.000Z</time>
      </trkpt>
      <trkpt lat="45.20036" lon="5.86785">
        <ele>818.73</ele>
        <time>2019-05-04T13:00:29.000Z</time>
      </trkpt>
      <trkpt lat="45.20024" lon="5.8676">
        <ele>819.6</ele>
        <time>2019-05-04T13:00:34.000Z</time>
      </trkpt>
      <trkpt lat="45.20006" lon="5.86734">
        <ele>818.44</ele>
        <time>2019-05-04T13:00:39.000Z</time>
      </trkpt>
      <trkpt lat="45.19988" lon="5.86721">
        <ele>821.8</ele>
        <time>2019-05-04T13:00:44.000Z</time>
      </trkpt>
      <trkpt lat="45.19968" lon="5.86718">
        <ele>821.77</ele>
        <time>2019-05-04T13:00:49.000Z</time>
      </trkpt>
      <trkpt lat="45.1995" lon="5.86723">
        <ele>822.55</ele>
        <time>2019-05-04T13:00:54.000Z</time>
      </trkpt>
      <trkpt lat="45.19929" lon="5.86727">
        <ele>827.38</ele>
        <time>2019-05-04T13:00:59.000Z</time>
      </trkpt>
      <trkpt lat="45.19901" lon="5.86732">
        <ele>830.26</ele>
        <time>2019-05-04T13:01:04.000Z</time>
      </trkpt>
      <trkpt lat="45.19878" lon="5.86732">
        <ele>832.8</ele>
        <time>2019-05-04T13:01:09.000Z</time>
      </trkpt>
      <trkpt lat="45.19859" lon="5.8673">
        <ele>836.97</ele>
        <time>2019-05-04T13:01:14.000Z</time>
      </trkpt>
      <trkpt lat="45.19843" lon="5.86732">
        <ele>840.91</ele>
        <time>2019-05-04T13:01:19.000Z</time>
      </trkpt>
      <trkpt lat="45.19823" lon="5.86727">
        <ele>842.67</ele>
        <time>2019-05-04T13:01:24.000Z</time>
      </trkpt>
      <trkpt lat="45.19804" lon="5.86724">
        <ele>845</ele>
        <time>2019-05-04T13:01:29.000Z</time>
      </trkpt>
      <trkpt lat="45.19784" lon="5.8672">
        <ele>844.68</ele>
        <time>2019-05-04T13:01:34.000Z</time>
      </trkpt>
      <trkpt lat="45.19765" lon="5.86716">
        <ele>846.39</ele>
        <time>2019-05-04T13:01:39.000Z</time>
      </trkpt>
      <trkpt lat="45.19745" lon="5.86716">
        <ele>847.32</ele>
        <time>2019-05-04T13:01:44.000Z</time>
      </trkpt>
      <trkpt lat="45.19728" lon="5.86727">
        <ele>850.13</ele>
        <time>2019-05-04T13:01:49.000Z</time>
      </trkpt>
      <trkpt lat="45.19717" lon="5.86752">
        <ele>852.91</ele>
        <time>2019-05-04T13:01:54.000Z</time>
      </trkpt>
      <trkpt lat="45.19715" lon="5.86783">
        <ele>855.23</ele>
        <time>2019-05-04T13:01:59.000Z</time>
      </trkpt>
      <trkpt lat="45.19716" lon="5.86815">
        <ele>856.51</ele>
        <time>2019-05-04T13:02:04.000Z</time>
      </trkpt>
      <trkpt lat="45.19705" lon="5.86845">
        <ele>855.51</ele>
        <time>2019-05-04T13:02:09.000Z</time>
      </trkpt>
      <trkpt lat="45.19685" lon="5.86853">
        <ele>858.67</ele>
        <time>2019-05-04T13:02:14.000Z</time>
      </trkpt>
      <trkpt lat="45.1966" lon="5.86856">
        <ele>863.23</ele>
        <time>2019-05-04T13:02:19.000Z</time>
      </trkpt>
      <trkpt lat="45.19638" lon="5.86856">
        <ele>865.5</ele>
        <time>2019-05-04T13:02:24.000Z</time>
      </trkpt>
      <trkpt lat="45.19622" lon="5.86859">
        <ele>864.46</ele>
        <time>2019-05-04T13:02:29.000Z</time>
      </trkpt>
      <trkpt lat="45.19609" lon="5.86858">
        <ele>865</ele>
        <time>2019-05-04T13:02:34.000Z</time>
      </trkpt>
      <trkpt lat="45.19598" lon="5.86862">
        <ele>864.97</ele>
        <time>2019-05-04T13:02:39.000Z</time>
      </trkpt>
      <trkpt lat="45.19583" lon="5.86861">
        <ele>867.44</ele>
        <time>2019-05-04T13:02:44.000Z</time>
      </trkpt>
      <trkpt lat="45.19563" lon="5.86863">
        <ele>868.35</ele>
        <time>2019-05-04T13:02:49.000Z</time>
      </trkpt>
      <trkpt lat="45.19543" lon="5.86874">
        <ele>869.84</ele>
        <time>2019-05-04T13:02:54.000Z</time>
      </trkpt>
      <trkpt lat="45.19527" lon="5.86898">
        <ele>871.27</ele>
        <time>2019-05-04T13:02:59.000Z</time>
      </trkpt>
      <trkpt lat="45.19521" lon="5.8693">
        <ele>874.27</ele>
        <time>2019-05-04T13:03:04.000Z</time>
      </trkpt>
      <trkpt lat="45.19525" lon="5.86962">
        <ele>876.12</ele>
        <time>2019-05-04T13:03:09.000Z</time>
      </trkpt>
      <trkpt lat="45.19532" lon="5.86993">
        <ele>874.96</ele>
        <time>2019-05-04T13:03:14.000Z</time>
      </trkpt>
      <trkpt lat="45.19542" lon="5.87023">
        <ele>874.45</ele>
        <time>2019-05-04T13:03:19.000Z</time>
      </trkpt>
      <trkpt lat="45.19554" lon="5.87053">
        <ele>875.5</ele>
        <time>2019-05-04T13:03:24.000Z</time>
      </trkpt>
      <trkpt lat="45.19571" lon="5.87079">
        <ele>875.63</ele>
        <time>2019-05-04T13:03:29.000Z</time>
      </trkpt>
      <trkpt lat="45.19586" lon="5.87102">
        <ele>872.68</ele>
        <time>2019-05-04T13:03:34.000Z</time>
      </trkpt>
      <trkpt lat="45.19607" lon="5.87125">
        <ele>872.11</ele>
        <time>2019-05-04T13:03:39.000Z</time>
      </trkpt>
      <trkpt lat="45.19624" lon="5.87148">
        <ele>870.93</ele>
        <time>2019-05-04T13:03:44.000Z</time>
      </trkpt>
      <trkpt lat="45.19643" lon="5.87178">
        <ele>872.21</ele>
        <time>2019-05-04T13:03:49.000Z</time>
      </trkpt>
      <trkpt lat="45.19663" lon="5.8721">
        <ele>871.4</ele>
        <time>2019-05-04T13:03:54.000Z</time>
      </trkpt>
      <trkpt lat="45.19674" lon="5.87241">
        <ele>870.29</ele>
        <time>2019-05-04T13:03:59.000Z</time>
      </trkpt>
      <trkpt lat="45.19679" lon="5.87264">
        <ele>871.32</ele>
        <time>2019-05-04T13:04:04.000Z</time>
      </trkpt>
      <trkpt lat="45.1968" lon="5.87292">
        <ele>871</ele>
        <time>2019-05-04T13:04:09.000Z</time>
      </trkpt>
      <trkpt lat="45.1968" lon="5.87322">
        <ele>870.32</ele>
        <time>2019-05-04T13:04:14.000Z</time>
      </trkpt>
      <trkpt lat="45.19675" lon="5.87345">
        <ele>867.65</ele>
        <time>2019-05-04T13:04:19.000Z</time>
      </trkpt>
      <trkpt lat="45.19659" lon="5.8737">
        <ele>866</ele>
        <time>2019-05-04T13:04:24.000Z</time>
      </trkpt>
      <trkpt lat="45.19658" lon="5.87404">
        <ele>865.37</ele>
        <time>2019-05-04T13:04:29.000Z</time>
      </trkpt>
      <trkpt lat="45.19647" lon="5.87449">
        <ele>866.08</ele>
        <time>2019-05-04T13:04:34.000Z</time>
      </trkpt>
      <trkpt lat="45.19633" lon="5.87487">
        <ele>864.2</ele>
        <time>2019-05-04T13:04:39.000Z</time>
      </trkpt>
      <trkpt lat="45.19605" lon="5.87499">
        <ele>864.17</ele>
        <time>2019-05-04T13:04:44.000Z</time>
      </trkpt>
      <trkpt lat="45.19574" lon="5.8752">
        <ele>859.28</ele>
        <time>2019-05-04T13:04:49.000Z</time>
      </trkpt>
      <trkpt lat="45.19541" lon="5.87532">
        <ele>855.17</ele>
        <time>2019-05-04T13:04:54.000Z</time>
      </trkpt>
      <trkpt lat="45.19522" lon="5.87525">
        <ele>851.73</ele>
        <time>2019-05-04T13:04:59.000Z</time>
      </trkpt>
      <trkpt lat="45.19541" lon="5.87493">
        <ele>850.11</ele>
        <time>2019-05-04T13:05:04.000Z</time>
      </trkpt>
      <trkpt lat="45.19557" lon="5.87453">
        <ele>846.38</ele>
        <time>2019-05-04T13:05:09.000Z</time>
      </trkpt>
      <trkpt lat="45.19561" lon="5.87413">
        <ele>846.11</ele>
        <time>2019-05-04T13:05:14.000Z</time>
      </trkpt>
      <trkpt lat="45.19551" lon="5.87371">
        <ele>845.31</ele>
        <time>2019-05-04T13:05:19.000Z</time>
      </trkpt>
      <trkpt lat="45.19554" lon="5.87316">
        <ele>840</ele>
        <time>2019-05-04T13:05:24.000Z</time>
      </trkpt>
      <trkpt lat="45.19542" lon="5.87288">
        <ele>838.66</ele>
        <time>2019-05-04T13:05:29.000Z</time>
      </trkpt>
      <trkpt lat="45.19531" lon="5.87321">
        <ele>837.76</ele>
        <time>2019-05-04T13:05:34.000Z</time>
      </trkpt>
      <trkpt lat="45.19512" lon="5.87362">
        <ele>831.1</ele>
        <time>2019-05-04T13:05:39.000Z</time>
      </trkpt>
      <trkpt lat="45.19483" lon="5.87405">
        <ele>829.89</ele>
        <time>2019-05-04T13:05:44.000Z</time>
      </trkpt>
      <trkpt lat="45.19437" lon="5.87412">
        <ele>827.96</ele>
        <time>2019-05-04T13:05:49.000Z</time>
      </trkpt>
      <trkpt lat="45.19406" lon="5.87391">
        <ele>825.62</ele>
        <time>2019-05-04T13:05:54.000Z</time>
      </trkpt>
      <trkpt lat="45.19405" lon="5.87341">
        <ele>822.54</ele>
        <time>2019-05-04T13:05:59.000Z</time>
      </trkpt>
      <trkpt lat="45.19422" lon="5.87281">
        <ele>818.69</ele>
        <time>2019-05-04T13:06:04.000Z</time>
      </trkpt>
      <trkpt lat="45.19406" lon="5.87227">
        <ele>817.75</ele>
        <time>2019-05-04T13:06:09.000Z</time>
      </trkpt>
      <trkpt lat="45.19398" lon="5.87166">
        <ele>814.99</ele>
        <time>2019-05-04T13:06:14.000Z</time>
      </trkpt>
      <trkpt lat="45.19385" lon="5.87108">
        <ele>807.9</ele>
        <time>2019-05-04T13:06:19.000Z</time>
      </trkpt>
      <trkpt lat="45.19371" lon="5.8705">
        <ele>806.31</ele>
        <time>2019-05-04T13:06:24.000Z</time>
      </trkpt>
      <trkpt lat="45.19372" lon="5.8698">
        <ele>805</ele>
        <time>2019-05-04T13:06:29.000Z</time>
      </trkpt>
      <trkpt lat="45.19374" lon="5.86913">
        <ele>797.98</ele>
        <time>2019-05-04T13:06:34.000Z</time>
      </trkpt>
      <trkpt lat="45.1936" lon="5.86891">
        <ele>797.35</ele>
        <time>2019-05-04T13:06:39.000Z</time>
      </trkpt>
      <trkpt lat="45.19351" lon="5.86928">
        <ele>790.17</ele>
        <time>2019-05-04T13:06:44.000Z</time>
      </trkpt>
      <trkpt lat="45.19338" lon="5.86979">
        <ele>786.86</ele>
        <time>2019-05-04T13:06:49.000Z</time>
      </trkpt>
      <trkpt lat="45.19309" lon="5.87026">
        <ele>785.56</ele>
        <time>2019-05-04T13:06:54.000Z</time>
      </trkpt>
      <trkpt lat="45.1928" lon="5.87077">
        <ele>780.78</ele>
        <time>2019-05-04T13:06:59.000Z</time>
      </trkpt>
      <trkpt lat="45.19258" lon="5.87119">
        <ele>776.88</ele>
        <time>2019-05-04T13:07:04.000Z</time>
      </trkpt>
      <trkpt lat="45.1923" lon="5.87127">
        <ele>775.32</ele>
        <time>2019-05-04T13:07:09.000Z</time>
      </trkpt>
      <trkpt lat="45.19199" lon="5.87162">
        <ele>774.41</ele>
        <time>2019-05-04T13:07:14.000Z</time>
      </trkpt>
      <trkpt lat="45.19156" lon="5.87189">
        <ele>765.57</ele>
        <time>2019-05-04T13:07:19.000Z</time>
      </trkpt>
      <trkpt lat="45.19111" lon="5.87203">
        <ele>762.4</ele>
        <time>2019-05-04T13:07:24.000Z</time>
      </trkpt>
      <trkpt lat="45.19065" lon="5.87171">
        <ele>756.48</ele>
        <time>2019-05-04T13:07:29.000Z</time>
      </trkpt>
      <trkpt lat="45.1902" lon="5.87139">
        <ele>751.77</ele>
        <time>2019-05-04T13:07:34.000Z</time>
      </trkpt>
      <trkpt lat="45.18976" lon="5.87123">
        <ele>746.16</ele>
        <time>2019-05-04T13:07:39.000Z</time>
      </trkpt>
      <trkpt lat="45.18936" lon="5.87128">
        <ele>739.01</ele>
        <time>2019-05-04T13:07:44.000Z</time>
      </trkpt>
      <trkpt lat="45.18915" lon="5.87168">
        <ele>737.78</ele>
        <time>2019-05-04T13:07:49.000Z</time>
      </trkpt>
      <trkpt lat="45.189" lon="5.87236">
        <ele>735.21</ele>
        <time>2019-05-04T13:07:54.000Z</time>
      </trkpt>
      <trkpt lat="45.18892" lon="5.87301">
        <ele>738.01</ele>
        <time>2019-05-04T13:07:59.000Z</time>
      </trkpt>
      <trkpt lat="45.18896" lon="5.87345">
        <ele>740.84</ele>
        <time>2019-05-04T13:08:04.000Z</time>
      </trkpt>
      <trkpt lat="45.18904" lon="5.87378">
        <ele>740.16</ele>
        <time>2019-05-04T13:08:09.000Z</time>
      </trkpt>
      <trkpt lat="45.18913" lon="5.87406">
        <ele>745.45</ele>
        <time>2019-05-04T13:08:14.000Z</time>
      </trkpt>
      <trkpt lat="45.18923" lon="5.8744">
        <ele>742.42</ele>
        <time>2019-05-04T13:08:19.000Z</time>
      </trkpt>
      <trkpt lat="45.18934" lon="5.87474">
        <ele>741.41</ele>
        <time>2019-05-04T13:08:24.000Z</time>
      </trkpt>
      <trkpt lat="45.18946" lon="5.87505">
        <ele>739.11</ele>
        <time>2019-05-04T13:08:29.000Z</time>
      </trkpt>
      <trkpt lat="45.18948" lon="5.87539">
        <ele>738.65</ele>
        <time>2019-05-04T13:08:34.000Z</time>
      </trkpt>
      <trkpt lat="45.18956" lon="5.87572">
        <ele>741.42</ele>
        <time>2019-05-04T13:08:39.000Z</time>
      </trkpt>
      <trkpt lat="45.1896" lon="5.87607">
        <ele>744.92</ele>
        <time>2019-05-04T13:08:44.000Z</time>
      </trkpt>
      <trkpt lat="45.18966" lon="5.87638">
        <ele>745.46</ele>
        <time>2019-05-04T13:08:49.000Z</time>
      </trkpt>
      <trkpt lat="45.1897" lon="5.87671">
        <ele>752.51</ele>
        <time>2019-05-04T13:08:54.000Z</time>
      </trkpt>
      <trkpt lat="45.1897" lon="5.87698">
        <ele>752.75</ele>
        <time>2019-05-04T13:08:59.000Z</time>
      </trkpt>
      <trkpt lat="45.18967" lon="5.87731">
        <ele>753.87</ele>
        <time>2019-05-04T13:09:04.000Z</time>
      </trkpt>
      <trkpt lat="45.18959" lon="5.87763">
        <ele>758.23</ele>
        <time>2019-05-04T13:09:09.000Z</time>
      </trkpt>
      <trkpt lat="45.18961" lon="5.87793">
        <ele>759.02</ele>
        <time>2019-05-04T13:09:14.000Z</time>
      </trkpt>
      <trkpt lat="45.18971" lon="5.87819">
        <ele>760.85</ele>
        <time>2019-05-04T13:09:19.000Z</time>
      </trkpt>
      <trkpt lat="45.18981" lon="5.87844">
        <ele>761.53</ele>
        <time>2019-05-04T13:09:24.000Z</time>
      </trkpt>
      <trkpt lat="45.18987" lon="5.87869">
        <ele>762.76</ele>
        <time>2019-05-04T13:09:29.000Z</time>
      </trkpt>
      <trkpt lat="45.18982" lon="5.87892">
        <ele>763.74</ele>
        <time>2019-05-04T13:09:34.000Z</time>
      </trkpt>
      <trkpt lat="45.18976" lon="5.87918">
        <ele>766.63</ele>
        <time>2019-05-04T13:09:39.000Z</time>
      </trkpt>
      <trkpt lat="45.18967" lon="5.87948">
        <ele>769.59</ele>
        <time>2019-05-04T13:09:44.000Z</time>
      </trkpt>
      <trkpt lat="45.18951" lon="5.8797">
        <ele>768.94</ele>
        <time>2019-05-04T13:09:49.000Z</time>
      </trkpt>
      <trkpt lat="45.18935" lon="5.8798">
        <ele>768.38</ele>
        <time>2019-05-04T13:09:54.000Z</time>
      </trkpt>
      <trkpt lat="45.18919" lon="5.87991">
        <ele>770.17</ele>
        <time>2019-05-04T13:09:59.000Z</time>
      </trkpt>
      <trkpt lat="45.1891" lon="5.87989">
        <ele>769.65</ele>
        <time>2019-05-04T13:10:32.000Z</time>
      </trkpt>
      <trkpt lat="45.18896" lon="5.87984">
        <ele>770.34</ele>
        <time>2019-05-04T13:10:37.000Z</time>
      </trkpt>
      <trkpt lat="45.18877" lon="5.87977">
        <ele>764.74</ele>
        <time>2019-05-04T13:10:42.000Z</time>
      </trkpt>
      <trkpt lat="45.18865" lon="5.87957">
        <ele>763.26</ele>
        <time>2019-05-04T13:10:47.000Z</time>
      </trkpt>
      <trkpt lat="45.18851" lon="5.87935">
        <ele>760.33</ele>
        <time>2019-05-04T13:10:52.000Z</time>
      </trkpt>
      <trkpt lat="45.18836" lon="5.87915">
        <ele>761.92</ele>
        <time>2019-05-04T13:10:57.000Z</time>
      </trkpt>
      <trkpt lat="45.18826" lon="5.87903">
        <ele>760.48</ele>
        <time>2019-05-04T13:11:02.000Z</time>
      </trkpt>
      <trkpt lat="45.18818" lon="5.87897">
        <ele>767.82</ele>
        <time>2019-05-04T13:11:53.000Z</time>
      </trkpt>
      <trkpt lat="45.18815" lon="5.87885">
        <ele>761.39</ele>
        <time>2019-05-04T13:14:26.000Z</time>
      </trkpt>
      <trkpt lat="45.18815" lon="5.87871">
        <ele>758.89</ele>
        <time>2019-05-04T13:21:44.000Z</time>
      </trkpt>
      <trkpt lat="45.18815" lon="5.87858">
        <ele>758.62</ele>
        <time>2019-05-04T13:22:00.000Z</time>
      </trkpt>
      <trkpt lat="45.18813" lon="5.87846">
        <ele>757.34</ele>
        <time>2019-05-04T13:22:40.000Z</time>
      </trkpt>
      <trkpt lat="45.18822" lon="5.87842">
        <ele>752.44</ele>
        <time>2019-05-04T13:23:03.000Z</time>
      </trkpt>
      <trkpt lat="45.18814" lon="5.87836">
        <ele>748.01</ele>
        <time>2019-05-04T13:43:51.000Z</time>
      </trkpt>
      <trkpt lat="45.18812" lon="5.87849">
        <ele>751.02</ele>
        <time>2019-05-04T13:54:18.000Z</time>
      </trkpt>
      <trkpt lat="45.18814" lon="5.87862">
        <ele>750.31</ele>
        <time>2019-05-04T13:54:29.000Z</time>
      </trkpt>
      <trkpt lat="45.18814" lon="5.87876">
        <ele>751.7</ele>
        <time>2019-05-04T13:54:36.000Z</time>
      </trkpt>
      <trkpt lat="45.18812" lon="5.8789">
        <ele>749.14</ele>
        <time>2019-05-04T13:54:43.000Z</time>
      </trkpt>
      <trkpt lat="45.18815" lon="5.87902">
        <ele>750.07</ele>
        <time>2019-05-04T13:54:57.000Z</time>
      </trkpt>
      <trkpt lat="45.18823" lon="5.87908">
        <ele>754.44</ele>
        <time>2019-05-04T13:55:06.000Z</time>
      </trkpt>
      <trkpt lat="45.18831" lon="5.87915">
        <ele>754.94</ele>
        <time>2019-05-04T13:55:22.000Z</time>
      </trkpt>
      <trkpt lat="45.18837" lon="5.87925">
        <ele>751.61</ele>
        <time>2019-05-04T13:55:27.000Z</time>
      </trkpt>
      <trkpt lat="45.18848" lon="5.87935">
        <ele>753.75</ele>
        <time>2019-05-04T13:55:32.000Z</time>
      </trkpt>
      <trkpt lat="45.18859" lon="5.87947">
        <ele>754.9</ele>
        <time>2019-05-04T13:55:37.000Z</time>
      </trkpt>
      <trkpt lat="45.18871" lon="5.87966">
        <ele>754.76</ele>
        <time>2019-05-04T13:55:42.000Z</time>
      </trkpt>
      <trkpt lat="45.18885" lon="5.87983">
        <ele>757.79</ele>
        <time>2019-05-04T13:55:47.000Z</time>
      </trkpt>
      <trkpt lat="45.18902" lon="5.87993">
        <ele>754.08</ele>
        <time>2019-05-04T13:55:52.000Z</time>
      </trkpt>
      <trkpt lat="45.18916" lon="5.87996">
        <ele>753.1</ele>
        <time>2019-05-04T13:55:57.000Z</time>
      </trkpt>
      <trkpt lat="45.18905" lon="5.88003">
        <ele>750.66</ele>
        <time>2019-05-04T13:56:10.000Z</time>
      </trkpt>
      <trkpt lat="45.18889" lon="5.88002">
        <ele>751.16</ele>
        <time>2019-05-04T13:56:15.000Z</time>
      </trkpt>
      <trkpt lat="45.1888" lon="5.87995">
        <ele>752.84</ele>
        <time>2019-05-04T13:56:20.000Z</time>
      </trkpt>
      <trkpt lat="45.18878" lon="5.87983">
        <ele>757.21</ele>
        <time>2019-05-04T13:56:40.000Z</time>
      </trkpt>
      <trkpt lat="45.18868" lon="5.87978">
        <ele>754.79</ele>
        <time>2019-05-04T13:56:56.000Z</time>
      </trkpt>
      <trkpt lat="45.1885" lon="5.87973">
        <ele>751.62</ele>
        <time>2019-05-04T13:57:01.000Z</time>
      </trkpt>
      <trkpt lat="45.18831" lon="5.87957">
        <ele>750.68</ele>
        <time>2019-05-04T13:57:06.000Z</time>
      </trkpt>
      <trkpt lat="45.18811" lon="5.87941">
        <ele>756.77</ele>
        <time>2019-05-04T13:57:11.000Z</time>
      </trkpt>
      <trkpt lat="45.18792" lon="5.87922">
        <ele>757.17</ele>
        <time>2019-05-04T13:57:16.000Z</time>
      </trkpt>
      <trkpt lat="45.18767" lon="5.87904">
        <ele>760.03</ele>
        <time>2019-05-04T13:57:21.000Z</time>
      </trkpt>
      <trkpt lat="45.18743" lon="5.8789">
        <ele>765.43</ele>
        <time>2019-05-04T13:57:26.000Z</time>
      </trkpt>
      <trkpt lat="45.18722" lon="5.87882">
        <ele>766.96</ele>
        <time>2019-05-04T13:57:31.000Z</time>
      </trkpt>
      <trkpt lat="45.18702" lon="5.87873">
        <ele>770.51</ele>
        <time>2019-05-04T13:57:36.000Z</time>
      </trkpt>
      <trkpt lat="45.18681" lon="5.87871">
        <ele>769.45</ele>
        <time>2019-05-04T13:57:41.000Z</time>
      </trkpt>
      <trkpt lat="45.18656" lon="5.87864">
        <ele>769.49</ele>
        <time>2019-05-04T13:57:46.000Z</time>
      </trkpt>
      <trkpt lat="45.18635" lon="5.87858">
        <ele>773.76</ele>
        <time>2019-05-04T13:57:51.000Z</time>
      </trkpt>
      <trkpt lat="45.18606" lon="5.87849">
        <ele>774.82</ele>
        <time>2019-05-04T13:57:56.000Z</time>
      </trkpt>
      <trkpt lat="45.18584" lon="5.8785">
        <ele>775.56</ele>
        <time>2019-05-04T13:58:01.000Z</time>
      </trkpt>
      <trkpt lat="45.18549" lon="5.87835">
        <ele>776.56</ele>
        <time>2019-05-04T13:58:06.000Z</time>
      </trkpt>
      <trkpt lat="45.18499" lon="5.87804">
        <ele>774.58</ele>
        <time>2019-05-04T13:58:11.000Z</time>
      </trkpt>
      <trkpt lat="45.18436" lon="5.87799">
        <ele>773.28</ele>
        <time>2019-05-04T13:58:16.000Z</time>
      </trkpt>
      <trkpt lat="45.18379" lon="5.87843">
        <ele>766.81</ele>
        <time>2019-05-04T13:58:21.000Z</time>
      </trkpt>
      <trkpt lat="45.1832" lon="5.87911">
        <ele>755.16</ele>
        <time>2019-05-04T13:58:26.000Z</time>
      </trkpt>
      <trkpt lat="45.18274" lon="5.87991">
        <ele>745.99</ele>
        <time>2019-05-04T13:58:31.000Z</time>
      </trkpt>
      <trkpt lat="45.18248" lon="5.88019">
        <ele>738.59</ele>
        <time>2019-05-04T13:58:36.000Z</time>
      </trkpt>
      <trkpt lat="45.18261" lon="5.87971">
        <ele>736.48</ele>
        <time>2019-05-04T13:58:41.000Z</time>
      </trkpt>
      <trkpt lat="45.18262" lon="5.879">
        <ele>733.89</ele>
        <time>2019-05-04T13:58:46.000Z</time>
      </trkpt>
      <trkpt lat="45.18276" lon="5.87814">
        <ele>729.6</ele>
        <time>2019-05-04T13:58:51.000Z</time>
      </trkpt>
      <trkpt lat="45.18294" lon="5.87729">
        <ele>723.66</ele>
        <time>2019-05-04T13:58:56.000Z</time>
      </trkpt>
      <trkpt lat="45.18299" lon="5.87685">
        <ele>716.7</ele>
        <time>2019-05-04T13:59:01.000Z</time>
      </trkpt>
      <trkpt lat="45.18303" lon="5.87641">
        <ele>711.58</ele>
        <time>2019-05-04T13:59:06.000Z</time>
      </trkpt>
      <trkpt lat="45.18319" lon="5.87586">
        <ele>711.35</ele>
        <time>2019-05-04T13:59:11.000Z</time>
      </trkpt>
      <trkpt lat="45.18336" lon="5.87533">
        <ele>708.22</ele>
        <time>2019-05-04T13:59:16.000Z</time>
      </trkpt>
      <trkpt lat="45.18351" lon="5.87489">
        <ele>703.12</ele>
        <time>2019-05-04T13:59:21.000Z</time>
      </trkpt>
      <trkpt lat="45.18368" lon="5.87449">
        <ele>693.21</ele>
        <time>2019-05-04T13:59:26.000Z</time>
      </trkpt>
      <trkpt lat="45.1838" lon="5.87411">
        <ele>685.23</ele>
        <time>2019-05-04T13:59:31.000Z</time>
      </trkpt>
      <trkpt lat="45.18384" lon="5.87388">
        <ele>682.14</ele>
        <time>2019-05-04T13:59:36.000Z</time>
      </trkpt>
      <trkpt lat="45.18375" lon="5.87383">
        <ele>685.14</ele>
        <time>2019-05-04T14:00:55.000Z</time>
      </trkpt>
      <trkpt lat="45.18374" lon="5.87383">
        <ele>682.94</ele>
        <time>2019-05-04T14:02:07.000Z</time>
      </trkpt>
    </trkseg>
  </trk>
</gpx>